<?xml version="1.0" encoding="UTF-8"?>
<gpx xmlns="http://www.topografix.com/GPX/1/1" version="1.1" xmlns:xsi="http://www.w3.org/2001/XMLSchema-instance" xsi:schemaLocation="http://www.topografix.com/GPX/1/1 http://www.topografix.com/GPX/1/1/gpx.xsd" creator="MotionXGPSFull 21.1 Build 4789R">
<trk>
<name><![CDATA[Goldenbaum rund fff]]></name>
<desc><![CDATA[11.08.2013  5:27 pm]]></desc>
<trkseg>
<trkpt lat="53.3249638" lon="13.2344154">
<ele>89.722</ele>
<time>2013-08-11T15:27:03.960Z</time>
</trkpt>
<trkpt lat="53.3249638" lon="13.2344154">
<ele>89.715</ele>
<time>2013-08-11T15:27:20.103Z</time>
</trkpt>
</trkseg>
<trkseg>
<trkpt lat="53.3249168" lon="13.2341358">
<ele>89.385</ele>
<time>2013-08-11T15:27:23.304Z</time>
</trkpt>
<trkpt lat="53.3249168" lon="13.2341358">
<ele>88.810</ele>
<time>2013-08-11T15:27:44.310Z</time>
</trkpt>
<trkpt lat="53.3249168" lon="13.2341358">
<ele>88.318</ele>
<time>2013-08-11T15:27:44.410Z</time>
</trkpt>
<trkpt lat="53.3248480" lon="13.2337114">
<ele>88.370</ele>
<time>2013-08-11T15:28:05.926Z</time>
</trkpt>
<trkpt lat="53.3248141" lon="13.2335223">
<ele>88.801</ele>
<time>2013-08-11T15:28:09.544Z</time>
</trkpt>
<trkpt lat="53.3247760" lon="13.2333192">
<ele>89.210</ele>
<time>2013-08-11T15:28:12.623Z</time>
</trkpt>
<trkpt lat="53.3247388" lon="13.2330893">
<ele>89.260</ele>
<time>2013-08-11T15:28:15.261Z</time>
</trkpt>
<trkpt lat="53.3246995" lon="13.2328222">
<ele>88.720</ele>
<time>2013-08-11T15:28:17.789Z</time>
</trkpt>
<trkpt lat="53.3246701" lon="13.2326240">
<ele>87.723</ele>
<time>2013-08-11T15:28:19.456Z</time>
</trkpt>
<trkpt lat="53.3246218" lon="13.2323181">
<ele>86.743</ele>
<time>2013-08-11T15:28:22.080Z</time>
</trkpt>
<trkpt lat="53.3245653" lon="13.2320268">
<ele>86.044</ele>
<time>2013-08-11T15:28:24.801Z</time>
</trkpt>
<trkpt lat="53.3245253" lon="13.2318311">
<ele>85.472</ele>
<time>2013-08-11T15:28:26.764Z</time>
</trkpt>
<trkpt lat="53.3244724" lon="13.2315846">
<ele>84.895</ele>
<time>2013-08-11T15:28:29.384Z</time>
</trkpt>
<trkpt lat="53.3244261" lon="13.2313372">
<ele>84.184</ele>
<time>2013-08-11T15:28:32.138Z</time>
</trkpt>
<trkpt lat="53.3243861" lon="13.2311403">
<ele>83.297</ele>
<time>2013-08-11T15:28:34.500Z</time>
</trkpt>
<trkpt lat="53.3243602" lon="13.2309827">
<ele>82.562</ele>
<time>2013-08-11T15:28:36.427Z</time>
</trkpt>
<trkpt lat="53.3243109" lon="13.2307784">
<ele>82.429</ele>
<time>2013-08-11T15:28:39.259Z</time>
</trkpt>
<trkpt lat="53.3242683" lon="13.2306171">
<ele>82.635</ele>
<time>2013-08-11T15:28:41.658Z</time>
</trkpt>
<trkpt lat="53.3242355" lon="13.2304294">
<ele>82.379</ele>
<time>2013-08-11T15:28:44.180Z</time>
</trkpt>
<trkpt lat="53.3241994" lon="13.2302322">
<ele>81.505</ele>
<time>2013-08-11T15:28:46.619Z</time>
</trkpt>
<trkpt lat="53.3241672" lon="13.2300608">
<ele>81.342</ele>
<time>2013-08-11T15:28:48.511Z</time>
</trkpt>
<trkpt lat="53.3241392" lon="13.2298908">
<ele>83.075</ele>
<time>2013-08-11T15:28:50.281Z</time>
</trkpt>
<trkpt lat="53.3241026" lon="13.2296709">
<ele>85.840</ele>
<time>2013-08-11T15:28:52.548Z</time>
</trkpt>
<trkpt lat="53.3240646" lon="13.2295116">
<ele>87.853</ele>
<time>2013-08-11T15:28:54.300Z</time>
</trkpt>
<trkpt lat="53.3240017" lon="13.2293069">
<ele>88.024</ele>
<time>2013-08-11T15:28:56.722Z</time>
</trkpt>
<trkpt lat="53.3239280" lon="13.2290714">
<ele>86.306</ele>
<time>2013-08-11T15:28:59.553Z</time>
</trkpt>
<trkpt lat="53.3238762" lon="13.2288626">
<ele>83.939</ele>
<time>2013-08-11T15:29:01.993Z</time>
</trkpt>
<trkpt lat="53.3238384" lon="13.2286700">
<ele>82.253</ele>
<time>2013-08-11T15:29:04.233Z</time>
</trkpt>
<trkpt lat="53.3237965" lon="13.2284529">
<ele>81.436</ele>
<time>2013-08-11T15:29:06.829Z</time>
</trkpt>
<trkpt lat="53.3237514" lon="13.2281816">
<ele>81.512</ele>
<time>2013-08-11T15:29:09.947Z</time>
</trkpt>
<trkpt lat="53.3237085" lon="13.2279137">
<ele>82.380</ele>
<time>2013-08-11T15:29:12.602Z</time>
</trkpt>
<trkpt lat="53.3236848" lon="13.2277182">
<ele>83.187</ele>
<time>2013-08-11T15:29:14.254Z</time>
</trkpt>
<trkpt lat="53.3236659" lon="13.2275057">
<ele>82.847</ele>
<time>2013-08-11T15:29:16.005Z</time>
</trkpt>
<trkpt lat="53.3236340" lon="13.2271999">
<ele>81.400</ele>
<time>2013-08-11T15:29:18.492Z</time>
</trkpt>
<trkpt lat="53.3235940" lon="13.2269421">
<ele>79.861</ele>
<time>2013-08-11T15:29:20.728Z</time>
</trkpt>
<trkpt lat="53.3235230" lon="13.2268045">
<ele>78.680</ele>
<time>2013-08-11T15:29:22.292Z</time>
</trkpt>
<trkpt lat="53.3234707" lon="13.2266661">
<ele>77.609</ele>
<time>2013-08-11T15:29:23.875Z</time>
</trkpt>
<trkpt lat="53.3234022" lon="13.2264048">
<ele>76.771</ele>
<time>2013-08-11T15:29:26.904Z</time>
</trkpt>
<trkpt lat="53.3233678" lon="13.2261645">
<ele>77.149</ele>
<time>2013-08-11T15:29:29.912Z</time>
</trkpt>
<trkpt lat="53.3233225" lon="13.2259226">
<ele>79.104</ele>
<time>2013-08-11T15:29:33.015Z</time>
</trkpt>
<trkpt lat="53.3232690" lon="13.2257909">
<ele>81.096</ele>
<time>2013-08-11T15:29:34.856Z</time>
</trkpt>
<trkpt lat="53.3232176" lon="13.2256675">
<ele>81.510</ele>
<time>2013-08-11T15:29:36.555Z</time>
</trkpt>
<trkpt lat="53.3231347" lon="13.2254499">
<ele>80.337</ele>
<time>2013-08-11T15:29:39.267Z</time>
</trkpt>
<trkpt lat="53.3230753" lon="13.2252925">
<ele>78.303</ele>
<time>2013-08-11T15:29:41.203Z</time>
</trkpt>
<trkpt lat="53.3229633" lon="13.2250472">
<ele>76.256</ele>
<time>2013-08-11T15:29:44.559Z</time>
</trkpt>
<trkpt lat="53.3228928" lon="13.2248869">
<ele>74.826</ele>
<time>2013-08-11T15:29:46.699Z</time>
</trkpt>
<trkpt lat="53.3228029" lon="13.2246595">
<ele>74.309</ele>
<time>2013-08-11T15:29:49.505Z</time>
</trkpt>
<trkpt lat="53.3227286" lon="13.2244756">
<ele>75.164</ele>
<time>2013-08-11T15:29:51.797Z</time>
</trkpt>
<trkpt lat="53.3226299" lon="13.2242546">
<ele>77.662</ele>
<time>2013-08-11T15:29:54.730Z</time>
</trkpt>
<trkpt lat="53.3225463" lon="13.2240690">
<ele>80.710</ele>
<time>2013-08-11T15:29:57.191Z</time>
</trkpt>
<trkpt lat="53.3224355" lon="13.2238573">
<ele>82.729</ele>
<time>2013-08-11T15:29:59.911Z</time>
</trkpt>
<trkpt lat="53.3223079" lon="13.2236110">
<ele>83.541</ele>
<time>2013-08-11T15:30:03.278Z</time>
</trkpt>
<trkpt lat="53.3222011" lon="13.2232969">
<ele>84.099</ele>
<time>2013-08-11T15:30:07.598Z</time>
</trkpt>
<trkpt lat="53.3221779" lon="13.2229606">
<ele>85.136</ele>
<time>2013-08-11T15:30:11.258Z</time>
</trkpt>
<trkpt lat="53.3221794" lon="13.2227472">
<ele>86.443</ele>
<time>2013-08-11T15:30:13.537Z</time>
</trkpt>
<trkpt lat="53.3221868" lon="13.2225624">
<ele>87.007</ele>
<time>2013-08-11T15:30:15.645Z</time>
</trkpt>
<trkpt lat="53.3222034" lon="13.2223167">
<ele>86.326</ele>
<time>2013-08-11T15:30:18.533Z</time>
</trkpt>
<trkpt lat="53.3222040" lon="13.2221483">
<ele>85.003</ele>
<time>2013-08-11T15:30:20.523Z</time>
</trkpt>
<trkpt lat="53.3222018" lon="13.2219367">
<ele>83.470</ele>
<time>2013-08-11T15:30:23.010Z</time>
</trkpt>
<trkpt lat="53.3222039" lon="13.2216977">
<ele>81.860</ele>
<time>2013-08-11T15:30:25.752Z</time>
</trkpt>
<trkpt lat="53.3222124" lon="13.2214340">
<ele>80.667</ele>
<time>2013-08-11T15:30:28.851Z</time>
</trkpt>
<trkpt lat="53.3222556" lon="13.2211388">
<ele>80.015</ele>
<time>2013-08-11T15:30:32.904Z</time>
</trkpt>
<trkpt lat="53.3222646" lon="13.2209608">
<ele>79.392</ele>
<time>2013-08-11T15:30:35.269Z</time>
</trkpt>
<trkpt lat="53.3222773" lon="13.2206963">
<ele>78.818</ele>
<time>2013-08-11T15:30:38.641Z</time>
</trkpt>
<trkpt lat="53.3222932" lon="13.2204495">
<ele>78.833</ele>
<time>2013-08-11T15:30:41.791Z</time>
</trkpt>
<trkpt lat="53.3223368" lon="13.2202116">
<ele>79.621</ele>
<time>2013-08-11T15:30:45.320Z</time>
</trkpt>
<trkpt lat="53.3223372" lon="13.2200270">
<ele>81.105</ele>
<time>2013-08-11T15:30:48.191Z</time>
</trkpt>
<trkpt lat="53.3223110" lon="13.2198398">
<ele>83.018</ele>
<time>2013-08-11T15:30:51.080Z</time>
</trkpt>
<trkpt lat="53.3222983" lon="13.2196604">
<ele>84.941</ele>
<time>2013-08-11T15:30:53.726Z</time>
</trkpt>
<trkpt lat="53.3222781" lon="13.2194127">
<ele>86.592</ele>
<time>2013-08-11T15:30:57.135Z</time>
</trkpt>
<trkpt lat="53.3222580" lon="13.2191160">
<ele>87.214</ele>
<time>2013-08-11T15:31:00.893Z</time>
</trkpt>
<trkpt lat="53.3222418" lon="13.2189112">
<ele>86.351</ele>
<time>2013-08-11T15:31:03.558Z</time>
</trkpt>
<trkpt lat="53.3222314" lon="13.2186953">
<ele>84.959</ele>
<time>2013-08-11T15:31:06.442Z</time>
</trkpt>
<trkpt lat="53.3222161" lon="13.2185384">
<ele>84.450</ele>
<time>2013-08-11T15:31:08.511Z</time>
</trkpt>
<trkpt lat="53.3221777" lon="13.2183630">
<ele>85.148</ele>
<time>2013-08-11T15:31:10.719Z</time>
</trkpt>
<trkpt lat="53.3221458" lon="13.2181436">
<ele>86.187</ele>
<time>2013-08-11T15:31:13.308Z</time>
</trkpt>
<trkpt lat="53.3221310" lon="13.2179654">
<ele>86.773</ele>
<time>2013-08-11T15:31:15.396Z</time>
</trkpt>
<trkpt lat="53.3221069" lon="13.2178038">
<ele>86.966</ele>
<time>2013-08-11T15:31:17.373Z</time>
</trkpt>
<trkpt lat="53.3221111" lon="13.2175643">
<ele>87.133</ele>
<time>2013-08-11T15:31:20.526Z</time>
</trkpt>
<trkpt lat="53.3221007" lon="13.2173573">
<ele>87.336</ele>
<time>2013-08-11T15:31:23.385Z</time>
</trkpt>
<trkpt lat="53.3221000" lon="13.2171469">
<ele>87.314</ele>
<time>2013-08-11T15:31:26.370Z</time>
</trkpt>
<trkpt lat="53.3220996" lon="13.2169818">
<ele>86.981</ele>
<time>2013-08-11T15:31:28.787Z</time>
</trkpt>
<trkpt lat="53.3221191" lon="13.2168031">
<ele>86.629</ele>
<time>2013-08-11T15:31:31.554Z</time>
</trkpt>
<trkpt lat="53.3220841" lon="13.2166095">
<ele>86.851</ele>
<time>2013-08-11T15:31:34.634Z</time>
</trkpt>
<trkpt lat="53.3220485" lon="13.2164301">
<ele>87.886</ele>
<time>2013-08-11T15:31:37.090Z</time>
</trkpt>
<trkpt lat="53.3220115" lon="13.2162355">
<ele>88.997</ele>
<time>2013-08-11T15:31:39.594Z</time>
</trkpt>
<trkpt lat="53.3219721" lon="13.2159868">
<ele>89.029</ele>
<time>2013-08-11T15:31:42.771Z</time>
</trkpt>
<trkpt lat="53.3219198" lon="13.2157852">
<ele>87.514</ele>
<time>2013-08-11T15:31:45.462Z</time>
</trkpt>
<trkpt lat="53.3218704" lon="13.2155710">
<ele>85.319</ele>
<time>2013-08-11T15:31:48.198Z</time>
</trkpt>
<trkpt lat="53.3218375" lon="13.2154266">
<ele>83.785</ele>
<time>2013-08-11T15:31:50.030Z</time>
</trkpt>
<trkpt lat="53.3218127" lon="13.2152775">
<ele>83.745</ele>
<time>2013-08-11T15:31:51.922Z</time>
</trkpt>
<trkpt lat="53.3217860" lon="13.2150635">
<ele>85.036</ele>
<time>2013-08-11T15:31:54.788Z</time>
</trkpt>
<trkpt lat="53.3217648" lon="13.2148556">
<ele>86.494</ele>
<time>2013-08-11T15:31:57.889Z</time>
</trkpt>
<trkpt lat="53.3217409" lon="13.2146958">
<ele>87.112</ele>
<time>2013-08-11T15:32:00.507Z</time>
</trkpt>
<trkpt lat="53.3217026" lon="13.2145582">
<ele>86.971</ele>
<time>2013-08-11T15:32:03.307Z</time>
</trkpt>
<trkpt lat="53.3217026" lon="13.2145582">
<ele>86.670</ele>
<time>2013-08-11T15:32:07.307Z</time>
</trkpt>
<trkpt lat="53.3217026" lon="13.2145582">
<ele>86.619</ele>
<time>2013-08-11T15:32:48.560Z</time>
</trkpt>
<trkpt lat="53.3215626" lon="13.2142895">
<ele>86.697</ele>
<time>2013-08-11T15:33:00.093Z</time>
</trkpt>
<trkpt lat="53.3214890" lon="13.2141626">
<ele>86.693</ele>
<time>2013-08-11T15:33:02.777Z</time>
</trkpt>
<trkpt lat="53.3213966" lon="13.2140466">
<ele>86.859</ele>
<time>2013-08-11T15:33:05.321Z</time>
</trkpt>
<trkpt lat="53.3213966" lon="13.2140466">
<ele>87.416</ele>
<time>2013-08-11T15:33:19.314Z</time>
</trkpt>
<trkpt lat="53.3213966" lon="13.2140466">
<ele>87.890</ele>
<time>2013-08-11T15:33:19.414Z</time>
</trkpt>
<trkpt lat="53.3212020" lon="13.2137914">
<ele>87.772</ele>
<time>2013-08-11T15:33:36.306Z</time>
</trkpt>
<trkpt lat="53.3211305" lon="13.2136984">
<ele>87.352</ele>
<time>2013-08-11T15:33:39.457Z</time>
</trkpt>
<trkpt lat="53.3210548" lon="13.2135927">
<ele>87.212</ele>
<time>2013-08-11T15:33:42.225Z</time>
</trkpt>
<trkpt lat="53.3209745" lon="13.2135168">
<ele>87.509</ele>
<time>2013-08-11T15:33:44.663Z</time>
</trkpt>
<trkpt lat="53.3208856" lon="13.2134238">
<ele>88.220</ele>
<time>2013-08-11T15:33:47.348Z</time>
</trkpt>
<trkpt lat="53.3208045" lon="13.2133208">
<ele>89.584</ele>
<time>2013-08-11T15:33:49.814Z</time>
</trkpt>
<trkpt lat="53.3207095" lon="13.2132022">
<ele>91.382</ele>
<time>2013-08-11T15:33:52.531Z</time>
</trkpt>
<trkpt lat="53.3206394" lon="13.2131004">
<ele>92.660</ele>
<time>2013-08-11T15:33:54.509Z</time>
</trkpt>
<trkpt lat="53.3205403" lon="13.2129546">
<ele>92.129</ele>
<time>2013-08-11T15:33:57.240Z</time>
</trkpt>
<trkpt lat="53.3204458" lon="13.2128160">
<ele>89.589</ele>
<time>2013-08-11T15:33:59.854Z</time>
</trkpt>
<trkpt lat="53.3203525" lon="13.2126863">
<ele>86.714</ele>
<time>2013-08-11T15:34:02.515Z</time>
</trkpt>
<trkpt lat="53.3202357" lon="13.2125263">
<ele>84.989</ele>
<time>2013-08-11T15:34:05.652Z</time>
</trkpt>
<trkpt lat="53.3200848" lon="13.2123094">
<ele>84.027</ele>
<time>2013-08-11T15:34:09.030Z</time>
</trkpt>
<trkpt lat="53.3199771" lon="13.2121431">
<ele>82.362</ele>
<time>2013-08-11T15:34:11.327Z</time>
</trkpt>
<trkpt lat="53.3199771" lon="13.2121431">
<ele>79.545</ele>
<time>2013-08-11T15:34:16.310Z</time>
</trkpt>
<trkpt lat="53.3199771" lon="13.2121431">
<ele>77.465</ele>
<time>2013-08-11T15:35:07.441Z</time>
</trkpt>
<trkpt lat="53.3197923" lon="13.2118469">
<ele>77.501</ele>
<time>2013-08-11T15:35:31.448Z</time>
</trkpt>
<trkpt lat="53.3196993" lon="13.2117216">
<ele>78.323</ele>
<time>2013-08-11T15:35:35.862Z</time>
</trkpt>
<trkpt lat="53.3196171" lon="13.2116012">
<ele>78.295</ele>
<time>2013-08-11T15:35:39.010Z</time>
</trkpt>
<trkpt lat="53.3195382" lon="13.2114712">
<ele>77.424</ele>
<time>2013-08-11T15:35:41.762Z</time>
</trkpt>
<trkpt lat="53.3194594" lon="13.2113707">
<ele>76.567</ele>
<time>2013-08-11T15:35:44.019Z</time>
</trkpt>
<trkpt lat="53.3193688" lon="13.2112744">
<ele>76.194</ele>
<time>2013-08-11T15:35:46.356Z</time>
</trkpt>
<trkpt lat="53.3192888" lon="13.2111920">
<ele>76.388</ele>
<time>2013-08-11T15:35:48.353Z</time>
</trkpt>
<trkpt lat="53.3192888" lon="13.2111920">
<ele>77.010</ele>
<time>2013-08-11T15:36:02.374Z</time>
</trkpt>
<trkpt lat="53.3192888" lon="13.2111920">
<ele>77.489</ele>
<time>2013-08-11T15:36:06.253Z</time>
</trkpt>
<trkpt lat="53.3190894" lon="13.2110509">
<ele>77.375</ele>
<time>2013-08-11T15:36:29.956Z</time>
</trkpt>
<trkpt lat="53.3189416" lon="13.2109606">
<ele>76.903</ele>
<time>2013-08-11T15:36:34.976Z</time>
</trkpt>
<trkpt lat="53.3188438" lon="13.2108920">
<ele>76.298</ele>
<time>2013-08-11T15:36:37.763Z</time>
</trkpt>
<trkpt lat="53.3187044" lon="13.2107314">
<ele>75.263</ele>
<time>2013-08-11T15:36:41.854Z</time>
</trkpt>
<trkpt lat="53.3186133" lon="13.2105881">
<ele>73.827</ele>
<time>2013-08-11T15:36:44.823Z</time>
</trkpt>
<trkpt lat="53.3185308" lon="13.2104355">
<ele>72.667</ele>
<time>2013-08-11T15:36:47.845Z</time>
</trkpt>
<trkpt lat="53.3184702" lon="13.2102897">
<ele>72.161</ele>
<time>2013-08-11T15:36:50.534Z</time>
</trkpt>
<trkpt lat="53.3184077" lon="13.2101553">
<ele>72.019</ele>
<time>2013-08-11T15:36:53.215Z</time>
</trkpt>
<trkpt lat="53.3183426" lon="13.2099897">
<ele>71.838</ele>
<time>2013-08-11T15:36:56.354Z</time>
</trkpt>
<trkpt lat="53.3182820" lon="13.2098410">
<ele>71.535</ele>
<time>2013-08-11T15:36:59.120Z</time>
</trkpt>
<trkpt lat="53.3182060" lon="13.2096842">
<ele>72.039</ele>
<time>2013-08-11T15:37:02.106Z</time>
</trkpt>
<trkpt lat="53.3181203" lon="13.2095200">
<ele>73.891</ele>
<time>2013-08-11T15:37:05.233Z</time>
</trkpt>
<trkpt lat="53.3180420" lon="13.2093456">
<ele>75.808</ele>
<time>2013-08-11T15:37:08.327Z</time>
</trkpt>
<trkpt lat="53.3179763" lon="13.2091769">
<ele>76.500</ele>
<time>2013-08-11T15:37:11.165Z</time>
</trkpt>
<trkpt lat="53.3179105" lon="13.2090226">
<ele>76.183</ele>
<time>2013-08-11T15:37:13.835Z</time>
</trkpt>
<trkpt lat="53.3178381" lon="13.2088615">
<ele>75.483</ele>
<time>2013-08-11T15:37:16.684Z</time>
</trkpt>
<trkpt lat="53.3177762" lon="13.2087140">
<ele>74.924</ele>
<time>2013-08-11T15:37:19.220Z</time>
</trkpt>
<trkpt lat="53.3177172" lon="13.2085725">
<ele>74.748</ele>
<time>2013-08-11T15:37:21.612Z</time>
</trkpt>
<trkpt lat="53.3176371" lon="13.2084196">
<ele>74.832</ele>
<time>2013-08-11T15:37:24.405Z</time>
</trkpt>
<trkpt lat="53.3175591" lon="13.2082801">
<ele>75.037</ele>
<time>2013-08-11T15:37:27.002Z</time>
</trkpt>
<trkpt lat="53.3174811" lon="13.2081326">
<ele>75.057</ele>
<time>2013-08-11T15:37:29.646Z</time>
</trkpt>
<trkpt lat="53.3173971" lon="13.2079857">
<ele>74.642</ele>
<time>2013-08-11T15:37:32.315Z</time>
</trkpt>
<trkpt lat="53.3173056" lon="13.2078332">
<ele>73.934</ele>
<time>2013-08-11T15:37:35.060Z</time>
</trkpt>
<trkpt lat="53.3172088" lon="13.2076739">
<ele>73.118</ele>
<time>2013-08-11T15:37:37.831Z</time>
</trkpt>
<trkpt lat="53.3171018" lon="13.2075023">
<ele>72.139</ele>
<time>2013-08-11T15:37:40.755Z</time>
</trkpt>
<trkpt lat="53.3170327" lon="13.2073849">
<ele>71.121</ele>
<time>2013-08-11T15:37:42.686Z</time>
</trkpt>
<trkpt lat="53.3169375" lon="13.2072116">
<ele>70.384</ele>
<time>2013-08-11T15:37:45.468Z</time>
</trkpt>
<trkpt lat="53.3168567" lon="13.2070571">
<ele>70.146</ele>
<time>2013-08-11T15:37:47.908Z</time>
</trkpt>
<trkpt lat="53.3167915" lon="13.2069426">
<ele>70.241</ele>
<time>2013-08-11T15:37:49.765Z</time>
</trkpt>
<trkpt lat="53.3166912" lon="13.2067617">
<ele>70.586</ele>
<time>2013-08-11T15:37:52.605Z</time>
</trkpt>
<trkpt lat="53.3166246" lon="13.2066421">
<ele>71.207</ele>
<time>2013-08-11T15:37:54.422Z</time>
</trkpt>
<trkpt lat="53.3165151" lon="13.2064402">
<ele>71.928</ele>
<time>2013-08-11T15:37:57.361Z</time>
</trkpt>
<trkpt lat="53.3164273" lon="13.2062460">
<ele>72.472</ele>
<time>2013-08-11T15:37:59.924Z</time>
</trkpt>
<trkpt lat="53.3163241" lon="13.2060659">
<ele>72.954</ele>
<time>2013-08-11T15:38:02.532Z</time>
</trkpt>
<trkpt lat="53.3162544" lon="13.2059454">
<ele>73.545</ele>
<time>2013-08-11T15:38:04.291Z</time>
</trkpt>
<trkpt lat="53.3161522" lon="13.2057740">
<ele>73.889</ele>
<time>2013-08-11T15:38:06.848Z</time>
</trkpt>
<trkpt lat="53.3160549" lon="13.2055955">
<ele>73.697</ele>
<time>2013-08-11T15:38:09.438Z</time>
</trkpt>
<trkpt lat="53.3159791" lon="13.2054876">
<ele>73.197</ele>
<time>2013-08-11T15:38:11.252Z</time>
</trkpt>
<trkpt lat="53.3158755" lon="13.2053896">
<ele>72.895</ele>
<time>2013-08-11T15:38:13.398Z</time>
</trkpt>
<trkpt lat="53.3157675" lon="13.2052812">
<ele>73.277</ele>
<time>2013-08-11T15:38:15.563Z</time>
</trkpt>
<trkpt lat="53.3155858" lon="13.2051013">
<ele>74.396</ele>
<time>2013-08-11T15:38:18.661Z</time>
</trkpt>
<trkpt lat="53.3153976" lon="13.2049246">
<ele>75.710</ele>
<time>2013-08-11T15:38:21.476Z</time>
</trkpt>
<trkpt lat="53.3151999" lon="13.2047522">
<ele>76.604</ele>
<time>2013-08-11T15:38:24.295Z</time>
</trkpt>
<trkpt lat="53.3150637" lon="13.2046493">
<ele>76.535</ele>
<time>2013-08-11T15:38:26.171Z</time>
</trkpt>
<trkpt lat="53.3148647" lon="13.2045158">
<ele>75.023</ele>
<time>2013-08-11T15:38:28.986Z</time>
</trkpt>
<trkpt lat="53.3147734" lon="13.2044673">
<ele>72.083</ele>
<time>2013-08-11T15:38:30.460Z</time>
</trkpt>
<trkpt lat="53.3146834" lon="13.2044580">
<ele>68.882</ele>
<time>2013-08-11T15:38:32.336Z</time>
</trkpt>
<trkpt lat="53.3147808" lon="13.2045049">
<ele>66.987</ele>
<time>2013-08-11T15:38:35.160Z</time>
</trkpt>
<trkpt lat="53.3148708" lon="13.2044573">
<ele>66.748</ele>
<time>2013-08-11T15:38:39.376Z</time>
</trkpt>
<trkpt lat="53.3149527" lon="13.2043757">
<ele>67.228</ele>
<time>2013-08-11T15:38:43.870Z</time>
</trkpt>
<trkpt lat="53.3149982" lon="13.2042339">
<ele>67.511</ele>
<time>2013-08-11T15:38:49.204Z</time>
</trkpt>
<trkpt lat="53.3149894" lon="13.2040815">
<ele>67.351</ele>
<time>2013-08-11T15:38:55.243Z</time>
</trkpt>
<trkpt lat="53.3150547" lon="13.2042287">
<ele>66.762</ele>
<time>2013-08-11T15:39:02.430Z</time>
</trkpt>
<trkpt lat="53.3150897" lon="13.2044075">
<ele>66.133</ele>
<time>2013-08-11T15:39:08.470Z</time>
</trkpt>
<trkpt lat="53.3150983" lon="13.2045811">
<ele>66.038</ele>
<time>2013-08-11T15:39:12.791Z</time>
</trkpt>
<trkpt lat="53.3149936" lon="13.2046208">
<ele>66.403</ele>
<time>2013-08-11T15:39:17.434Z</time>
</trkpt>
<trkpt lat="53.3148672" lon="13.2045537">
<ele>66.652</ele>
<time>2013-08-11T15:39:23.136Z</time>
</trkpt>
<trkpt lat="53.3147308" lon="13.2044715">
<ele>66.612</ele>
<time>2013-08-11T15:39:26.893Z</time>
</trkpt>
<trkpt lat="53.3146208" lon="13.2043938">
<ele>66.487</ele>
<time>2013-08-11T15:39:29.251Z</time>
</trkpt>
<trkpt lat="53.3144669" lon="13.2042927">
<ele>66.487</ele>
<time>2013-08-11T15:39:32.037Z</time>
</trkpt>
<trkpt lat="53.3143700" lon="13.2042309">
<ele>66.250</ele>
<time>2013-08-11T15:39:33.749Z</time>
</trkpt>
<trkpt lat="53.3142835" lon="13.2041746">
<ele>65.444</ele>
<time>2013-08-11T15:39:35.353Z</time>
</trkpt>
<trkpt lat="53.3141667" lon="13.2040848">
<ele>64.552</ele>
<time>2013-08-11T15:39:37.779Z</time>
</trkpt>
<trkpt lat="53.3140855" lon="13.2040109">
<ele>64.105</ele>
<time>2013-08-11T15:39:39.648Z</time>
</trkpt>
<trkpt lat="53.3139882" lon="13.2039684">
<ele>63.856</ele>
<time>2013-08-11T15:39:41.918Z</time>
</trkpt>
<trkpt lat="53.3139007" lon="13.2038817">
<ele>63.513</ele>
<time>2013-08-11T15:39:44.679Z</time>
</trkpt>
<trkpt lat="53.3138032" lon="13.2038279">
<ele>63.353</ele>
<time>2013-08-11T15:39:48.090Z</time>
</trkpt>
<trkpt lat="53.3136994" lon="13.2037578">
<ele>64.092</ele>
<time>2013-08-11T15:39:52.046Z</time>
</trkpt>
<trkpt lat="53.3135851" lon="13.2036863">
<ele>65.905</ele>
<time>2013-08-11T15:39:55.475Z</time>
</trkpt>
<trkpt lat="53.3134353" lon="13.2035938">
<ele>67.869</ele>
<time>2013-08-11T15:39:59.526Z</time>
</trkpt>
<trkpt lat="53.3132787" lon="13.2035039">
<ele>68.964</ele>
<time>2013-08-11T15:40:03.155Z</time>
</trkpt>
<trkpt lat="53.3131230" lon="13.2033969">
<ele>69.123</ele>
<time>2013-08-11T15:40:06.332Z</time>
</trkpt>
<trkpt lat="53.3130157" lon="13.2033100">
<ele>68.853</ele>
<time>2013-08-11T15:40:08.472Z</time>
</trkpt>
<trkpt lat="53.3128895" lon="13.2031594">
<ele>68.788</ele>
<time>2013-08-11T15:40:11.306Z</time>
</trkpt>
<trkpt lat="53.3128127" lon="13.2030135">
<ele>69.443</ele>
<time>2013-08-11T15:40:13.498Z</time>
</trkpt>
<trkpt lat="53.3127007" lon="13.2027974">
<ele>70.630</ele>
<time>2013-08-11T15:40:16.769Z</time>
</trkpt>
<trkpt lat="53.3126076" lon="13.2026332">
<ele>71.505</ele>
<time>2013-08-11T15:40:19.242Z</time>
</trkpt>
<trkpt lat="53.3124749" lon="13.2024529">
<ele>71.442</ele>
<time>2013-08-11T15:40:22.300Z</time>
</trkpt>
<trkpt lat="53.3123819" lon="13.2023591">
<ele>70.608</ele>
<time>2013-08-11T15:40:24.449Z</time>
</trkpt>
<trkpt lat="53.3122840" lon="13.2022846">
<ele>69.700</ele>
<time>2013-08-11T15:40:26.827Z</time>
</trkpt>
<trkpt lat="53.3121839" lon="13.2021984">
<ele>69.261</ele>
<time>2013-08-11T15:40:29.653Z</time>
</trkpt>
<trkpt lat="53.3120975" lon="13.2021221">
<ele>69.571</ele>
<time>2013-08-11T15:40:31.808Z</time>
</trkpt>
<trkpt lat="53.3119839" lon="13.2020174">
<ele>70.558</ele>
<time>2013-08-11T15:40:34.490Z</time>
</trkpt>
<trkpt lat="53.3118597" lon="13.2019199">
<ele>72.601</ele>
<time>2013-08-11T15:40:37.530Z</time>
</trkpt>
<trkpt lat="53.3117714" lon="13.2018431">
<ele>75.788</ele>
<time>2013-08-11T15:40:39.861Z</time>
</trkpt>
<trkpt lat="53.3116456" lon="13.2017350">
<ele>78.622</ele>
<time>2013-08-11T15:40:42.931Z</time>
</trkpt>
<trkpt lat="53.3115420" lon="13.2016545">
<ele>79.957</ele>
<time>2013-08-11T15:40:45.146Z</time>
</trkpt>
<trkpt lat="53.3113663" lon="13.2014899">
<ele>80.431</ele>
<time>2013-08-11T15:40:48.549Z</time>
</trkpt>
<trkpt lat="53.3111906" lon="13.2013009">
<ele>80.649</ele>
<time>2013-08-11T15:40:51.761Z</time>
</trkpt>
<trkpt lat="53.3110291" lon="13.2010159">
<ele>81.062</ele>
<time>2013-08-11T15:40:55.221Z</time>
</trkpt>
<trkpt lat="53.3109446" lon="13.2008289">
<ele>82.215</ele>
<time>2013-08-11T15:40:57.811Z</time>
</trkpt>
<trkpt lat="53.3108561" lon="13.2006633">
<ele>84.275</ele>
<time>2013-08-11T15:41:01.044Z</time>
</trkpt>
<trkpt lat="53.3107922" lon="13.2005534">
<ele>86.571</ele>
<time>2013-08-11T15:41:03.578Z</time>
</trkpt>
<trkpt lat="53.3106586" lon="13.2003577">
<ele>88.202</ele>
<time>2013-08-11T15:41:08.148Z</time>
</trkpt>
<trkpt lat="53.3105741" lon="13.2002375">
<ele>88.915</ele>
<time>2013-08-11T15:41:11.694Z</time>
</trkpt>
<trkpt lat="53.3104941" lon="13.2001694">
<ele>88.378</ele>
<time>2013-08-11T15:41:15.058Z</time>
</trkpt>
<trkpt lat="53.3103842" lon="13.2001342">
<ele>85.701</ele>
<time>2013-08-11T15:41:19.650Z</time>
</trkpt>
<trkpt lat="53.3102818" lon="13.2001494">
<ele>81.487</ele>
<time>2013-08-11T15:41:24.337Z</time>
</trkpt>
<trkpt lat="53.3101948" lon="13.2000517">
<ele>77.517</ele>
<time>2013-08-11T15:41:29.543Z</time>
</trkpt>
<trkpt lat="53.3101602" lon="13.1999032">
<ele>74.594</ele>
<time>2013-08-11T15:41:34.006Z</time>
</trkpt>
<trkpt lat="53.3101560" lon="13.1997208">
<ele>72.726</ele>
<time>2013-08-11T15:41:38.616Z</time>
</trkpt>
<trkpt lat="53.3101084" lon="13.1995704">
<ele>71.342</ele>
<time>2013-08-11T15:41:42.891Z</time>
</trkpt>
<trkpt lat="53.3100962" lon="13.1993986">
<ele>69.794</ele>
<time>2013-08-11T15:41:47.378Z</time>
</trkpt>
<trkpt lat="53.3100562" lon="13.1992440">
<ele>68.502</ele>
<time>2013-08-11T15:41:51.446Z</time>
</trkpt>
<trkpt lat="53.3100044" lon="13.1990701">
<ele>67.690</ele>
<time>2013-08-11T15:41:55.148Z</time>
</trkpt>
<trkpt lat="53.3099469" lon="13.1989160">
<ele>66.798</ele>
<time>2013-08-11T15:41:58.094Z</time>
</trkpt>
<trkpt lat="53.3098769" lon="13.1987917">
<ele>65.967</ele>
<time>2013-08-11T15:42:00.677Z</time>
</trkpt>
<trkpt lat="53.3097951" lon="13.1987139">
<ele>65.578</ele>
<time>2013-08-11T15:42:02.936Z</time>
</trkpt>
<trkpt lat="53.3097158" lon="13.1986233">
<ele>64.835</ele>
<time>2013-08-11T15:42:05.145Z</time>
</trkpt>
<trkpt lat="53.3095946" lon="13.1985409">
<ele>63.049</ele>
<time>2013-08-11T15:42:08.190Z</time>
</trkpt>
<trkpt lat="53.3094860" lon="13.1984653">
<ele>61.122</ele>
<time>2013-08-11T15:42:10.994Z</time>
</trkpt>
<trkpt lat="53.3093705" lon="13.1984358">
<ele>60.120</ele>
<time>2013-08-11T15:42:13.897Z</time>
</trkpt>
<trkpt lat="53.3092662" lon="13.1983661">
<ele>60.368</ele>
<time>2013-08-11T15:42:16.789Z</time>
</trkpt>
<trkpt lat="53.3091654" lon="13.1982903">
<ele>61.740</ele>
<time>2013-08-11T15:42:19.851Z</time>
</trkpt>
<trkpt lat="53.3090552" lon="13.1982738">
<ele>63.762</ele>
<time>2013-08-11T15:42:23.330Z</time>
</trkpt>
<trkpt lat="53.3090552" lon="13.1982738">
<ele>65.765</ele>
<time>2013-08-11T15:42:29.303Z</time>
</trkpt>
<trkpt lat="53.3090552" lon="13.1982738">
<ele>66.888</ele>
<time>2013-08-11T15:43:09.848Z</time>
</trkpt>
<trkpt lat="53.3088291" lon="13.1981481">
<ele>66.499</ele>
<time>2013-08-11T15:43:24.491Z</time>
</trkpt>
<trkpt lat="53.3087154" lon="13.1981075">
<ele>65.444</ele>
<time>2013-08-11T15:43:27.874Z</time>
</trkpt>
<trkpt lat="53.3086106" lon="13.1980699">
<ele>65.065</ele>
<time>2013-08-11T15:43:30.744Z</time>
</trkpt>
<trkpt lat="53.3085018" lon="13.1980257">
<ele>66.129</ele>
<time>2013-08-11T15:43:33.788Z</time>
</trkpt>
<trkpt lat="53.3083748" lon="13.1979810">
<ele>68.306</ele>
<time>2013-08-11T15:43:37.428Z</time>
</trkpt>
<trkpt lat="53.3082627" lon="13.1979436">
<ele>69.728</ele>
<time>2013-08-11T15:43:40.582Z</time>
</trkpt>
<trkpt lat="53.3081497" lon="13.1978913">
<ele>69.026</ele>
<time>2013-08-11T15:43:43.836Z</time>
</trkpt>
<trkpt lat="53.3080395" lon="13.1978316">
<ele>67.319</ele>
<time>2013-08-11T15:43:47.163Z</time>
</trkpt>
<trkpt lat="53.3079426" lon="13.1977672">
<ele>66.120</ele>
<time>2013-08-11T15:43:50.341Z</time>
</trkpt>
<trkpt lat="53.3078301" lon="13.1976832">
<ele>66.222</ele>
<time>2013-08-11T15:43:53.928Z</time>
</trkpt>
<trkpt lat="53.3077360" lon="13.1975975">
<ele>67.599</ele>
<time>2013-08-11T15:43:56.788Z</time>
</trkpt>
<trkpt lat="53.3076626" lon="13.1975088">
<ele>69.015</ele>
<time>2013-08-11T15:43:59.159Z</time>
</trkpt>
<trkpt lat="53.3075721" lon="13.1973968">
<ele>69.332</ele>
<time>2013-08-11T15:44:02.068Z</time>
</trkpt>
<trkpt lat="53.3074682" lon="13.1972767">
<ele>68.400</ele>
<time>2013-08-11T15:44:05.019Z</time>
</trkpt>
<trkpt lat="53.3073854" lon="13.1971987">
<ele>66.669</ele>
<time>2013-08-11T15:44:07.127Z</time>
</trkpt>
<trkpt lat="53.3072936" lon="13.1971381">
<ele>65.077</ele>
<time>2013-08-11T15:44:09.370Z</time>
</trkpt>
<trkpt lat="53.3072164" lon="13.1972254">
<ele>64.290</ele>
<time>2013-08-11T15:44:12.229Z</time>
</trkpt>
<trkpt lat="53.3071687" lon="13.1973700">
<ele>65.174</ele>
<time>2013-08-11T15:44:16.357Z</time>
</trkpt>
<trkpt lat="53.3070978" lon="13.1974677">
<ele>67.931</ele>
<time>2013-08-11T15:44:20.016Z</time>
</trkpt>
<trkpt lat="53.3069944" lon="13.1975555">
<ele>70.982</ele>
<time>2013-08-11T15:44:23.564Z</time>
</trkpt>
<trkpt lat="53.3068169" lon="13.1976630">
<ele>72.895</ele>
<time>2013-08-11T15:44:27.716Z</time>
</trkpt>
<trkpt lat="53.3066309" lon="13.1977579">
<ele>73.382</ele>
<time>2013-08-11T15:44:31.012Z</time>
</trkpt>
<trkpt lat="53.3065245" lon="13.1978043">
<ele>72.445</ele>
<time>2013-08-11T15:44:32.762Z</time>
</trkpt>
<trkpt lat="53.3064187" lon="13.1978433">
<ele>70.896</ele>
<time>2013-08-11T15:44:34.509Z</time>
</trkpt>
<trkpt lat="53.3062700" lon="13.1979007">
<ele>69.744</ele>
<time>2013-08-11T15:44:36.981Z</time>
</trkpt>
<trkpt lat="53.3061708" lon="13.1979454">
<ele>68.692</ele>
<time>2013-08-11T15:44:38.685Z</time>
</trkpt>
<trkpt lat="53.3060566" lon="13.1980095">
<ele>67.133</ele>
<time>2013-08-11T15:44:40.785Z</time>
</trkpt>
<trkpt lat="53.3059185" lon="13.1980926">
<ele>66.527</ele>
<time>2013-08-11T15:44:43.466Z</time>
</trkpt>
<trkpt lat="53.3057907" lon="13.1981296">
<ele>68.431</ele>
<time>2013-08-11T15:44:45.936Z</time>
</trkpt>
<trkpt lat="53.3056897" lon="13.1981613">
<ele>71.368</ele>
<time>2013-08-11T15:44:47.983Z</time>
</trkpt>
<trkpt lat="53.3055433" lon="13.1981895">
<ele>73.354</ele>
<time>2013-08-11T15:44:51.276Z</time>
</trkpt>
<trkpt lat="53.3053962" lon="13.1982123">
<ele>74.345</ele>
<time>2013-08-11T15:44:54.982Z</time>
</trkpt>
<trkpt lat="53.3052646" lon="13.1982100">
<ele>75.392</ele>
<time>2013-08-11T15:44:58.046Z</time>
</trkpt>
<trkpt lat="53.3051512" lon="13.1982291">
<ele>77.404</ele>
<time>2013-08-11T15:45:00.856Z</time>
</trkpt>
<trkpt lat="53.3049793" lon="13.1982253">
<ele>79.952</ele>
<time>2013-08-11T15:45:05.808Z</time>
</trkpt>
<trkpt lat="53.3048148" lon="13.1982230">
<ele>81.288</ele>
<time>2013-08-11T15:45:09.978Z</time>
</trkpt>
<trkpt lat="53.3046325" lon="13.1982166">
<ele>80.721</ele>
<time>2013-08-11T15:45:14.231Z</time>
</trkpt>
<trkpt lat="53.3045139" lon="13.1982033">
<ele>79.428</ele>
<time>2013-08-11T15:45:16.676Z</time>
</trkpt>
<trkpt lat="53.3043859" lon="13.1981782">
<ele>78.897</ele>
<time>2013-08-11T15:45:19.278Z</time>
</trkpt>
<trkpt lat="53.3042096" lon="13.1981227">
<ele>79.327</ele>
<time>2013-08-11T15:45:22.923Z</time>
</trkpt>
<trkpt lat="53.3040913" lon="13.1980916">
<ele>79.985</ele>
<time>2013-08-11T15:45:25.251Z</time>
</trkpt>
<trkpt lat="53.3038892" lon="13.1980587">
<ele>79.937</ele>
<time>2013-08-11T15:45:29.294Z</time>
</trkpt>
<trkpt lat="53.3037219" lon="13.1980270">
<ele>78.772</ele>
<time>2013-08-11T15:45:32.747Z</time>
</trkpt>
<trkpt lat="53.3036110" lon="13.1980017">
<ele>76.717</ele>
<time>2013-08-11T15:45:35.099Z</time>
</trkpt>
<trkpt lat="53.3034527" lon="13.1979573">
<ele>74.506</ele>
<time>2013-08-11T15:45:38.743Z</time>
</trkpt>
<trkpt lat="53.3033489" lon="13.1979280">
<ele>72.997</ele>
<time>2013-08-11T15:45:41.063Z</time>
</trkpt>
<trkpt lat="53.3032090" lon="13.1978754">
<ele>72.123</ele>
<time>2013-08-11T15:45:44.090Z</time>
</trkpt>
<trkpt lat="53.3030276" lon="13.1978059">
<ele>71.055</ele>
<time>2013-08-11T15:45:48.678Z</time>
</trkpt>
<trkpt lat="53.3029177" lon="13.1977577">
<ele>70.001</ele>
<time>2013-08-11T15:45:51.305Z</time>
</trkpt>
<trkpt lat="53.3028307" lon="13.1977150">
<ele>70.092</ele>
<time>2013-08-11T15:45:53.022Z</time>
</trkpt>
<trkpt lat="53.3027138" lon="13.1976692">
<ele>72.099</ele>
<time>2013-08-11T15:45:55.090Z</time>
</trkpt>
<trkpt lat="53.3025496" lon="13.1976450">
<ele>74.821</ele>
<time>2013-08-11T15:45:57.847Z</time>
</trkpt>
<trkpt lat="53.3024135" lon="13.1976351">
<ele>76.173</ele>
<time>2013-08-11T15:46:00.145Z</time>
</trkpt>
<trkpt lat="53.3022628" lon="13.1976108">
<ele>75.821</ele>
<time>2013-08-11T15:46:02.719Z</time>
</trkpt>
<trkpt lat="53.3020350" lon="13.1975692">
<ele>74.610</ele>
<time>2013-08-11T15:46:06.636Z</time>
</trkpt>
<trkpt lat="53.3018505" lon="13.1975505">
<ele>72.792</ele>
<time>2013-08-11T15:46:09.787Z</time>
</trkpt>
<trkpt lat="53.3016780" lon="13.1975536">
<ele>70.798</ele>
<time>2013-08-11T15:46:12.727Z</time>
</trkpt>
<trkpt lat="53.3015655" lon="13.1975769">
<ele>69.418</ele>
<time>2013-08-11T15:46:14.657Z</time>
</trkpt>
<trkpt lat="53.3013916" lon="13.1976363">
<ele>68.800</ele>
<time>2013-08-11T15:46:17.715Z</time>
</trkpt>
<trkpt lat="53.3012422" lon="13.1976868">
<ele>68.309</ele>
<time>2013-08-11T15:46:20.401Z</time>
</trkpt>
<trkpt lat="53.3011227" lon="13.1977375">
<ele>67.203</ele>
<time>2013-08-11T15:46:22.555Z</time>
</trkpt>
<trkpt lat="53.3009868" lon="13.1978093">
<ele>65.441</ele>
<time>2013-08-11T15:46:25.005Z</time>
</trkpt>
<trkpt lat="53.3008902" lon="13.1978639">
<ele>64.285</ele>
<time>2013-08-11T15:46:26.748Z</time>
</trkpt>
<trkpt lat="53.3007682" lon="13.1979262">
<ele>64.750</ele>
<time>2013-08-11T15:46:28.922Z</time>
</trkpt>
<trkpt lat="53.3006529" lon="13.1979688">
<ele>66.094</ele>
<time>2013-08-11T15:46:30.943Z</time>
</trkpt>
<trkpt lat="53.3004854" lon="13.1980217">
<ele>66.669</ele>
<time>2013-08-11T15:46:33.860Z</time>
</trkpt>
<trkpt lat="53.3003240" lon="13.1980335">
<ele>65.681</ele>
<time>2013-08-11T15:46:36.666Z</time>
</trkpt>
<trkpt lat="53.3002132" lon="13.1980261">
<ele>63.390</ele>
<time>2013-08-11T15:46:38.682Z</time>
</trkpt>
<trkpt lat="53.3000479" lon="13.1980328">
<ele>60.664</ele>
<time>2013-08-11T15:46:41.808Z</time>
</trkpt>
<trkpt lat="53.2999544" lon="13.1980416">
<ele>58.914</ele>
<time>2013-08-11T15:46:43.586Z</time>
</trkpt>
<trkpt lat="53.2998280" lon="13.1980482">
<ele>59.046</ele>
<time>2013-08-11T15:46:45.947Z</time>
</trkpt>
<trkpt lat="53.2997243" lon="13.1980306">
<ele>60.384</ele>
<time>2013-08-11T15:46:47.856Z</time>
</trkpt>
<trkpt lat="53.2996090" lon="13.1979896">
<ele>62.028</ele>
<time>2013-08-11T15:46:49.999Z</time>
</trkpt>
<trkpt lat="53.2994393" lon="13.1979757">
<ele>63.565</ele>
<time>2013-08-11T15:46:53.116Z</time>
</trkpt>
<trkpt lat="53.2993125" lon="13.1979606">
<ele>64.649</ele>
<time>2013-08-11T15:46:55.476Z</time>
</trkpt>
<trkpt lat="53.2991601" lon="13.1979695">
<ele>65.134</ele>
<time>2013-08-11T15:46:58.326Z</time>
</trkpt>
<trkpt lat="53.2990061" lon="13.1979767">
<ele>65.085</ele>
<time>2013-08-11T15:47:01.218Z</time>
</trkpt>
<trkpt lat="53.2988988" lon="13.1980040">
<ele>64.275</ele>
<time>2013-08-11T15:47:03.255Z</time>
</trkpt>
<trkpt lat="53.2987484" lon="13.1980062">
<ele>62.774</ele>
<time>2013-08-11T15:47:06.076Z</time>
</trkpt>
<trkpt lat="53.2985996" lon="13.1980160">
<ele>60.854</ele>
<time>2013-08-11T15:47:08.867Z</time>
</trkpt>
<trkpt lat="53.2984952" lon="13.1980389">
<ele>58.805</ele>
<time>2013-08-11T15:47:10.820Z</time>
</trkpt>
<trkpt lat="53.2983451" lon="13.1980922">
<ele>57.559</ele>
<time>2013-08-11T15:47:13.644Z</time>
</trkpt>
<trkpt lat="53.2982343" lon="13.1981273">
<ele>57.675</ele>
<time>2013-08-11T15:47:15.711Z</time>
</trkpt>
<trkpt lat="53.2981330" lon="13.1981576">
<ele>58.255</ele>
<time>2013-08-11T15:47:17.597Z</time>
</trkpt>
<trkpt lat="53.2979896" lon="13.1982000">
<ele>58.446</ele>
<time>2013-08-11T15:47:20.259Z</time>
</trkpt>
<trkpt lat="53.2978409" lon="13.1982599">
<ele>58.396</ele>
<time>2013-08-11T15:47:23.042Z</time>
</trkpt>
<trkpt lat="53.2976989" lon="13.1983220">
<ele>58.465</ele>
<time>2013-08-11T15:47:25.727Z</time>
</trkpt>
<trkpt lat="53.2975480" lon="13.1983753">
<ele>58.074</ele>
<time>2013-08-11T15:47:28.613Z</time>
</trkpt>
<trkpt lat="53.2974596" lon="13.1984062">
<ele>56.602</ele>
<time>2013-08-11T15:47:30.321Z</time>
</trkpt>
<trkpt lat="53.2973673" lon="13.1984571">
<ele>54.779</ele>
<time>2013-08-11T15:47:32.193Z</time>
</trkpt>
<trkpt lat="53.2972283" lon="13.1985177">
<ele>53.731</ele>
<time>2013-08-11T15:47:34.982Z</time>
</trkpt>
<trkpt lat="53.2971381" lon="13.1985374">
<ele>53.625</ele>
<time>2013-08-11T15:47:36.762Z</time>
</trkpt>
<trkpt lat="53.2969922" lon="13.1986092">
<ele>54.101</ele>
<time>2013-08-11T15:47:39.769Z</time>
</trkpt>
<trkpt lat="53.2968620" lon="13.1986452">
<ele>55.166</ele>
<time>2013-08-11T15:47:42.410Z</time>
</trkpt>
<trkpt lat="53.2967612" lon="13.1986851">
<ele>57.095</ele>
<time>2013-08-11T15:47:44.473Z</time>
</trkpt>
<trkpt lat="53.2966684" lon="13.1987280">
<ele>59.678</ele>
<time>2013-08-11T15:47:46.377Z</time>
</trkpt>
<trkpt lat="53.2965150" lon="13.1987784">
<ele>62.133</ele>
<time>2013-08-11T15:47:49.460Z</time>
</trkpt>
<trkpt lat="53.2964175" lon="13.1988158">
<ele>63.952</ele>
<time>2013-08-11T15:47:51.443Z</time>
</trkpt>
<trkpt lat="53.2962927" lon="13.1988653">
<ele>64.884</ele>
<time>2013-08-11T15:47:53.984Z</time>
</trkpt>
<trkpt lat="53.2961682" lon="13.1989445">
<ele>64.719</ele>
<time>2013-08-11T15:47:56.610Z</time>
</trkpt>
<trkpt lat="53.2960418" lon="13.1990329">
<ele>63.678</ele>
<time>2013-08-11T15:47:59.285Z</time>
</trkpt>
<trkpt lat="53.2959027" lon="13.1991194">
<ele>62.639</ele>
<time>2013-08-11T15:48:02.182Z</time>
</trkpt>
<trkpt lat="53.2957742" lon="13.1991746">
<ele>62.142</ele>
<time>2013-08-11T15:48:04.791Z</time>
</trkpt>
<trkpt lat="53.2956356" lon="13.1991901">
<ele>62.035</ele>
<time>2013-08-11T15:48:07.528Z</time>
</trkpt>
<trkpt lat="53.2955386" lon="13.1991936">
<ele>62.020</ele>
<time>2013-08-11T15:48:09.419Z</time>
</trkpt>
<trkpt lat="53.2954385" lon="13.1991982">
<ele>62.039</ele>
<time>2013-08-11T15:48:11.360Z</time>
</trkpt>
<trkpt lat="53.2953428" lon="13.1991910">
<ele>62.057</ele>
<time>2013-08-11T15:48:13.225Z</time>
</trkpt>
<trkpt lat="53.2952059" lon="13.1991636">
<ele>62.006</ele>
<time>2013-08-11T15:48:15.918Z</time>
</trkpt>
<trkpt lat="53.2950729" lon="13.1991414">
<ele>61.851</ele>
<time>2013-08-11T15:48:18.535Z</time>
</trkpt>
<trkpt lat="53.2949315" lon="13.1991139">
<ele>61.689</ele>
<time>2013-08-11T15:48:21.310Z</time>
</trkpt>
<trkpt lat="53.2948396" lon="13.1990804">
<ele>61.617</ele>
<time>2013-08-11T15:48:23.131Z</time>
</trkpt>
<trkpt lat="53.2947449" lon="13.1990489">
<ele>61.480</ele>
<time>2013-08-11T15:48:25.027Z</time>
</trkpt>
<trkpt lat="53.2945991" lon="13.1990322">
<ele>61.149</ele>
<time>2013-08-11T15:48:28.117Z</time>
</trkpt>
<trkpt lat="53.2944855" lon="13.1990836">
<ele>60.801</ele>
<time>2013-08-11T15:48:31.279Z</time>
</trkpt>
<trkpt lat="53.2944066" lon="13.1991669">
<ele>60.887</ele>
<time>2013-08-11T15:48:34.302Z</time>
</trkpt>
<trkpt lat="53.2943119" lon="13.1992028">
<ele>63.139</ele>
<time>2013-08-11T15:48:42.301Z</time>
</trkpt>
<trkpt lat="53.2943119" lon="13.1992028">
<ele>68.062</ele>
<time>2013-08-11T15:48:42.302Z</time>
</trkpt>
<trkpt lat="53.2943119" lon="13.1992028">
<ele>72.742</ele>
<time>2013-08-11T15:48:50.189Z</time>
</trkpt>
<trkpt lat="53.2941341" lon="13.1992984">
<ele>74.380</ele>
<time>2013-08-11T15:49:18.159Z</time>
</trkpt>
<trkpt lat="53.2940939" lon="13.1991551">
<ele>73.389</ele>
<time>2013-08-11T15:49:24.456Z</time>
</trkpt>
<trkpt lat="53.2940127" lon="13.1990904">
<ele>72.852</ele>
<time>2013-08-11T15:49:28.243Z</time>
</trkpt>
<trkpt lat="53.2939153" lon="13.1990864">
<ele>74.869</ele>
<time>2013-08-11T15:49:31.492Z</time>
</trkpt>
<trkpt lat="53.2938123" lon="13.1990763">
<ele>77.075</ele>
<time>2013-08-11T15:49:34.430Z</time>
</trkpt>
<trkpt lat="53.2936652" lon="13.1990905">
<ele>76.995</ele>
<time>2013-08-11T15:49:38.230Z</time>
</trkpt>
<trkpt lat="53.2935286" lon="13.1991111">
<ele>75.671</ele>
<time>2013-08-11T15:49:41.505Z</time>
</trkpt>
<trkpt lat="53.2934227" lon="13.1991300">
<ele>74.567</ele>
<time>2013-08-11T15:49:43.831Z</time>
</trkpt>
<trkpt lat="53.2932964" lon="13.1991435">
<ele>73.499</ele>
<time>2013-08-11T15:49:46.427Z</time>
</trkpt>
<trkpt lat="53.2931998" lon="13.1991575">
<ele>71.893</ele>
<time>2013-08-11T15:49:48.316Z</time>
</trkpt>
<trkpt lat="53.2930327" lon="13.1991896">
<ele>69.773</ele>
<time>2013-08-11T15:49:51.466Z</time>
</trkpt>
<trkpt lat="53.2929292" lon="13.1992067">
<ele>67.521</ele>
<time>2013-08-11T15:49:53.352Z</time>
</trkpt>
<trkpt lat="53.2927741" lon="13.1992474">
<ele>65.473</ele>
<time>2013-08-11T15:49:56.129Z</time>
</trkpt>
<trkpt lat="53.2926512" lon="13.1992857">
<ele>64.151</ele>
<time>2013-08-11T15:49:58.316Z</time>
</trkpt>
<trkpt lat="53.2924831" lon="13.1993696">
<ele>63.868</ele>
<time>2013-08-11T15:50:01.361Z</time>
</trkpt>
<trkpt lat="53.2923688" lon="13.1994477">
<ele>64.372</ele>
<time>2013-08-11T15:50:03.493Z</time>
</trkpt>
<trkpt lat="53.2922127" lon="13.1995696">
<ele>65.181</ele>
<time>2013-08-11T15:50:06.504Z</time>
</trkpt>
<trkpt lat="53.2921133" lon="13.1996342">
<ele>66.018</ele>
<time>2013-08-11T15:50:08.397Z</time>
</trkpt>
<trkpt lat="53.2919393" lon="13.1997509">
<ele>66.806</ele>
<time>2013-08-11T15:50:11.767Z</time>
</trkpt>
<trkpt lat="53.2918364" lon="13.1998197">
<ele>67.904</ele>
<time>2013-08-11T15:50:13.798Z</time>
</trkpt>
<trkpt lat="53.2917430" lon="13.1998747">
<ele>69.585</ele>
<time>2013-08-11T15:50:15.625Z</time>
</trkpt>
<trkpt lat="53.2916470" lon="13.1999307">
<ele>71.313</ele>
<time>2013-08-11T15:50:17.529Z</time>
</trkpt>
<trkpt lat="53.2915033" lon="13.1999924">
<ele>72.309</ele>
<time>2013-08-11T15:50:20.357Z</time>
</trkpt>
<trkpt lat="53.2914070" lon="13.2000317">
<ele>72.710</ele>
<time>2013-08-11T15:50:22.297Z</time>
</trkpt>
<trkpt lat="53.2912663" lon="13.2000777">
<ele>72.993</ele>
<time>2013-08-11T15:50:25.165Z</time>
</trkpt>
<trkpt lat="53.2911748" lon="13.2001064">
<ele>73.170</ele>
<time>2013-08-11T15:50:27.064Z</time>
</trkpt>
<trkpt lat="53.2910309" lon="13.2001570">
<ele>73.101</ele>
<time>2013-08-11T15:50:30.080Z</time>
</trkpt>
<trkpt lat="53.2909011" lon="13.2002317">
<ele>72.991</ele>
<time>2013-08-11T15:50:32.878Z</time>
</trkpt>
<trkpt lat="53.2907991" lon="13.2003492">
<ele>73.167</ele>
<time>2013-08-11T15:50:35.401Z</time>
</trkpt>
<trkpt lat="53.2907024" lon="13.2005330">
<ele>73.791</ele>
<time>2013-08-11T15:50:38.396Z</time>
</trkpt>
<trkpt lat="53.2906221" lon="13.2007299">
<ele>74.627</ele>
<time>2013-08-11T15:50:41.366Z</time>
</trkpt>
<trkpt lat="53.2905695" lon="13.2008584">
<ele>75.227</ele>
<time>2013-08-11T15:50:43.358Z</time>
</trkpt>
<trkpt lat="53.2904955" lon="13.2010394">
<ele>75.439</ele>
<time>2013-08-11T15:50:46.683Z</time>
</trkpt>
<trkpt lat="53.2904194" lon="13.2012179">
<ele>75.374</ele>
<time>2013-08-11T15:50:50.442Z</time>
</trkpt>
<trkpt lat="53.2903481" lon="13.2013495">
<ele>75.055</ele>
<time>2013-08-11T15:50:53.751Z</time>
</trkpt>
<trkpt lat="53.2902921" lon="13.2014824">
<ele>74.542</ele>
<time>2013-08-11T15:50:56.505Z</time>
</trkpt>
<trkpt lat="53.2903374" lon="13.2016359">
<ele>74.104</ele>
<time>2013-08-11T15:50:58.966Z</time>
</trkpt>
<trkpt lat="53.2904396" lon="13.2017648">
<ele>73.916</ele>
<time>2013-08-11T15:51:01.451Z</time>
</trkpt>
<trkpt lat="53.2905359" lon="13.2018629">
<ele>73.909</ele>
<time>2013-08-11T15:51:03.369Z</time>
</trkpt>
<trkpt lat="53.2906403" lon="13.2019625">
<ele>74.020</ele>
<time>2013-08-11T15:51:05.202Z</time>
</trkpt>
<trkpt lat="53.2908003" lon="13.2021243">
<ele>74.261</ele>
<time>2013-08-11T15:51:07.985Z</time>
</trkpt>
<trkpt lat="53.2909075" lon="13.2022301">
<ele>74.953</ele>
<time>2013-08-11T15:51:09.892Z</time>
</trkpt>
<trkpt lat="53.2910602" lon="13.2023987">
<ele>76.285</ele>
<time>2013-08-11T15:51:12.756Z</time>
</trkpt>
<trkpt lat="53.2912051" lon="13.2025701">
<ele>77.649</ele>
<time>2013-08-11T15:51:15.511Z</time>
</trkpt>
<trkpt lat="53.2913784" lon="13.2027449">
<ele>78.625</ele>
<time>2013-08-11T15:51:18.669Z</time>
</trkpt>
<trkpt lat="53.2915275" lon="13.2029253">
<ele>79.010</ele>
<time>2013-08-11T15:51:21.598Z</time>
</trkpt>
<trkpt lat="53.2916799" lon="13.2031044">
<ele>78.195</ele>
<time>2013-08-11T15:51:24.685Z</time>
</trkpt>
<trkpt lat="53.2918224" lon="13.2032555">
<ele>76.234</ele>
<time>2013-08-11T15:51:27.508Z</time>
</trkpt>
<trkpt lat="53.2919135" lon="13.2033566">
<ele>74.225</ele>
<time>2013-08-11T15:51:29.333Z</time>
</trkpt>
<trkpt lat="53.2920024" lon="13.2034734">
<ele>73.318</ele>
<time>2013-08-11T15:51:31.255Z</time>
</trkpt>
<trkpt lat="53.2921252" lon="13.2036086">
<ele>73.863</ele>
<time>2013-08-11T15:51:33.748Z</time>
</trkpt>
<trkpt lat="53.2922244" lon="13.2037099">
<ele>75.527</ele>
<time>2013-08-11T15:51:35.688Z</time>
</trkpt>
<trkpt lat="53.2923672" lon="13.2038576">
<ele>77.899</ele>
<time>2013-08-11T15:51:38.408Z</time>
</trkpt>
<trkpt lat="53.2924648" lon="13.2039666">
<ele>79.962</ele>
<time>2013-08-11T15:51:40.277Z</time>
</trkpt>
<trkpt lat="53.2925610" lon="13.2040719">
<ele>81.062</ele>
<time>2013-08-11T15:51:42.121Z</time>
</trkpt>
<trkpt lat="53.2927199" lon="13.2042538">
<ele>81.758</ele>
<time>2013-08-11T15:51:45.285Z</time>
</trkpt>
<trkpt lat="53.2928534" lon="13.2044006">
<ele>82.338</ele>
<time>2013-08-11T15:51:48.151Z</time>
</trkpt>
<trkpt lat="53.2929454" lon="13.2044988">
<ele>82.575</ele>
<time>2013-08-11T15:51:50.254Z</time>
</trkpt>
<trkpt lat="53.2930764" lon="13.2046428">
<ele>82.437</ele>
<time>2013-08-11T15:51:53.548Z</time>
</trkpt>
<trkpt lat="53.2931725" lon="13.2047466">
<ele>81.902</ele>
<time>2013-08-11T15:51:56.279Z</time>
</trkpt>
<trkpt lat="53.2932579" lon="13.2048430">
<ele>81.127</ele>
<time>2013-08-11T15:51:58.871Z</time>
</trkpt>
<trkpt lat="53.2933532" lon="13.2049245">
<ele>80.376</ele>
<time>2013-08-11T15:52:01.572Z</time>
</trkpt>
<trkpt lat="53.2934600" lon="13.2050509">
<ele>79.849</ele>
<time>2013-08-11T15:52:04.790Z</time>
</trkpt>
<trkpt lat="53.2935472" lon="13.2051641">
<ele>79.320</ele>
<time>2013-08-11T15:52:07.489Z</time>
</trkpt>
<trkpt lat="53.2936348" lon="13.2052692">
<ele>78.506</ele>
<time>2013-08-11T15:52:10.152Z</time>
</trkpt>
<trkpt lat="53.2937295" lon="13.2053974">
<ele>78.087</ele>
<time>2013-08-11T15:52:13.077Z</time>
</trkpt>
<trkpt lat="53.2938450" lon="13.2055012">
<ele>78.653</ele>
<time>2013-08-11T15:52:16.107Z</time>
</trkpt>
<trkpt lat="53.2939360" lon="13.2055947">
<ele>79.338</ele>
<time>2013-08-11T15:52:18.730Z</time>
</trkpt>
<trkpt lat="53.2940293" lon="13.2056913">
<ele>79.191</ele>
<time>2013-08-11T15:52:21.484Z</time>
</trkpt>
<trkpt lat="53.2941392" lon="13.2057814">
<ele>78.165</ele>
<time>2013-08-11T15:52:24.442Z</time>
</trkpt>
<trkpt lat="53.2942433" lon="13.2058893">
<ele>76.765</ele>
<time>2013-08-11T15:52:27.272Z</time>
</trkpt>
<trkpt lat="53.2943139" lon="13.2060168">
<ele>75.854</ele>
<time>2013-08-11T15:52:29.558Z</time>
</trkpt>
<trkpt lat="53.2944110" lon="13.2061300">
<ele>75.985</ele>
<time>2013-08-11T15:52:31.998Z</time>
</trkpt>
<trkpt lat="53.2945191" lon="13.2062494">
<ele>76.614</ele>
<time>2013-08-11T15:52:34.628Z</time>
</trkpt>
<trkpt lat="53.2946463" lon="13.2062922">
<ele>76.233</ele>
<time>2013-08-11T15:52:37.154Z</time>
</trkpt>
<trkpt lat="53.2948316" lon="13.2062842">
<ele>74.111</ele>
<time>2013-08-11T15:52:40.536Z</time>
</trkpt>
<trkpt lat="53.2949388" lon="13.2062490">
<ele>71.508</ele>
<time>2013-08-11T15:52:42.581Z</time>
</trkpt>
<trkpt lat="53.2950318" lon="13.2062472">
<ele>69.928</ele>
<time>2013-08-11T15:52:44.426Z</time>
</trkpt>
<trkpt lat="53.2951868" lon="13.2062812">
<ele>69.633</ele>
<time>2013-08-11T15:52:47.784Z</time>
</trkpt>
<trkpt lat="53.2953038" lon="13.2063207">
<ele>70.087</ele>
<time>2013-08-11T15:52:50.598Z</time>
</trkpt>
<trkpt lat="53.2954380" lon="13.2063498">
<ele>70.734</ele>
<time>2013-08-11T15:52:54.041Z</time>
</trkpt>
<trkpt lat="53.2955561" lon="13.2063455">
<ele>71.351</ele>
<time>2013-08-11T15:52:57.239Z</time>
</trkpt>
<trkpt lat="53.2956909" lon="13.2063677">
<ele>72.553</ele>
<time>2013-08-11T15:53:00.581Z</time>
</trkpt>
<trkpt lat="53.2958262" lon="13.2063862">
<ele>74.674</ele>
<time>2013-08-11T15:53:04.344Z</time>
</trkpt>
<trkpt lat="53.2959509" lon="13.2063974">
<ele>76.253</ele>
<time>2013-08-11T15:53:07.843Z</time>
</trkpt>
<trkpt lat="53.2960765" lon="13.2064163">
<ele>76.043</ele>
<time>2013-08-11T15:53:11.263Z</time>
</trkpt>
<trkpt lat="53.2961678" lon="13.2064291">
<ele>75.112</ele>
<time>2013-08-11T15:53:13.820Z</time>
</trkpt>
<trkpt lat="53.2962881" lon="13.2064676">
<ele>75.118</ele>
<time>2013-08-11T15:53:17.344Z</time>
</trkpt>
<trkpt lat="53.2963864" lon="13.2064815">
<ele>76.000</ele>
<time>2013-08-11T15:53:20.068Z</time>
</trkpt>
<trkpt lat="53.2965103" lon="13.2064636">
<ele>76.493</ele>
<time>2013-08-11T15:53:23.556Z</time>
</trkpt>
<trkpt lat="53.2966136" lon="13.2064461">
<ele>76.274</ele>
<time>2013-08-11T15:53:26.492Z</time>
</trkpt>
<trkpt lat="53.2967123" lon="13.2064365">
<ele>76.323</ele>
<time>2013-08-11T15:53:29.290Z</time>
</trkpt>
<trkpt lat="53.2968214" lon="13.2064422">
<ele>77.076</ele>
<time>2013-08-11T15:53:32.480Z</time>
</trkpt>
<trkpt lat="53.2969132" lon="13.2064215">
<ele>77.495</ele>
<time>2013-08-11T15:53:35.181Z</time>
</trkpt>
<trkpt lat="53.2970272" lon="13.2064592">
<ele>76.639</ele>
<time>2013-08-11T15:53:38.599Z</time>
</trkpt>
<trkpt lat="53.2971375" lon="13.2064827">
<ele>75.288</ele>
<time>2013-08-11T15:53:42.035Z</time>
</trkpt>
<trkpt lat="53.2972579" lon="13.2065012">
<ele>74.461</ele>
<time>2013-08-11T15:53:45.959Z</time>
</trkpt>
<trkpt lat="53.2973516" lon="13.2065001">
<ele>73.885</ele>
<time>2013-08-11T15:53:48.994Z</time>
</trkpt>
<trkpt lat="53.2974744" lon="13.2064929">
<ele>73.059</ele>
<time>2013-08-11T15:53:52.950Z</time>
</trkpt>
<trkpt lat="53.2975855" lon="13.2064873">
<ele>72.562</ele>
<time>2013-08-11T15:53:56.411Z</time>
</trkpt>
<trkpt lat="53.2976790" lon="13.2064887">
<ele>72.975</ele>
<time>2013-08-11T15:53:59.213Z</time>
</trkpt>
<trkpt lat="53.2978016" lon="13.2064984">
<ele>74.319</ele>
<time>2013-08-11T15:54:02.839Z</time>
</trkpt>
<trkpt lat="53.2979015" lon="13.2065141">
<ele>75.705</ele>
<time>2013-08-11T15:54:06.150Z</time>
</trkpt>
<trkpt lat="53.2979888" lon="13.2064744">
<ele>75.838</ele>
<time>2013-08-11T15:54:09.872Z</time>
</trkpt>
<trkpt lat="53.2981107" lon="13.2064887">
<ele>74.651</ele>
<time>2013-08-11T15:54:14.660Z</time>
</trkpt>
<trkpt lat="53.2982148" lon="13.2065231">
<ele>73.191</ele>
<time>2013-08-11T15:54:18.195Z</time>
</trkpt>
<trkpt lat="53.2983066" lon="13.2065104">
<ele>72.363</ele>
<time>2013-08-11T15:54:21.498Z</time>
</trkpt>
<trkpt lat="53.2983255" lon="13.2063464">
<ele>72.560</ele>
<time>2013-08-11T15:54:25.121Z</time>
</trkpt>
<trkpt lat="53.2983410" lon="13.2061763">
<ele>73.104</ele>
<time>2013-08-11T15:54:28.480Z</time>
</trkpt>
<trkpt lat="53.2983716" lon="13.2060088">
<ele>73.155</ele>
<time>2013-08-11T15:54:31.594Z</time>
</trkpt>
<trkpt lat="53.2984217" lon="13.2058270">
<ele>72.713</ele>
<time>2013-08-11T15:54:35.027Z</time>
</trkpt>
<trkpt lat="53.2984481" lon="13.2056624">
<ele>72.263</ele>
<time>2013-08-11T15:54:37.747Z</time>
</trkpt>
<trkpt lat="53.2984729" lon="13.2054764">
<ele>72.075</ele>
<time>2013-08-11T15:54:40.549Z</time>
</trkpt>
<trkpt lat="53.2984876" lon="13.2052490">
<ele>72.438</ele>
<time>2013-08-11T15:54:43.693Z</time>
</trkpt>
<trkpt lat="53.2984773" lon="13.2050463">
<ele>73.418</ele>
<time>2013-08-11T15:54:46.433Z</time>
</trkpt>
<trkpt lat="53.2984376" lon="13.2048762">
<ele>73.591</ele>
<time>2013-08-11T15:54:48.911Z</time>
</trkpt>
<trkpt lat="53.2983950" lon="13.2046862">
<ele>71.749</ele>
<time>2013-08-11T15:54:51.774Z</time>
</trkpt>
<trkpt lat="53.2983762" lon="13.2045303">
<ele>69.046</ele>
<time>2013-08-11T15:54:54.201Z</time>
</trkpt>
<trkpt lat="53.2983738" lon="13.2043784">
<ele>67.869</ele>
<time>2013-08-11T15:54:57.089Z</time>
</trkpt>
<trkpt lat="53.2983811" lon="13.2042028">
<ele>68.994</ele>
<time>2013-08-11T15:55:01.257Z</time>
</trkpt>
<trkpt lat="53.2983764" lon="13.2040384">
<ele>70.883</ele>
<time>2013-08-11T15:55:05.821Z</time>
</trkpt>
<trkpt lat="53.2984013" lon="13.2038792">
<ele>71.529</ele>
<time>2013-08-11T15:55:10.949Z</time>
</trkpt>
<trkpt lat="53.2984036" lon="13.2037272">
<ele>70.644</ele>
<time>2013-08-11T15:55:15.820Z</time>
</trkpt>
<trkpt lat="53.2983112" lon="13.2036456">
<ele>69.326</ele>
<time>2013-08-11T15:55:21.765Z</time>
</trkpt>
<trkpt lat="53.2982046" lon="13.2036410">
<ele>68.702</ele>
<time>2013-08-11T15:55:28.067Z</time>
</trkpt>
<trkpt lat="53.2981102" lon="13.2036398">
<ele>68.939</ele>
<time>2013-08-11T15:55:33.192Z</time>
</trkpt>
<trkpt lat="53.2980174" lon="13.2036474">
<ele>69.692</ele>
<time>2013-08-11T15:55:37.837Z</time>
</trkpt>
<trkpt lat="53.2979285" lon="13.2036053">
<ele>70.100</ele>
<time>2013-08-11T15:55:42.557Z</time>
</trkpt>
<trkpt lat="53.2978328" lon="13.2035554">
<ele>69.335</ele>
<time>2013-08-11T15:55:48.014Z</time>
</trkpt>
<trkpt lat="53.2977410" lon="13.2035259">
<ele>67.445</ele>
<time>2013-08-11T15:55:53.219Z</time>
</trkpt>
<trkpt lat="53.2977039" lon="13.2036640">
<ele>65.139</ele>
<time>2013-08-11T15:55:59.289Z</time>
</trkpt>
<trkpt lat="53.2976845" lon="13.2038263">
<ele>63.193</ele>
<time>2013-08-11T15:56:06.877Z</time>
</trkpt>
<trkpt lat="53.2976953" lon="13.2039916">
<ele>61.805</ele>
<time>2013-08-11T15:56:12.742Z</time>
</trkpt>
<trkpt lat="53.2976978" lon="13.2041502">
<ele>61.424</ele>
<time>2013-08-11T15:56:17.255Z</time>
</trkpt>
<trkpt lat="53.2977400" lon="13.2042974">
<ele>62.845</ele>
<time>2013-08-11T15:56:21.818Z</time>
</trkpt>
<trkpt lat="53.2978324" lon="13.2043121">
<ele>65.715</ele>
<time>2013-08-11T15:56:26.364Z</time>
</trkpt>
<trkpt lat="53.2979303" lon="13.2043088">
<ele>68.705</ele>
<time>2013-08-11T15:56:31.276Z</time>
</trkpt>
<trkpt lat="53.2980256" lon="13.2043098">
<ele>70.741</ele>
<time>2013-08-11T15:56:35.956Z</time>
</trkpt>
<trkpt lat="53.2981362" lon="13.2043083">
<ele>71.430</ele>
<time>2013-08-11T15:56:41.107Z</time>
</trkpt>
<trkpt lat="53.2982510" lon="13.2043150">
<ele>71.175</ele>
<time>2013-08-11T15:56:46.359Z</time>
</trkpt>
<trkpt lat="53.2983524" lon="13.2043660">
<ele>70.430</ele>
<time>2013-08-11T15:56:51.074Z</time>
</trkpt>
<trkpt lat="53.2983777" lon="13.2045502">
<ele>69.945</ele>
<time>2013-08-11T15:56:55.966Z</time>
</trkpt>
<trkpt lat="53.2984026" lon="13.2047426">
<ele>70.155</ele>
<time>2013-08-11T15:57:00.778Z</time>
</trkpt>
<trkpt lat="53.2984237" lon="13.2049113">
<ele>70.269</ele>
<time>2013-08-11T15:57:04.525Z</time>
</trkpt>
<trkpt lat="53.2984427" lon="13.2050769">
<ele>69.593</ele>
<time>2013-08-11T15:57:07.822Z</time>
</trkpt>
<trkpt lat="53.2984484" lon="13.2052751">
<ele>68.923</ele>
<time>2013-08-11T15:57:11.422Z</time>
</trkpt>
<trkpt lat="53.2984389" lon="13.2054546">
<ele>69.104</ele>
<time>2013-08-11T15:57:14.526Z</time>
</trkpt>
<trkpt lat="53.2984253" lon="13.2056310">
<ele>69.789</ele>
<time>2013-08-11T15:57:17.496Z</time>
</trkpt>
<trkpt lat="53.2984059" lon="13.2057848">
<ele>70.542</ele>
<time>2013-08-11T15:57:20.104Z</time>
</trkpt>
<trkpt lat="53.2983845" lon="13.2059406">
<ele>71.311</ele>
<time>2013-08-11T15:57:22.785Z</time>
</trkpt>
<trkpt lat="53.2983522" lon="13.2060953">
<ele>71.946</ele>
<time>2013-08-11T15:57:25.571Z</time>
</trkpt>
<trkpt lat="53.2983275" lon="13.2062551">
<ele>72.540</ele>
<time>2013-08-11T15:57:28.392Z</time>
</trkpt>
<trkpt lat="53.2983407" lon="13.2064319">
<ele>73.295</ele>
<time>2013-08-11T15:57:31.472Z</time>
</trkpt>
<trkpt lat="53.2984205" lon="13.2065438">
<ele>73.935</ele>
<time>2013-08-11T15:57:34.612Z</time>
</trkpt>
<trkpt lat="53.2985112" lon="13.2065935">
<ele>74.155</ele>
<time>2013-08-11T15:57:37.544Z</time>
</trkpt>
<trkpt lat="53.2986155" lon="13.2066198">
<ele>74.085</ele>
<time>2013-08-11T15:57:40.672Z</time>
</trkpt>
<trkpt lat="53.2987014" lon="13.2066665">
<ele>73.950</ele>
<time>2013-08-11T15:57:43.297Z</time>
</trkpt>
<trkpt lat="53.2988009" lon="13.2067327">
<ele>73.713</ele>
<time>2013-08-11T15:57:46.473Z</time>
</trkpt>
<trkpt lat="53.2988840" lon="13.2067965">
<ele>73.284</ele>
<time>2013-08-11T15:57:49.261Z</time>
</trkpt>
<trkpt lat="53.2989751" lon="13.2069032">
<ele>73.027</ele>
<time>2013-08-11T15:57:52.797Z</time>
</trkpt>
<trkpt lat="53.2990503" lon="13.2070177">
<ele>73.279</ele>
<time>2013-08-11T15:57:56.125Z</time>
</trkpt>
<trkpt lat="53.2991200" lon="13.2071343">
<ele>73.865</ele>
<time>2013-08-11T15:57:59.414Z</time>
</trkpt>
<trkpt lat="53.2991848" lon="13.2072721">
<ele>74.789</ele>
<time>2013-08-11T15:58:02.909Z</time>
</trkpt>
<trkpt lat="53.2992711" lon="13.2074206">
<ele>76.196</ele>
<time>2013-08-11T15:58:06.934Z</time>
</trkpt>
<trkpt lat="53.2993469" lon="13.2075524">
<ele>77.461</ele>
<time>2013-08-11T15:58:10.367Z</time>
</trkpt>
<trkpt lat="53.2994193" lon="13.2076761">
<ele>77.787</ele>
<time>2013-08-11T15:58:13.503Z</time>
</trkpt>
<trkpt lat="53.2994969" lon="13.2077866">
<ele>77.351</ele>
<time>2013-08-11T15:58:16.498Z</time>
</trkpt>
<trkpt lat="53.2995703" lon="13.2079102">
<ele>76.951</ele>
<time>2013-08-11T15:58:19.480Z</time>
</trkpt>
<trkpt lat="53.2996436" lon="13.2080494">
<ele>76.969</ele>
<time>2013-08-11T15:58:22.616Z</time>
</trkpt>
<trkpt lat="53.2997224" lon="13.2081885">
<ele>77.051</ele>
<time>2013-08-11T15:58:25.824Z</time>
</trkpt>
<trkpt lat="53.2997987" lon="13.2083153">
<ele>76.675</ele>
<time>2013-08-11T15:58:28.794Z</time>
</trkpt>
<trkpt lat="53.2998692" lon="13.2084509">
<ele>76.073</ele>
<time>2013-08-11T15:58:31.720Z</time>
</trkpt>
<trkpt lat="53.2999516" lon="13.2085893">
<ele>75.629</ele>
<time>2013-08-11T15:58:34.847Z</time>
</trkpt>
<trkpt lat="53.3000168" lon="13.2087107">
<ele>75.093</ele>
<time>2013-08-11T15:58:37.431Z</time>
</trkpt>
<trkpt lat="53.3001049" lon="13.2088432">
<ele>74.357</ele>
<time>2013-08-11T15:58:40.558Z</time>
</trkpt>
<trkpt lat="53.3001675" lon="13.2089512">
<ele>74.066</ele>
<time>2013-08-11T15:58:42.929Z</time>
</trkpt>
<trkpt lat="53.3002355" lon="13.2090967">
<ele>74.509</ele>
<time>2013-08-11T15:58:45.850Z</time>
</trkpt>
<trkpt lat="53.3003174" lon="13.2092342">
<ele>75.134</ele>
<time>2013-08-11T15:58:48.948Z</time>
</trkpt>
<trkpt lat="53.3003827" lon="13.2093596">
<ele>75.276</ele>
<time>2013-08-11T15:58:51.644Z</time>
</trkpt>
<trkpt lat="53.3004391" lon="13.2094854">
<ele>74.883</ele>
<time>2013-08-11T15:58:54.257Z</time>
</trkpt>
<trkpt lat="53.3005131" lon="13.2096148">
<ele>74.381</ele>
<time>2013-08-11T15:58:57.303Z</time>
</trkpt>
<trkpt lat="53.3005131" lon="13.2096148">
<ele>74.150</ele>
<time>2013-08-11T15:59:09.315Z</time>
</trkpt>
<trkpt lat="53.3005131" lon="13.2096148">
<ele>74.160</ele>
<time>2013-08-11T15:59:12.975Z</time>
</trkpt>
<trkpt lat="53.3006600" lon="13.2098006">
<ele>74.235</ele>
<time>2013-08-11T15:59:31.813Z</time>
</trkpt>
<trkpt lat="53.3007358" lon="13.2099270">
<ele>74.719</ele>
<time>2013-08-11T15:59:36.585Z</time>
</trkpt>
<trkpt lat="53.3008047" lon="13.2100574">
<ele>75.859</ele>
<time>2013-08-11T15:59:40.304Z</time>
</trkpt>
<trkpt lat="53.3008047" lon="13.2100574">
<ele>77.006</ele>
<time>2013-08-11T16:00:02.312Z</time>
</trkpt>
<trkpt lat="53.3008047" lon="13.2100574">
<ele>77.473</ele>
<time>2013-08-11T16:01:40.830Z</time>
</trkpt>
<trkpt lat="53.3009786" lon="13.2103881">
<ele>77.375</ele>
<time>2013-08-11T16:02:07.644Z</time>
</trkpt>
<trkpt lat="53.3010501" lon="13.2105269">
<ele>77.209</ele>
<time>2013-08-11T16:02:13.030Z</time>
</trkpt>
<trkpt lat="53.3011220" lon="13.2106431">
<ele>77.311</ele>
<time>2013-08-11T16:02:17.386Z</time>
</trkpt>
<trkpt lat="53.3011861" lon="13.2107712">
<ele>77.573</ele>
<time>2013-08-11T16:02:21.033Z</time>
</trkpt>
<trkpt lat="53.3012557" lon="13.2109001">
<ele>77.791</ele>
<time>2013-08-11T16:02:24.166Z</time>
</trkpt>
<trkpt lat="53.3013326" lon="13.2110380">
<ele>77.753</ele>
<time>2013-08-11T16:02:27.073Z</time>
</trkpt>
<trkpt lat="53.3014201" lon="13.2111916">
<ele>77.115</ele>
<time>2013-08-11T16:02:30.033Z</time>
</trkpt>
<trkpt lat="53.3014843" lon="13.2113090">
<ele>75.908</ele>
<time>2013-08-11T16:02:32.186Z</time>
</trkpt>
<trkpt lat="53.3015503" lon="13.2114233">
<ele>74.742</ele>
<time>2013-08-11T16:02:34.322Z</time>
</trkpt>
<trkpt lat="53.3016435" lon="13.2115640">
<ele>74.147</ele>
<time>2013-08-11T16:02:37.248Z</time>
</trkpt>
<trkpt lat="53.3016917" lon="13.2116911">
<ele>74.218</ele>
<time>2013-08-11T16:02:39.491Z</time>
</trkpt>
<trkpt lat="53.3017579" lon="13.2117985">
<ele>74.789</ele>
<time>2013-08-11T16:02:41.840Z</time>
</trkpt>
<trkpt lat="53.3018304" lon="13.2119358">
<ele>75.484</ele>
<time>2013-08-11T16:02:44.823Z</time>
</trkpt>
<trkpt lat="53.3019129" lon="13.2120529">
<ele>75.863</ele>
<time>2013-08-11T16:02:47.937Z</time>
</trkpt>
<trkpt lat="53.3019885" lon="13.2121854">
<ele>75.819</ele>
<time>2013-08-11T16:02:51.158Z</time>
</trkpt>
<trkpt lat="53.3020564" lon="13.2123063">
<ele>75.582</ele>
<time>2013-08-11T16:02:54.097Z</time>
</trkpt>
<trkpt lat="53.3021182" lon="13.2124221">
<ele>75.370</ele>
<time>2013-08-11T16:02:56.836Z</time>
</trkpt>
<trkpt lat="53.3021686" lon="13.2125472">
<ele>75.254</ele>
<time>2013-08-11T16:02:59.487Z</time>
</trkpt>
<trkpt lat="53.3022071" lon="13.2127272">
<ele>75.346</ele>
<time>2013-08-11T16:03:02.842Z</time>
</trkpt>
<trkpt lat="53.3022460" lon="13.2128737">
<ele>75.669</ele>
<time>2013-08-11T16:03:05.652Z</time>
</trkpt>
<trkpt lat="53.3022984" lon="13.2130069">
<ele>76.007</ele>
<time>2013-08-11T16:03:08.442Z</time>
</trkpt>
<trkpt lat="53.3023624" lon="13.2131762">
<ele>76.167</ele>
<time>2013-08-11T16:03:11.922Z</time>
</trkpt>
<trkpt lat="53.3024044" lon="13.2133139">
<ele>76.188</ele>
<time>2013-08-11T16:03:14.566Z</time>
</trkpt>
<trkpt lat="53.3024387" lon="13.2134531">
<ele>76.408</ele>
<time>2013-08-11T16:03:17.130Z</time>
</trkpt>
<trkpt lat="53.3024777" lon="13.2136090">
<ele>77.027</ele>
<time>2013-08-11T16:03:20.018Z</time>
</trkpt>
<trkpt lat="53.3025194" lon="13.2137577">
<ele>77.648</ele>
<time>2013-08-11T16:03:22.839Z</time>
</trkpt>
<trkpt lat="53.3025505" lon="13.2139242">
<ele>77.849</ele>
<time>2013-08-11T16:03:25.815Z</time>
</trkpt>
<trkpt lat="53.3025711" lon="13.2140730">
<ele>77.688</ele>
<time>2013-08-11T16:03:28.379Z</time>
</trkpt>
<trkpt lat="53.3026057" lon="13.2142156">
<ele>77.401</ele>
<time>2013-08-11T16:03:30.926Z</time>
</trkpt>
<trkpt lat="53.3026461" lon="13.2143660">
<ele>77.160</ele>
<time>2013-08-11T16:03:33.624Z</time>
</trkpt>
<trkpt lat="53.3026860" lon="13.2145028">
<ele>77.065</ele>
<time>2013-08-11T16:03:36.102Z</time>
</trkpt>
<trkpt lat="53.3027276" lon="13.2146465">
<ele>77.216</ele>
<time>2013-08-11T16:03:38.693Z</time>
</trkpt>
<trkpt lat="53.3027672" lon="13.2148389">
<ele>77.542</ele>
<time>2013-08-11T16:03:42.004Z</time>
</trkpt>
<trkpt lat="53.3027944" lon="13.2150219">
<ele>77.823</ele>
<time>2013-08-11T16:03:45.138Z</time>
</trkpt>
<trkpt lat="53.3028239" lon="13.2151686">
<ele>77.970</ele>
<time>2013-08-11T16:03:47.788Z</time>
</trkpt>
<trkpt lat="53.3028575" lon="13.2153283">
<ele>78.360</ele>
<time>2013-08-11T16:03:50.772Z</time>
</trkpt>
<trkpt lat="53.3028855" lon="13.2155001">
<ele>79.248</ele>
<time>2013-08-11T16:03:54.075Z</time>
</trkpt>
<trkpt lat="53.3029204" lon="13.2156644">
<ele>79.997</ele>
<time>2013-08-11T16:03:57.457Z</time>
</trkpt>
<trkpt lat="53.3029488" lon="13.2158194">
<ele>79.909</ele>
<time>2013-08-11T16:04:00.664Z</time>
</trkpt>
<trkpt lat="53.3029885" lon="13.2159732">
<ele>79.256</ele>
<time>2013-08-11T16:04:04.037Z</time>
</trkpt>
<trkpt lat="53.3030184" lon="13.2161202">
<ele>78.660</ele>
<time>2013-08-11T16:04:07.236Z</time>
</trkpt>
<trkpt lat="53.3030530" lon="13.2162854">
<ele>78.378</ele>
<time>2013-08-11T16:04:10.966Z</time>
</trkpt>
<trkpt lat="53.3030725" lon="13.2164469">
<ele>78.321</ele>
<time>2013-08-11T16:04:14.576Z</time>
</trkpt>
<trkpt lat="53.3031177" lon="13.2166323">
<ele>78.270</ele>
<time>2013-08-11T16:04:19.101Z</time>
</trkpt>
<trkpt lat="53.3031598" lon="13.2168011">
<ele>78.095</ele>
<time>2013-08-11T16:04:23.396Z</time>
</trkpt>
<trkpt lat="53.3032029" lon="13.2169733">
<ele>78.010</ele>
<time>2013-08-11T16:04:27.816Z</time>
</trkpt>
<trkpt lat="53.3032395" lon="13.2171413">
<ele>78.487</ele>
<time>2013-08-11T16:04:31.867Z</time>
</trkpt>
<trkpt lat="53.3032738" lon="13.2173022">
<ele>79.497</ele>
<time>2013-08-11T16:04:35.406Z</time>
</trkpt>
<trkpt lat="53.3033053" lon="13.2174479">
<ele>80.185</ele>
<time>2013-08-11T16:04:38.306Z</time>
</trkpt>
<trkpt lat="53.3033512" lon="13.2176304">
<ele>79.953</ele>
<time>2013-08-11T16:04:41.704Z</time>
</trkpt>
<trkpt lat="53.3033849" lon="13.2177873">
<ele>79.135</ele>
<time>2013-08-11T16:04:44.426Z</time>
</trkpt>
<trkpt lat="53.3034189" lon="13.2179595">
<ele>78.227</ele>
<time>2013-08-11T16:04:47.323Z</time>
</trkpt>
<trkpt lat="53.3034565" lon="13.2181175">
<ele>77.395</ele>
<time>2013-08-11T16:04:50.043Z</time>
</trkpt>
<trkpt lat="53.3035017" lon="13.2183019">
<ele>76.676</ele>
<time>2013-08-11T16:04:53.236Z</time>
</trkpt>
<trkpt lat="53.3035240" lon="13.2184930">
<ele>76.145</ele>
<time>2013-08-11T16:04:56.342Z</time>
</trkpt>
<trkpt lat="53.3035515" lon="13.2186377">
<ele>76.241</ele>
<time>2013-08-11T16:04:58.741Z</time>
</trkpt>
<trkpt lat="53.3035818" lon="13.2188019">
<ele>77.190</ele>
<time>2013-08-11T16:05:01.452Z</time>
</trkpt>
<trkpt lat="53.3036258" lon="13.2189790">
<ele>78.290</ele>
<time>2013-08-11T16:05:04.485Z</time>
</trkpt>
<trkpt lat="53.3036806" lon="13.2191408">
<ele>78.778</ele>
<time>2013-08-11T16:05:07.494Z</time>
</trkpt>
<trkpt lat="53.3037204" lon="13.2192915">
<ele>78.690</ele>
<time>2013-08-11T16:05:10.208Z</time>
</trkpt>
<trkpt lat="53.3037563" lon="13.2194531">
<ele>78.097</ele>
<time>2013-08-11T16:05:13.083Z</time>
</trkpt>
<trkpt lat="53.3037907" lon="13.2195949">
<ele>77.106</ele>
<time>2013-08-11T16:05:15.650Z</time>
</trkpt>
<trkpt lat="53.3038214" lon="13.2197422">
<ele>76.291</ele>
<time>2013-08-11T16:05:18.268Z</time>
</trkpt>
<trkpt lat="53.3038449" lon="13.2199157">
<ele>76.176</ele>
<time>2013-08-11T16:05:21.281Z</time>
</trkpt>
<trkpt lat="53.3038683" lon="13.2200855">
<ele>76.622</ele>
<time>2013-08-11T16:05:24.239Z</time>
</trkpt>
<trkpt lat="53.3039013" lon="13.2202782">
<ele>77.089</ele>
<time>2013-08-11T16:05:27.624Z</time>
</trkpt>
<trkpt lat="53.3039405" lon="13.2204630">
<ele>76.888</ele>
<time>2013-08-11T16:05:30.895Z</time>
</trkpt>
<trkpt lat="53.3039706" lon="13.2206116">
<ele>75.914</ele>
<time>2013-08-11T16:05:33.496Z</time>
</trkpt>
<trkpt lat="53.3040147" lon="13.2207731">
<ele>74.921</ele>
<time>2013-08-11T16:05:36.480Z</time>
</trkpt>
<trkpt lat="53.3040624" lon="13.2209537">
<ele>74.876</ele>
<time>2013-08-11T16:05:39.877Z</time>
</trkpt>
<trkpt lat="53.3041042" lon="13.2211005">
<ele>76.298</ele>
<time>2013-08-11T16:05:42.748Z</time>
</trkpt>
<trkpt lat="53.3041344" lon="13.2212591">
<ele>78.604</ele>
<time>2013-08-11T16:05:45.758Z</time>
</trkpt>
<trkpt lat="53.3041537" lon="13.2214215">
<ele>80.213</ele>
<time>2013-08-11T16:05:48.753Z</time>
</trkpt>
<trkpt lat="53.3041886" lon="13.2216061">
<ele>80.345</ele>
<time>2013-08-11T16:05:52.237Z</time>
</trkpt>
<trkpt lat="53.3042307" lon="13.2217911">
<ele>79.604</ele>
<time>2013-08-11T16:05:55.774Z</time>
</trkpt>
<trkpt lat="53.3042673" lon="13.2219451">
<ele>78.784</ele>
<time>2013-08-11T16:05:58.736Z</time>
</trkpt>
<trkpt lat="53.3043062" lon="13.2220963">
<ele>78.214</ele>
<time>2013-08-11T16:06:01.682Z</time>
</trkpt>
<trkpt lat="53.3043454" lon="13.2222863">
<ele>77.875</ele>
<time>2013-08-11T16:06:05.255Z</time>
</trkpt>
<trkpt lat="53.3043826" lon="13.2224467">
<ele>77.648</ele>
<time>2013-08-11T16:06:08.248Z</time>
</trkpt>
<trkpt lat="53.3044192" lon="13.2226222">
<ele>77.422</ele>
<time>2013-08-11T16:06:11.409Z</time>
</trkpt>
<trkpt lat="53.3044554" lon="13.2227977">
<ele>77.145</ele>
<time>2013-08-11T16:06:14.520Z</time>
</trkpt>
<trkpt lat="53.3044986" lon="13.2229819">
<ele>76.884</ele>
<time>2013-08-11T16:06:17.837Z</time>
</trkpt>
<trkpt lat="53.3045336" lon="13.2231285">
<ele>76.998</ele>
<time>2013-08-11T16:06:20.495Z</time>
</trkpt>
<trkpt lat="53.3045703" lon="13.2232908">
<ele>77.667</ele>
<time>2013-08-11T16:06:23.400Z</time>
</trkpt>
<trkpt lat="53.3046128" lon="13.2234801">
<ele>78.448</ele>
<time>2013-08-11T16:06:26.762Z</time>
</trkpt>
<trkpt lat="53.3046503" lon="13.2236273">
<ele>78.849</ele>
<time>2013-08-11T16:06:29.457Z</time>
</trkpt>
<trkpt lat="53.3046880" lon="13.2238036">
<ele>78.791</ele>
<time>2013-08-11T16:06:32.704Z</time>
</trkpt>
<trkpt lat="53.3047356" lon="13.2239823">
<ele>78.421</ele>
<time>2013-08-11T16:06:36.328Z</time>
</trkpt>
<trkpt lat="53.3047778" lon="13.2241646">
<ele>78.051</ele>
<time>2013-08-11T16:06:40.083Z</time>
</trkpt>
<trkpt lat="53.3048137" lon="13.2243323">
<ele>77.910</ele>
<time>2013-08-11T16:06:43.548Z</time>
</trkpt>
<trkpt lat="53.3048463" lon="13.2244895">
<ele>77.968</ele>
<time>2013-08-11T16:06:46.762Z</time>
</trkpt>
<trkpt lat="53.3048768" lon="13.2246403">
<ele>78.086</ele>
<time>2013-08-11T16:06:49.821Z</time>
</trkpt>
<trkpt lat="53.3049280" lon="13.2248028">
<ele>78.019</ele>
<time>2013-08-11T16:06:53.353Z</time>
</trkpt>
<trkpt lat="53.3049651" lon="13.2249438">
<ele>77.576</ele>
<time>2013-08-11T16:06:56.293Z</time>
</trkpt>
<trkpt lat="53.3050036" lon="13.2251131">
<ele>76.932</ele>
<time>2013-08-11T16:06:59.692Z</time>
</trkpt>
<trkpt lat="53.3050374" lon="13.2252976">
<ele>76.582</ele>
<time>2013-08-11T16:07:03.186Z</time>
</trkpt>
<trkpt lat="53.3050719" lon="13.2254616">
<ele>76.911</ele>
<time>2013-08-11T16:07:06.142Z</time>
</trkpt>
<trkpt lat="53.3051071" lon="13.2256288">
<ele>77.811</ele>
<time>2013-08-11T16:07:08.970Z</time>
</trkpt>
<trkpt lat="53.3051322" lon="13.2257910">
<ele>79.170</ele>
<time>2013-08-11T16:07:11.521Z</time>
</trkpt>
<trkpt lat="53.3051509" lon="13.2259507">
<ele>80.979</ele>
<time>2013-08-11T16:07:13.944Z</time>
</trkpt>
<trkpt lat="53.3051915" lon="13.2261236">
<ele>82.695</ele>
<time>2013-08-11T16:07:16.700Z</time>
</trkpt>
<trkpt lat="53.3052283" lon="13.2262873">
<ele>83.661</ele>
<time>2013-08-11T16:07:19.339Z</time>
</trkpt>
<trkpt lat="53.3052694" lon="13.2264656">
<ele>83.793</ele>
<time>2013-08-11T16:07:22.287Z</time>
</trkpt>
<trkpt lat="53.3053295" lon="13.2266147">
<ele>83.385</ele>
<time>2013-08-11T16:07:25.187Z</time>
</trkpt>
<trkpt lat="53.3053762" lon="13.2267835">
<ele>83.050</ele>
<time>2013-08-11T16:07:28.236Z</time>
</trkpt>
<trkpt lat="53.3054447" lon="13.2269722">
<ele>83.165</ele>
<time>2013-08-11T16:07:31.790Z</time>
</trkpt>
<trkpt lat="53.3054971" lon="13.2271537">
<ele>83.271</ele>
<time>2013-08-11T16:07:34.935Z</time>
</trkpt>
<trkpt lat="53.3055445" lon="13.2273439">
<ele>82.793</ele>
<time>2013-08-11T16:07:38.122Z</time>
</trkpt>
<trkpt lat="53.3055879" lon="13.2275388">
<ele>81.949</ele>
<time>2013-08-11T16:07:41.403Z</time>
</trkpt>
<trkpt lat="53.3056244" lon="13.2277011">
<ele>81.332</ele>
<time>2013-08-11T16:07:44.276Z</time>
</trkpt>
<trkpt lat="53.3056482" lon="13.2278842">
<ele>81.501</ele>
<time>2013-08-11T16:07:47.509Z</time>
</trkpt>
<trkpt lat="53.3056802" lon="13.2280687">
<ele>82.496</ele>
<time>2013-08-11T16:07:50.869Z</time>
</trkpt>
<trkpt lat="53.3056858" lon="13.2282402">
<ele>83.564</ele>
<time>2013-08-11T16:07:53.849Z</time>
</trkpt>
<trkpt lat="53.3056866" lon="13.2283909">
<ele>84.305</ele>
<time>2013-08-11T16:07:56.451Z</time>
</trkpt>
<trkpt lat="53.3057095" lon="13.2285613">
<ele>84.972</ele>
<time>2013-08-11T16:07:59.446Z</time>
</trkpt>
<trkpt lat="53.3057407" lon="13.2287041">
<ele>84.614</ele>
<time>2013-08-11T16:08:02.021Z</time>
</trkpt>
<trkpt lat="53.3057632" lon="13.2288515">
<ele>81.607</ele>
<time>2013-08-11T16:08:04.546Z</time>
</trkpt>
<trkpt lat="53.3057789" lon="13.2290250">
<ele>76.845</ele>
<time>2013-08-11T16:08:07.418Z</time>
</trkpt>
<trkpt lat="53.3058085" lon="13.2291996">
<ele>73.580</ele>
<time>2013-08-11T16:08:10.383Z</time>
</trkpt>
<trkpt lat="53.3058603" lon="13.2294163">
<ele>73.212</ele>
<time>2013-08-11T16:08:14.269Z</time>
</trkpt>
<trkpt lat="53.3059186" lon="13.2295901">
<ele>74.475</ele>
<time>2013-08-11T16:08:17.776Z</time>
</trkpt>
<trkpt lat="53.3059694" lon="13.2297779">
<ele>76.144</ele>
<time>2013-08-11T16:08:21.675Z</time>
</trkpt>
<trkpt lat="53.3060021" lon="13.2299598">
<ele>77.858</ele>
<time>2013-08-11T16:08:25.578Z</time>
</trkpt>
<trkpt lat="53.3060246" lon="13.2301310">
<ele>79.409</ele>
<time>2013-08-11T16:08:29.385Z</time>
</trkpt>
<trkpt lat="53.3060383" lon="13.2302924">
<ele>80.799</ele>
<time>2013-08-11T16:08:33.048Z</time>
</trkpt>
<trkpt lat="53.3060651" lon="13.2304728">
<ele>82.193</ele>
<time>2013-08-11T16:08:37.191Z</time>
</trkpt>
<trkpt lat="53.3061106" lon="13.2306504">
<ele>83.450</ele>
<time>2013-08-11T16:08:41.402Z</time>
</trkpt>
<trkpt lat="53.3061412" lon="13.2308342">
<ele>83.857</ele>
<time>2013-08-11T16:08:45.449Z</time>
</trkpt>
<trkpt lat="53.3061861" lon="13.2309955">
<ele>83.182</ele>
<time>2013-08-11T16:08:49.010Z</time>
</trkpt>
<trkpt lat="53.3062379" lon="13.2311680">
<ele>81.812</ele>
<time>2013-08-11T16:08:52.716Z</time>
</trkpt>
<trkpt lat="53.3062990" lon="13.2313299">
<ele>80.403</ele>
<time>2013-08-11T16:08:56.305Z</time>
</trkpt>
<trkpt lat="53.3063599" lon="13.2314954">
<ele>79.637</ele>
<time>2013-08-11T16:08:59.918Z</time>
</trkpt>
<trkpt lat="53.3064143" lon="13.2316440">
<ele>79.590</ele>
<time>2013-08-11T16:09:03.147Z</time>
</trkpt>
<trkpt lat="53.3064857" lon="13.2317657">
<ele>79.741</ele>
<time>2013-08-11T16:09:06.276Z</time>
</trkpt>
<trkpt lat="53.3065582" lon="13.2318707">
<ele>80.058</ele>
<time>2013-08-11T16:09:09.156Z</time>
</trkpt>
<trkpt lat="53.3066406" lon="13.2319530">
<ele>80.661</ele>
<time>2013-08-11T16:09:11.963Z</time>
</trkpt>
<trkpt lat="53.3067467" lon="13.2320243">
<ele>81.319</ele>
<time>2013-08-11T16:09:15.226Z</time>
</trkpt>
<trkpt lat="53.3068372" lon="13.2320437">
<ele>81.699</ele>
<time>2013-08-11T16:09:17.761Z</time>
</trkpt>
<trkpt lat="53.3069383" lon="13.2320757">
<ele>81.926</ele>
<time>2013-08-11T16:09:20.560Z</time>
</trkpt>
<trkpt lat="53.3070354" lon="13.2321398">
<ele>82.250</ele>
<time>2013-08-11T16:09:23.366Z</time>
</trkpt>
<trkpt lat="53.3071429" lon="13.2321721">
<ele>82.814</ele>
<time>2013-08-11T16:09:26.352Z</time>
</trkpt>
<trkpt lat="53.3072434" lon="13.2322516">
<ele>83.570</ele>
<time>2013-08-11T16:09:29.465Z</time>
</trkpt>
<trkpt lat="53.3073349" lon="13.2323033">
<ele>83.991</ele>
<time>2013-08-11T16:09:32.261Z</time>
</trkpt>
<trkpt lat="53.3074383" lon="13.2323483">
<ele>83.021</ele>
<time>2013-08-11T16:09:35.388Z</time>
</trkpt>
<trkpt lat="53.3075302" lon="13.2323814">
<ele>80.209</ele>
<time>2013-08-11T16:09:38.115Z</time>
</trkpt>
<trkpt lat="53.3076221" lon="13.2323990">
<ele>76.155</ele>
<time>2013-08-11T16:09:40.755Z</time>
</trkpt>
<trkpt lat="53.3077208" lon="13.2323920">
<ele>72.193</ele>
<time>2013-08-11T16:09:43.559Z</time>
</trkpt>
<trkpt lat="53.3078127" lon="13.2324241">
<ele>69.630</ele>
<time>2013-08-11T16:09:46.318Z</time>
</trkpt>
<trkpt lat="53.3079334" lon="13.2324409">
<ele>69.009</ele>
<time>2013-08-11T16:09:50.063Z</time>
</trkpt>
<trkpt lat="53.3080329" lon="13.2324439">
<ele>69.705</ele>
<time>2013-08-11T16:09:53.477Z</time>
</trkpt>
<trkpt lat="53.3081303" lon="13.2324849">
<ele>70.625</ele>
<time>2013-08-11T16:09:57.258Z</time>
</trkpt>
<trkpt lat="53.3082283" lon="13.2324822">
<ele>71.091</ele>
<time>2013-08-11T16:10:01.282Z</time>
</trkpt>
<trkpt lat="53.3083444" lon="13.2324744">
<ele>71.425</ele>
<time>2013-08-11T16:10:06.262Z</time>
</trkpt>
<trkpt lat="53.3084431" lon="13.2324801">
<ele>72.132</ele>
<time>2013-08-11T16:10:10.614Z</time>
</trkpt>
<trkpt lat="53.3085652" lon="13.2324877">
<ele>73.163</ele>
<time>2013-08-11T16:10:16.383Z</time>
</trkpt>
<trkpt lat="53.3087653" lon="13.2324906">
<ele>74.154</ele>
<time>2013-08-11T16:10:26.297Z</time>
</trkpt>
<trkpt lat="53.3089292" lon="13.2325133">
<ele>76.499</ele>
<time>2013-08-11T16:10:33.903Z</time>
</trkpt>
<trkpt lat="53.3090786" lon="13.2325333">
<ele>81.438</ele>
<time>2013-08-11T16:10:41.411Z</time>
</trkpt>
<trkpt lat="53.3091687" lon="13.2325413">
<ele>86.754</ele>
<time>2013-08-11T16:10:45.709Z</time>
</trkpt>
<trkpt lat="53.3092920" lon="13.2325639">
<ele>89.635</ele>
<time>2013-08-11T16:10:51.271Z</time>
</trkpt>
<trkpt lat="53.3093981" lon="13.2325902">
<ele>90.063</ele>
<time>2013-08-11T16:10:56.236Z</time>
</trkpt>
<trkpt lat="53.3094935" lon="13.2326056">
<ele>88.782</ele>
<time>2013-08-11T16:11:01.003Z</time>
</trkpt>
<trkpt lat="53.3096012" lon="13.2326128">
<ele>86.637</ele>
<time>2013-08-11T16:11:07.142Z</time>
</trkpt>
<trkpt lat="53.3097175" lon="13.2325852">
<ele>84.203</ele>
<time>2013-08-11T16:11:15.033Z</time>
</trkpt>
<trkpt lat="53.3098314" lon="13.2325983">
<ele>81.607</ele>
<time>2013-08-11T16:11:23.008Z</time>
</trkpt>
<trkpt lat="53.3099436" lon="13.2325864">
<ele>79.430</ele>
<time>2013-08-11T16:11:30.864Z</time>
</trkpt>
<trkpt lat="53.3100544" lon="13.2325659">
<ele>78.377</ele>
<time>2013-08-11T16:11:38.582Z</time>
</trkpt>
<trkpt lat="53.3102111" lon="13.2325234">
<ele>78.026</ele>
<time>2013-08-11T16:11:48.530Z</time>
</trkpt>
<trkpt lat="53.3103153" lon="13.2324815">
<ele>77.624</ele>
<time>2013-08-11T16:11:52.997Z</time>
</trkpt>
<trkpt lat="53.3104249" lon="13.2324397">
<ele>77.044</ele>
<time>2013-08-11T16:11:57.035Z</time>
</trkpt>
<trkpt lat="53.3105198" lon="13.2323828">
<ele>76.802</ele>
<time>2013-08-11T16:12:00.663Z</time>
</trkpt>
<trkpt lat="53.3106253" lon="13.2323800">
<ele>77.142</ele>
<time>2013-08-11T16:12:04.638Z</time>
</trkpt>
<trkpt lat="53.3106253" lon="13.2323800">
<ele>77.614</ele>
<time>2013-08-11T16:12:20.358Z</time>
</trkpt>
<trkpt lat="53.3106253" lon="13.2323800">
<ele>77.780</ele>
<time>2013-08-11T16:12:20.458Z</time>
</trkpt>
<trkpt lat="53.3108826" lon="13.2325408">
<ele>77.704</ele>
<time>2013-08-11T16:12:47.645Z</time>
</trkpt>
<trkpt lat="53.3109874" lon="13.2325935">
<ele>77.587</ele>
<time>2013-08-11T16:12:52.910Z</time>
</trkpt>
<trkpt lat="53.3110872" lon="13.2326534">
<ele>77.515</ele>
<time>2013-08-11T16:12:57.111Z</time>
</trkpt>
<trkpt lat="53.3111765" lon="13.2327218">
<ele>77.393</ele>
<time>2013-08-11T16:13:00.742Z</time>
</trkpt>
<trkpt lat="53.3112668" lon="13.2328007">
<ele>76.829</ele>
<time>2013-08-11T16:13:04.428Z</time>
</trkpt>
<trkpt lat="53.3113626" lon="13.2328742">
<ele>76.076</ele>
<time>2013-08-11T16:13:08.255Z</time>
</trkpt>
<trkpt lat="53.3114639" lon="13.2329561">
<ele>75.977</ele>
<time>2013-08-11T16:13:12.387Z</time>
</trkpt>
<trkpt lat="53.3115640" lon="13.2330513">
<ele>76.755</ele>
<time>2013-08-11T16:13:16.581Z</time>
</trkpt>
<trkpt lat="53.3116570" lon="13.2331329">
<ele>77.876</ele>
<time>2013-08-11T16:13:20.092Z</time>
</trkpt>
<trkpt lat="53.3117492" lon="13.2331941">
<ele>79.297</ele>
<time>2013-08-11T16:13:23.118Z</time>
</trkpt>
<trkpt lat="53.3118547" lon="13.2332664">
<ele>81.606</ele>
<time>2013-08-11T16:13:26.412Z</time>
</trkpt>
<trkpt lat="53.3119456" lon="13.2333459">
<ele>84.929</ele>
<time>2013-08-11T16:13:29.105Z</time>
</trkpt>
<trkpt lat="53.3120541" lon="13.2334202">
<ele>88.480</ele>
<time>2013-08-11T16:13:31.711Z</time>
</trkpt>
<trkpt lat="53.3121858" lon="13.2335007">
<ele>91.318</ele>
<time>2013-08-11T16:13:34.430Z</time>
</trkpt>
<trkpt lat="53.3123437" lon="13.2335726">
<ele>92.813</ele>
<time>2013-08-11T16:13:37.418Z</time>
</trkpt>
<trkpt lat="53.3124725" lon="13.2336523">
<ele>92.914</ele>
<time>2013-08-11T16:13:39.940Z</time>
</trkpt>
<trkpt lat="53.3125846" lon="13.2337107">
<ele>92.476</ele>
<time>2013-08-11T16:13:42.158Z</time>
</trkpt>
<trkpt lat="53.3127166" lon="13.2337949">
<ele>92.478</ele>
<time>2013-08-11T16:13:44.950Z</time>
</trkpt>
<trkpt lat="53.3128265" lon="13.2338649">
<ele>93.140</ele>
<time>2013-08-11T16:13:47.411Z</time>
</trkpt>
<trkpt lat="53.3129277" lon="13.2339229">
<ele>94.203</ele>
<time>2013-08-11T16:13:49.711Z</time>
</trkpt>
<trkpt lat="53.3130189" lon="13.2339510">
<ele>95.457</ele>
<time>2013-08-11T16:13:51.691Z</time>
</trkpt>
<trkpt lat="53.3131150" lon="13.2339806">
<ele>96.513</ele>
<time>2013-08-11T16:13:53.704Z</time>
</trkpt>
<trkpt lat="53.3132420" lon="13.2340329">
<ele>97.095</ele>
<time>2013-08-11T16:13:56.369Z</time>
</trkpt>
<trkpt lat="53.3133309" lon="13.2340778">
<ele>97.697</ele>
<time>2013-08-11T16:13:58.286Z</time>
</trkpt>
<trkpt lat="53.3134314" lon="13.2341202">
<ele>98.869</ele>
<time>2013-08-11T16:14:00.464Z</time>
</trkpt>
<trkpt lat="53.3134314" lon="13.2341202">
<ele>100.066</ele>
<time>2013-08-11T16:14:17.301Z</time>
</trkpt>
<trkpt lat="53.3134314" lon="13.2341202">
<ele>100.548</ele>
<time>2013-08-11T16:14:17.401Z</time>
</trkpt>
<trkpt lat="53.3136611" lon="13.2342015">
<ele>100.263</ele>
<time>2013-08-11T16:14:37.972Z</time>
</trkpt>
<trkpt lat="53.3137534" lon="13.2341673">
<ele>97.668</ele>
<time>2013-08-11T16:14:43.194Z</time>
</trkpt>
<trkpt lat="53.3138185" lon="13.2342794">
<ele>92.159</ele>
<time>2013-08-11T16:14:48.227Z</time>
</trkpt>
<trkpt lat="53.3137916" lon="13.2344364">
<ele>87.335</ele>
<time>2013-08-11T16:14:54.711Z</time>
</trkpt>
<trkpt lat="53.3138606" lon="13.2346082">
<ele>86.487</ele>
<time>2013-08-11T16:15:02.927Z</time>
</trkpt>
<trkpt lat="53.3139052" lon="13.2347433">
<ele>89.832</ele>
<time>2013-08-11T16:15:09.052Z</time>
</trkpt>
<trkpt lat="53.3139044" lon="13.2349159">
<ele>95.689</ele>
<time>2013-08-11T16:15:16.805Z</time>
</trkpt>
<trkpt lat="53.3139409" lon="13.2351094">
<ele>100.618</ele>
<time>2013-08-11T16:15:23.476Z</time>
</trkpt>
<trkpt lat="53.3139740" lon="13.2352553">
<ele>102.400</ele>
<time>2013-08-11T16:15:27.433Z</time>
</trkpt>
<trkpt lat="53.3140070" lon="13.2354079">
<ele>100.543</ele>
<time>2013-08-11T16:15:31.083Z</time>
</trkpt>
<trkpt lat="53.3140309" lon="13.2355979">
<ele>95.629</ele>
<time>2013-08-11T16:15:35.299Z</time>
</trkpt>
<trkpt lat="53.3140828" lon="13.2357405">
<ele>90.505</ele>
<time>2013-08-11T16:15:38.880Z</time>
</trkpt>
<trkpt lat="53.3141344" lon="13.2358767">
<ele>87.149</ele>
<time>2013-08-11T16:15:42.312Z</time>
</trkpt>
<trkpt lat="53.3141831" lon="13.2360295">
<ele>85.134</ele>
<time>2013-08-11T16:15:45.986Z</time>
</trkpt>
<trkpt lat="53.3142260" lon="13.2362035">
<ele>84.420</ele>
<time>2013-08-11T16:15:49.975Z</time>
</trkpt>
<trkpt lat="53.3142644" lon="13.2363696">
<ele>85.061</ele>
<time>2013-08-11T16:15:53.700Z</time>
</trkpt>
<trkpt lat="53.3142980" lon="13.2365354">
<ele>86.086</ele>
<time>2013-08-11T16:15:57.347Z</time>
</trkpt>
<trkpt lat="53.3143543" lon="13.2366660">
<ele>86.627</ele>
<time>2013-08-11T16:16:00.567Z</time>
</trkpt>
<trkpt lat="53.3144033" lon="13.2367943">
<ele>86.472</ele>
<time>2013-08-11T16:16:03.427Z</time>
</trkpt>
<trkpt lat="53.3144462" lon="13.2369685">
<ele>85.342</ele>
<time>2013-08-11T16:16:06.881Z</time>
</trkpt>
<trkpt lat="53.3144921" lon="13.2370986">
<ele>83.448</ele>
<time>2013-08-11T16:16:09.603Z</time>
</trkpt>
<trkpt lat="53.3145452" lon="13.2372447">
<ele>81.836</ele>
<time>2013-08-11T16:16:12.635Z</time>
</trkpt>
<trkpt lat="53.3146152" lon="13.2374213">
<ele>81.164</ele>
<time>2013-08-11T16:16:16.355Z</time>
</trkpt>
<trkpt lat="53.3146716" lon="13.2375452">
<ele>81.117</ele>
<time>2013-08-11T16:16:18.982Z</time>
</trkpt>
<trkpt lat="53.3147243" lon="13.2376805">
<ele>81.272</ele>
<time>2013-08-11T16:16:21.622Z</time>
</trkpt>
<trkpt lat="53.3147924" lon="13.2378052">
<ele>81.621</ele>
<time>2013-08-11T16:16:24.358Z</time>
</trkpt>
<trkpt lat="53.3147924" lon="13.2378052">
<ele>82.038</ele>
<time>2013-08-11T16:16:54.303Z</time>
</trkpt>
<trkpt lat="53.3147924" lon="13.2378052">
<ele>82.148</ele>
<time>2013-08-11T16:16:56.093Z</time>
</trkpt>
<trkpt lat="53.3147754" lon="13.2375290">
<ele>81.955</ele>
<time>2013-08-11T16:17:07.909Z</time>
</trkpt>
<trkpt lat="53.3147058" lon="13.2373776">
<ele>81.012</ele>
<time>2013-08-11T16:17:11.545Z</time>
</trkpt>
<trkpt lat="53.3146383" lon="13.2372117">
<ele>78.914</ele>
<time>2013-08-11T16:17:14.697Z</time>
</trkpt>
<trkpt lat="53.3145691" lon="13.2370394">
<ele>76.593</ele>
<time>2013-08-11T16:17:17.523Z</time>
</trkpt>
<trkpt lat="53.3145078" lon="13.2368600">
<ele>75.223</ele>
<time>2013-08-11T16:17:20.096Z</time>
</trkpt>
<trkpt lat="53.3144488" lon="13.2367041">
<ele>75.011</ele>
<time>2013-08-11T16:17:22.307Z</time>
</trkpt>
<trkpt lat="53.3144488" lon="13.2367041">
<ele>75.432</ele>
<time>2013-08-11T16:17:41.315Z</time>
</trkpt>
<trkpt lat="53.3144488" lon="13.2367041">
<ele>75.730</ele>
<time>2013-08-11T16:17:41.415Z</time>
</trkpt>
<trkpt lat="53.3143355" lon="13.2363615">
<ele>75.688</ele>
<time>2013-08-11T16:17:58.101Z</time>
</trkpt>
<trkpt lat="53.3142810" lon="13.2362408">
<ele>79.276</ele>
<time>2013-08-11T16:18:01.526Z</time>
</trkpt>
<trkpt lat="53.3142367" lon="13.2360971">
<ele>88.994</ele>
<time>2013-08-11T16:18:05.189Z</time>
</trkpt>
<trkpt lat="53.3141960" lon="13.2359498">
<ele>98.109</ele>
<time>2013-08-11T16:18:09.968Z</time>
</trkpt>
<trkpt lat="53.3141690" lon="13.2357875">
<ele>99.882</ele>
<time>2013-08-11T16:18:15.099Z</time>
</trkpt>
<trkpt lat="53.3141714" lon="13.2356268">
<ele>95.980</ele>
<time>2013-08-11T16:18:21.047Z</time>
</trkpt>
<trkpt lat="53.3141651" lon="13.2354455">
<ele>90.739</ele>
<time>2013-08-11T16:18:28.357Z</time>
</trkpt>
<trkpt lat="53.3141339" lon="13.2352853">
<ele>87.231</ele>
<time>2013-08-11T16:18:34.056Z</time>
</trkpt>
<trkpt lat="53.3140983" lon="13.2351211">
<ele>85.614</ele>
<time>2013-08-11T16:18:39.220Z</time>
</trkpt>
<trkpt lat="53.3140751" lon="13.2349578">
<ele>84.370</ele>
<time>2013-08-11T16:18:44.212Z</time>
</trkpt>
<trkpt lat="53.3140317" lon="13.2347862">
<ele>82.979</ele>
<time>2013-08-11T16:18:49.644Z</time>
</trkpt>
<trkpt lat="53.3139227" lon="13.2345244">
<ele>81.833</ele>
<time>2013-08-11T16:18:58.504Z</time>
</trkpt>
<trkpt lat="53.3138241" lon="13.2343807">
<ele>81.584</ele>
<time>2013-08-11T16:19:04.983Z</time>
</trkpt>
<trkpt lat="53.3137789" lon="13.2342430">
<ele>82.636</ele>
<time>2013-08-11T16:19:09.937Z</time>
</trkpt>
<trkpt lat="53.3138668" lon="13.2341968">
<ele>84.439</ele>
<time>2013-08-11T16:19:15.935Z</time>
</trkpt>
<trkpt lat="53.3139616" lon="13.2342328">
<ele>86.924</ele>
<time>2013-08-11T16:19:21.870Z</time>
</trkpt>
<trkpt lat="53.3140620" lon="13.2342487">
<ele>90.193</ele>
<time>2013-08-11T16:19:28.352Z</time>
</trkpt>
<trkpt lat="53.3141760" lon="13.2342696">
<ele>94.270</ele>
<time>2013-08-11T16:19:35.238Z</time>
</trkpt>
<trkpt lat="53.3142795" lon="13.2343650">
<ele>98.872</ele>
<time>2013-08-11T16:19:41.137Z</time>
</trkpt>
<trkpt lat="53.3143656" lon="13.2344083">
<ele>101.998</ele>
<time>2013-08-11T16:19:45.043Z</time>
</trkpt>
<trkpt lat="53.3144912" lon="13.2345173">
<ele>101.924</ele>
<time>2013-08-11T16:19:51.113Z</time>
</trkpt>
<trkpt lat="53.3145824" lon="13.2345766">
<ele>99.683</ele>
<time>2013-08-11T16:19:55.539Z</time>
</trkpt>
<trkpt lat="53.3146862" lon="13.2346108">
<ele>96.777</ele>
<time>2013-08-11T16:20:00.109Z</time>
</trkpt>
<trkpt lat="53.3147835" lon="13.2346529">
<ele>94.130</ele>
<time>2013-08-11T16:20:04.115Z</time>
</trkpt>
<trkpt lat="53.3148809" lon="13.2347107">
<ele>92.207</ele>
<time>2013-08-11T16:20:08.054Z</time>
</trkpt>
<trkpt lat="53.3149716" lon="13.2347420">
<ele>90.722</ele>
<time>2013-08-11T16:20:11.603Z</time>
</trkpt>
<trkpt lat="53.3150585" lon="13.2347851">
<ele>89.283</ele>
<time>2013-08-11T16:20:15.232Z</time>
</trkpt>
<trkpt lat="53.3151572" lon="13.2348363">
<ele>87.719</ele>
<time>2013-08-11T16:20:19.505Z</time>
</trkpt>
<trkpt lat="53.3152405" lon="13.2348991">
<ele>86.092</ele>
<time>2013-08-11T16:20:23.396Z</time>
</trkpt>
<trkpt lat="53.3153284" lon="13.2349709">
<ele>84.381</ele>
<time>2013-08-11T16:20:27.483Z</time>
</trkpt>
<trkpt lat="53.3154255" lon="13.2350512">
<ele>82.397</ele>
<time>2013-08-11T16:20:31.630Z</time>
</trkpt>
<trkpt lat="53.3155117" lon="13.2351299">
<ele>80.169</ele>
<time>2013-08-11T16:20:35.311Z</time>
</trkpt>
<trkpt lat="53.3156134" lon="13.2351887">
<ele>78.243</ele>
<time>2013-08-11T16:20:39.478Z</time>
</trkpt>
<trkpt lat="53.3157215" lon="13.2352388">
<ele>77.103</ele>
<time>2013-08-11T16:20:43.857Z</time>
</trkpt>
<trkpt lat="53.3159851" lon="13.2353004">
<ele>76.993</ele>
<time>2013-08-11T16:20:53.756Z</time>
</trkpt>
<trkpt lat="53.3162832" lon="13.2353519">
<ele>78.506</ele>
<time>2013-08-11T16:21:04.911Z</time>
</trkpt>
<trkpt lat="53.3163989" lon="13.2354061">
<ele>83.000</ele>
<time>2013-08-11T16:21:09.567Z</time>
</trkpt>
<trkpt lat="53.3165001" lon="13.2354568">
<ele>90.526</ele>
<time>2013-08-11T16:21:13.785Z</time>
</trkpt>
<trkpt lat="53.3166120" lon="13.2355285">
<ele>98.217</ele>
<time>2013-08-11T16:21:18.876Z</time>
</trkpt>
<trkpt lat="53.3167198" lon="13.2356189">
<ele>103.289</ele>
<time>2013-08-11T16:21:23.597Z</time>
</trkpt>
<trkpt lat="53.3168269" lon="13.2356586">
<ele>105.673</ele>
<time>2013-08-11T16:21:27.735Z</time>
</trkpt>
<trkpt lat="53.3169304" lon="13.2356799">
<ele>106.443</ele>
<time>2013-08-11T16:21:31.672Z</time>
</trkpt>
<trkpt lat="53.3170263" lon="13.2357261">
<ele>106.381</ele>
<time>2013-08-11T16:21:35.413Z</time>
</trkpt>
<trkpt lat="53.3171241" lon="13.2357662">
<ele>106.138</ele>
<time>2013-08-11T16:21:38.495Z</time>
</trkpt>
<trkpt lat="53.3172167" lon="13.2358081">
<ele>104.938</ele>
<time>2013-08-11T16:21:41.149Z</time>
</trkpt>
<trkpt lat="53.3173183" lon="13.2358488">
<ele>102.168</ele>
<time>2013-08-11T16:21:43.841Z</time>
</trkpt>
<trkpt lat="53.3174226" lon="13.2358948">
<ele>99.066</ele>
<time>2013-08-11T16:21:46.719Z</time>
</trkpt>
<trkpt lat="53.3175256" lon="13.2359708">
<ele>96.265</ele>
<time>2013-08-11T16:21:51.641Z</time>
</trkpt>
<trkpt lat="53.3176205" lon="13.2360244">
<ele>93.168</ele>
<time>2013-08-11T16:21:57.490Z</time>
</trkpt>
<trkpt lat="53.3177206" lon="13.2360689">
<ele>90.108</ele>
<time>2013-08-11T16:22:03.493Z</time>
</trkpt>
<trkpt lat="53.3178221" lon="13.2361394">
<ele>87.332</ele>
<time>2013-08-11T16:22:10.192Z</time>
</trkpt>
<trkpt lat="53.3179218" lon="13.2360787">
<ele>84.641</ele>
<time>2013-08-11T16:22:16.095Z</time>
</trkpt>
<trkpt lat="53.3180468" lon="13.2361321">
<ele>82.494</ele>
<time>2013-08-11T16:22:22.512Z</time>
</trkpt>
<trkpt lat="53.3181364" lon="13.2361893">
<ele>81.462</ele>
<time>2013-08-11T16:22:27.261Z</time>
</trkpt>
<trkpt lat="53.3182259" lon="13.2362715">
<ele>81.499</ele>
<time>2013-08-11T16:22:32.407Z</time>
</trkpt>
<trkpt lat="53.3183086" lon="13.2363354">
<ele>82.442</ele>
<time>2013-08-11T16:22:36.589Z</time>
</trkpt>
<trkpt lat="53.3184100" lon="13.2363958">
<ele>83.853</ele>
<time>2013-08-11T16:22:40.957Z</time>
</trkpt>
<trkpt lat="53.3185293" lon="13.2364021">
<ele>85.055</ele>
<time>2013-08-11T16:22:45.650Z</time>
</trkpt>
<trkpt lat="53.3187521" lon="13.2363911">
<ele>86.325</ele>
<time>2013-08-11T16:22:55.387Z</time>
</trkpt>
<trkpt lat="53.3188530" lon="13.2363680">
<ele>89.646</ele>
<time>2013-08-11T16:22:59.107Z</time>
</trkpt>
<trkpt lat="53.3189457" lon="13.2363760">
<ele>95.261</ele>
<time>2013-08-11T16:23:02.179Z</time>
</trkpt>
<trkpt lat="53.3190606" lon="13.2363618">
<ele>100.200</ele>
<time>2013-08-11T16:23:05.770Z</time>
</trkpt>
<trkpt lat="53.3191555" lon="13.2363514">
<ele>102.512</ele>
<time>2013-08-11T16:23:08.567Z</time>
</trkpt>
<trkpt lat="53.3192613" lon="13.2363608">
<ele>103.032</ele>
<time>2013-08-11T16:23:11.396Z</time>
</trkpt>
<trkpt lat="53.3193593" lon="13.2363504">
<ele>102.337</ele>
<time>2013-08-11T16:23:13.785Z</time>
</trkpt>
<trkpt lat="53.3194650" lon="13.2363980">
<ele>99.775</ele>
<time>2013-08-11T16:23:16.304Z</time>
</trkpt>
<trkpt lat="53.3195526" lon="13.2365022">
<ele>94.402</ele>
<time>2013-08-11T16:23:18.711Z</time>
</trkpt>
<trkpt lat="53.3196508" lon="13.2366013">
<ele>86.733</ele>
<time>2013-08-11T16:23:21.244Z</time>
</trkpt>
<trkpt lat="53.3198981" lon="13.2367530">
<ele>79.487</ele>
<time>2013-08-11T16:23:26.922Z</time>
</trkpt>
<trkpt lat="53.3200507" lon="13.2368356">
<ele>77.351</ele>
<time>2013-08-11T16:23:30.217Z</time>
</trkpt>
<trkpt lat="53.3201813" lon="13.2368732">
<ele>82.263</ele>
<time>2013-08-11T16:23:32.838Z</time>
</trkpt>
<trkpt lat="53.3202690" lon="13.2369110">
<ele>90.402</ele>
<time>2013-08-11T16:23:34.599Z</time>
</trkpt>
<trkpt lat="53.3204500" lon="13.2369351">
<ele>96.791</ele>
<time>2013-08-11T16:23:38.109Z</time>
</trkpt>
<trkpt lat="53.3205407" lon="13.2369749">
<ele>100.196</ele>
<time>2013-08-11T16:23:39.955Z</time>
</trkpt>
<trkpt lat="53.3206414" lon="13.2370769">
<ele>101.662</ele>
<time>2013-08-11T16:23:42.362Z</time>
</trkpt>
<trkpt lat="53.3207239" lon="13.2371784">
<ele>100.595</ele>
<time>2013-08-11T16:23:44.589Z</time>
</trkpt>
<trkpt lat="53.3208473" lon="13.2372807">
<ele>96.300</ele>
<time>2013-08-11T16:23:47.641Z</time>
</trkpt>
<trkpt lat="53.3209665" lon="13.2373432">
<ele>91.090</ele>
<time>2013-08-11T16:23:50.487Z</time>
</trkpt>
<trkpt lat="53.3210627" lon="13.2372909">
<ele>87.408</ele>
<time>2013-08-11T16:23:52.847Z</time>
</trkpt>
<trkpt lat="53.3211627" lon="13.2372420">
<ele>85.402</ele>
<time>2013-08-11T16:23:55.311Z</time>
</trkpt>
<trkpt lat="53.3212835" lon="13.2372204">
<ele>84.491</ele>
<time>2013-08-11T16:23:58.179Z</time>
</trkpt>
<trkpt lat="53.3214007" lon="13.2372065">
<ele>84.147</ele>
<time>2013-08-11T16:24:00.908Z</time>
</trkpt>
<trkpt lat="53.3215112" lon="13.2371862">
<ele>84.177</ele>
<time>2013-08-11T16:24:03.460Z</time>
</trkpt>
<trkpt lat="53.3216386" lon="13.2371592">
<ele>84.282</ele>
<time>2013-08-11T16:24:06.423Z</time>
</trkpt>
<trkpt lat="53.3217545" lon="13.2371595">
<ele>84.096</ele>
<time>2013-08-11T16:24:09.064Z</time>
</trkpt>
<trkpt lat="53.3218799" lon="13.2371893">
<ele>83.567</ele>
<time>2013-08-11T16:24:11.818Z</time>
</trkpt>
<trkpt lat="53.3219710" lon="13.2372218">
<ele>83.110</ele>
<time>2013-08-11T16:24:13.754Z</time>
</trkpt>
<trkpt lat="53.3220942" lon="13.2372732">
<ele>82.998</ele>
<time>2013-08-11T16:24:16.283Z</time>
</trkpt>
<trkpt lat="53.3222116" lon="13.2373305">
<ele>82.874</ele>
<time>2013-08-11T16:24:18.675Z</time>
</trkpt>
<trkpt lat="53.3223114" lon="13.2373821">
<ele>82.258</ele>
<time>2013-08-11T16:24:20.702Z</time>
</trkpt>
<trkpt lat="53.3224114" lon="13.2374202">
<ele>81.320</ele>
<time>2013-08-11T16:24:22.691Z</time>
</trkpt>
<trkpt lat="53.3224853" lon="13.2375095">
<ele>80.632</ele>
<time>2013-08-11T16:24:24.460Z</time>
</trkpt>
<trkpt lat="53.3226027" lon="13.2375558">
<ele>80.417</ele>
<time>2013-08-11T16:24:26.806Z</time>
</trkpt>
<trkpt lat="53.3227074" lon="13.2375917">
<ele>80.518</ele>
<time>2013-08-11T16:24:28.879Z</time>
</trkpt>
<trkpt lat="53.3228032" lon="13.2376287">
<ele>80.930</ele>
<time>2013-08-11T16:24:30.784Z</time>
</trkpt>
<trkpt lat="53.3229074" lon="13.2376822">
<ele>81.701</ele>
<time>2013-08-11T16:24:32.898Z</time>
</trkpt>
<trkpt lat="53.3230188" lon="13.2377507">
<ele>82.441</ele>
<time>2013-08-11T16:24:35.205Z</time>
</trkpt>
<trkpt lat="53.3231223" lon="13.2377913">
<ele>82.414</ele>
<time>2013-08-11T16:24:37.300Z</time>
</trkpt>
<trkpt lat="53.3232226" lon="13.2378393">
<ele>81.536</ele>
<time>2013-08-11T16:24:39.402Z</time>
</trkpt>
<trkpt lat="53.3233253" lon="13.2379003">
<ele>80.978</ele>
<time>2013-08-11T16:24:41.642Z</time>
</trkpt>
<trkpt lat="53.3234439" lon="13.2379464">
<ele>82.000</ele>
<time>2013-08-11T16:24:44.229Z</time>
</trkpt>
<trkpt lat="53.3235543" lon="13.2379772">
<ele>84.116</ele>
<time>2013-08-11T16:24:46.665Z</time>
</trkpt>
<trkpt lat="53.3236444" lon="13.2379993">
<ele>85.695</ele>
<time>2013-08-11T16:24:48.670Z</time>
</trkpt>
<trkpt lat="53.3237617" lon="13.2380129">
<ele>86.030</ele>
<time>2013-08-11T16:24:51.288Z</time>
</trkpt>
<trkpt lat="53.3238758" lon="13.2380559">
<ele>85.725</ele>
<time>2013-08-11T16:24:53.958Z</time>
</trkpt>
<trkpt lat="53.3239800" lon="13.2380927">
<ele>85.452</ele>
<time>2013-08-11T16:24:56.406Z</time>
</trkpt>
<trkpt lat="53.3241054" lon="13.2381409">
<ele>85.265</ele>
<time>2013-08-11T16:24:59.395Z</time>
</trkpt>
<trkpt lat="53.3242080" lon="13.2381783">
<ele>84.683</ele>
<time>2013-08-11T16:25:01.824Z</time>
</trkpt>
<trkpt lat="53.3243113" lon="13.2382239">
<ele>83.569</ele>
<time>2013-08-11T16:25:04.279Z</time>
</trkpt>
<trkpt lat="53.3244183" lon="13.2382625">
<ele>82.825</ele>
<time>2013-08-11T16:25:06.797Z</time>
</trkpt>
<trkpt lat="53.3245125" lon="13.2383062">
<ele>83.086</ele>
<time>2013-08-11T16:25:09.064Z</time>
</trkpt>
<trkpt lat="53.3246307" lon="13.2383617">
<ele>83.881</ele>
<time>2013-08-11T16:25:11.952Z</time>
</trkpt>
<trkpt lat="53.3247212" lon="13.2384168">
<ele>84.609</ele>
<time>2013-08-11T16:25:14.238Z</time>
</trkpt>
<trkpt lat="53.3248229" lon="13.2384751">
<ele>85.474</ele>
<time>2013-08-11T16:25:16.850Z</time>
</trkpt>
<trkpt lat="53.3249076" lon="13.2385328">
<ele>86.884</ele>
<time>2013-08-11T16:25:19.083Z</time>
</trkpt>
<trkpt lat="53.3250177" lon="13.2386187">
<ele>88.568</ele>
<time>2013-08-11T16:25:22.080Z</time>
</trkpt>
<trkpt lat="53.3251043" lon="13.2386964">
<ele>89.899</ele>
<time>2013-08-11T16:25:24.548Z</time>
</trkpt>
<trkpt lat="53.3251869" lon="13.2387974">
<ele>90.692</ele>
<time>2013-08-11T16:25:27.213Z</time>
</trkpt>
<trkpt lat="53.3252664" lon="13.2388974">
<ele>91.117</ele>
<time>2013-08-11T16:25:30.059Z</time>
</trkpt>
<trkpt lat="53.3253501" lon="13.2389744">
<ele>91.487</ele>
<time>2013-08-11T16:25:33.024Z</time>
</trkpt>
<trkpt lat="53.3254392" lon="13.2390139">
<ele>92.010</ele>
<time>2013-08-11T16:25:35.995Z</time>
</trkpt>
<trkpt lat="53.3255376" lon="13.2390235">
<ele>92.745</ele>
<time>2013-08-11T16:25:38.820Z</time>
</trkpt>
<trkpt lat="53.3256433" lon="13.2390228">
<ele>93.511</ele>
<time>2013-08-11T16:25:41.526Z</time>
</trkpt>
<trkpt lat="53.3257382" lon="13.2390269">
<ele>93.989</ele>
<time>2013-08-11T16:25:43.684Z</time>
</trkpt>
<trkpt lat="53.3258300" lon="13.2390056">
<ele>93.959</ele>
<time>2013-08-11T16:25:45.613Z</time>
</trkpt>
<trkpt lat="53.3259405" lon="13.2389945">
<ele>93.295</ele>
<time>2013-08-11T16:25:47.771Z</time>
</trkpt>
<trkpt lat="53.3260311" lon="13.2390015">
<ele>92.223</ele>
<time>2013-08-11T16:25:49.379Z</time>
</trkpt>
<trkpt lat="53.3261230" lon="13.2389567">
<ele>91.685</ele>
<time>2013-08-11T16:25:50.926Z</time>
</trkpt>
<trkpt lat="53.3262247" lon="13.2389079">
<ele>92.269</ele>
<time>2013-08-11T16:25:52.542Z</time>
</trkpt>
<trkpt lat="53.3263599" lon="13.2388915">
<ele>93.348</ele>
<time>2013-08-11T16:25:54.568Z</time>
</trkpt>
<trkpt lat="53.3265325" lon="13.2389504">
<ele>94.083</ele>
<time>2013-08-11T16:25:57.097Z</time>
</trkpt>
<trkpt lat="53.3266866" lon="13.2390230">
<ele>94.076</ele>
<time>2013-08-11T16:25:59.358Z</time>
</trkpt>
<trkpt lat="53.3267903" lon="13.2390982">
<ele>93.297</ele>
<time>2013-08-11T16:26:00.945Z</time>
</trkpt>
<trkpt lat="53.3268926" lon="13.2391701">
<ele>92.091</ele>
<time>2013-08-11T16:26:02.504Z</time>
</trkpt>
<trkpt lat="53.3270516" lon="13.2392910">
<ele>90.755</ele>
<time>2013-08-11T16:26:04.959Z</time>
</trkpt>
<trkpt lat="53.3272018" lon="13.2394094">
<ele>89.499</ele>
<time>2013-08-11T16:26:07.289Z</time>
</trkpt>
<trkpt lat="53.3272937" lon="13.2395023">
<ele>88.603</ele>
<time>2013-08-11T16:26:08.788Z</time>
</trkpt>
<trkpt lat="53.3274322" lon="13.2396265">
<ele>88.009</ele>
<time>2013-08-11T16:26:10.976Z</time>
</trkpt>
<trkpt lat="53.3275196" lon="13.2397043">
<ele>87.478</ele>
<time>2013-08-11T16:26:12.348Z</time>
</trkpt>
<trkpt lat="53.3276633" lon="13.2398235">
<ele>87.036</ele>
<time>2013-08-11T16:26:14.527Z</time>
</trkpt>
<trkpt lat="53.3278023" lon="13.2399510">
<ele>86.855</ele>
<time>2013-08-11T16:26:16.638Z</time>
</trkpt>
<trkpt lat="53.3279049" lon="13.2400236">
<ele>87.285</ele>
<time>2013-08-11T16:26:18.119Z</time>
</trkpt>
<trkpt lat="53.3280189" lon="13.2400817">
<ele>88.358</ele>
<time>2013-08-11T16:26:19.699Z</time>
</trkpt>
<trkpt lat="53.3281802" lon="13.2401325">
<ele>89.206</ele>
<time>2013-08-11T16:26:21.892Z</time>
</trkpt>
<trkpt lat="53.3282784" lon="13.2401530">
<ele>88.888</ele>
<time>2013-08-11T16:26:23.221Z</time>
</trkpt>
<trkpt lat="53.3283821" lon="13.2401712">
<ele>87.510</ele>
<time>2013-08-11T16:26:24.621Z</time>
</trkpt>
<trkpt lat="53.3285389" lon="13.2401983">
<ele>85.989</ele>
<time>2013-08-11T16:26:26.745Z</time>
</trkpt>
<trkpt lat="53.3286615" lon="13.2402303">
<ele>85.463</ele>
<time>2013-08-11T16:26:28.425Z</time>
</trkpt>
<trkpt lat="53.3288156" lon="13.2402789">
<ele>86.257</ele>
<time>2013-08-11T16:26:30.568Z</time>
</trkpt>
<trkpt lat="53.3289173" lon="13.2403199">
<ele>87.798</ele>
<time>2013-08-11T16:26:32.036Z</time>
</trkpt>
<trkpt lat="53.3290406" lon="13.2404128">
<ele>89.537</ele>
<time>2013-08-11T16:26:33.971Z</time>
</trkpt>
<trkpt lat="53.3291509" lon="13.2405265">
<ele>91.064</ele>
<time>2013-08-11T16:26:35.926Z</time>
</trkpt>
<trkpt lat="53.3292364" lon="13.2406201">
<ele>91.887</ele>
<time>2013-08-11T16:26:37.493Z</time>
</trkpt>
<trkpt lat="53.3293156" lon="13.2407184">
<ele>91.837</ele>
<time>2013-08-11T16:26:39.049Z</time>
</trkpt>
<trkpt lat="53.3293944" lon="13.2408473">
<ele>90.684</ele>
<time>2013-08-11T16:26:40.809Z</time>
</trkpt>
<trkpt lat="53.3295019" lon="13.2410506">
<ele>88.214</ele>
<time>2013-08-11T16:26:43.435Z</time>
</trkpt>
<trkpt lat="53.3296547" lon="13.2412137">
<ele>85.287</ele>
<time>2013-08-11T16:26:46.411Z</time>
</trkpt>
<trkpt lat="53.3297535" lon="13.2413098">
<ele>83.579</ele>
<time>2013-08-11T16:26:48.249Z</time>
</trkpt>
<trkpt lat="53.3299147" lon="13.2414291">
<ele>83.664</ele>
<time>2013-08-11T16:26:51.001Z</time>
</trkpt>
<trkpt lat="53.3300138" lon="13.2414942">
<ele>84.804</ele>
<time>2013-08-11T16:26:52.612Z</time>
</trkpt>
<trkpt lat="53.3301728" lon="13.2415689">
<ele>86.469</ele>
<time>2013-08-11T16:26:55.098Z</time>
</trkpt>
<trkpt lat="53.3302957" lon="13.2416204">
<ele>88.921</ele>
<time>2013-08-11T16:26:56.999Z</time>
</trkpt>
<trkpt lat="53.3304362" lon="13.2416922">
<ele>91.913</ele>
<time>2013-08-11T16:26:59.215Z</time>
</trkpt>
<trkpt lat="53.3305453" lon="13.2417564">
<ele>95.280</ele>
<time>2013-08-11T16:27:01.023Z</time>
</trkpt>
<trkpt lat="53.3306419" lon="13.2418592">
<ele>98.945</ele>
<time>2013-08-11T16:27:02.841Z</time>
</trkpt>
<trkpt lat="53.3307586" lon="13.2419779">
<ele>101.441</ele>
<time>2013-08-11T16:27:05.089Z</time>
</trkpt>
<trkpt lat="53.3308673" lon="13.2421357">
<ele>101.252</ele>
<time>2013-08-11T16:27:07.561Z</time>
</trkpt>
<trkpt lat="53.3310451" lon="13.2423099">
<ele>97.493</ele>
<time>2013-08-11T16:27:11.338Z</time>
</trkpt>
<trkpt lat="53.3311346" lon="13.2423829">
<ele>96.390</ele>
<time>2013-08-11T16:27:13.292Z</time>
</trkpt>
<trkpt lat="53.3312855" lon="13.2425143">
<ele>95.539</ele>
<time>2013-08-11T16:27:16.656Z</time>
</trkpt>
<trkpt lat="53.3313706" lon="13.2425824">
<ele>95.021</ele>
<time>2013-08-11T16:27:18.517Z</time>
</trkpt>
<trkpt lat="53.3315320" lon="13.2427189">
<ele>95.545</ele>
<time>2013-08-11T16:27:22.061Z</time>
</trkpt>
<trkpt lat="53.3316894" lon="13.2428389">
<ele>97.480</ele>
<time>2013-08-11T16:27:25.354Z</time>
</trkpt>
<trkpt lat="53.3317926" lon="13.2429132">
<ele>100.048</ele>
<time>2013-08-11T16:27:27.440Z</time>
</trkpt>
<trkpt lat="53.3319199" lon="13.2429971">
<ele>101.860</ele>
<time>2013-08-11T16:27:29.911Z</time>
</trkpt>
<trkpt lat="53.3323913" lon="13.2431816">
<ele>102.119</ele>
<time>2013-08-11T16:27:38.250Z</time>
</trkpt>
<trkpt lat="53.3325650" lon="13.2431760">
<ele>101.457</ele>
<time>2013-08-11T16:27:41.166Z</time>
</trkpt>
<trkpt lat="53.3327288" lon="13.2431323">
<ele>100.695</ele>
<time>2013-08-11T16:27:43.914Z</time>
</trkpt>
<trkpt lat="53.3329475" lon="13.2430589">
<ele>99.623</ele>
<time>2013-08-11T16:27:47.580Z</time>
</trkpt>
<trkpt lat="53.3333141" lon="13.2429310">
<ele>97.322</ele>
<time>2013-08-11T16:27:52.703Z</time>
</trkpt>
<trkpt lat="53.3335650" lon="13.2429088">
<ele>95.400</ele>
<time>2013-08-11T16:27:55.932Z</time>
</trkpt>
<trkpt lat="53.3339256" lon="13.2428838">
<ele>87.298</ele>
<time>2013-08-11T16:28:00.642Z</time>
</trkpt>
<trkpt lat="53.3341822" lon="13.2428675">
<ele>84.546</ele>
<time>2013-08-11T16:28:03.880Z</time>
</trkpt>
<trkpt lat="53.3345728" lon="13.2428381">
<ele>80.200</ele>
<time>2013-08-11T16:28:08.490Z</time>
</trkpt>
<trkpt lat="53.3347712" lon="13.2428198">
<ele>77.765</ele>
<time>2013-08-11T16:28:10.753Z</time>
</trkpt>
<trkpt lat="53.3348845" lon="13.2427949">
<ele>73.754</ele>
<time>2013-08-11T16:28:12.046Z</time>
</trkpt>
<trkpt lat="53.3349839" lon="13.2427702">
<ele>69.618</ele>
<time>2013-08-11T16:28:13.175Z</time>
</trkpt>
<trkpt lat="53.3351987" lon="13.2426743">
<ele>67.927</ele>
<time>2013-08-11T16:28:15.676Z</time>
</trkpt>
<trkpt lat="53.3353695" lon="13.2426380">
<ele>69.444</ele>
<time>2013-08-11T16:28:17.824Z</time>
</trkpt>
<trkpt lat="53.3357319" lon="13.2426285">
<ele>72.722</ele>
<time>2013-08-11T16:28:23.843Z</time>
</trkpt>
<trkpt lat="53.3359722" lon="13.2426641">
<ele>77.983</ele>
<time>2013-08-11T16:28:28.299Z</time>
</trkpt>
<trkpt lat="53.3362618" lon="13.2427149">
<ele>85.837</ele>
<time>2013-08-11T16:28:32.812Z</time>
</trkpt>
<trkpt lat="53.3364300" lon="13.2427351">
<ele>93.049</ele>
<time>2013-08-11T16:28:35.634Z</time>
</trkpt>
<trkpt lat="53.3365760" lon="13.2427644">
<ele>96.818</ele>
<time>2013-08-11T16:28:38.208Z</time>
</trkpt>
<trkpt lat="53.3367302" lon="13.2427813">
<ele>98.984</ele>
<time>2013-08-11T16:28:40.564Z</time>
</trkpt>
<trkpt lat="53.3368519" lon="13.2427970">
<ele>101.660</ele>
<time>2013-08-11T16:28:42.262Z</time>
</trkpt>
<trkpt lat="53.3369733" lon="13.2427986">
<ele>104.499</ele>
<time>2013-08-11T16:28:43.962Z</time>
</trkpt>
<trkpt lat="53.3371242" lon="13.2427608">
<ele>106.086</ele>
<time>2013-08-11T16:28:46.685Z</time>
</trkpt>
<trkpt lat="53.3372574" lon="13.2427479">
<ele>106.106</ele>
<time>2013-08-11T16:28:50.290Z</time>
</trkpt>
<trkpt lat="53.3373598" lon="13.2427189">
<ele>104.787</ele>
<time>2013-08-11T16:28:53.233Z</time>
</trkpt>
<trkpt lat="53.3374596" lon="13.2426660">
<ele>102.660</ele>
<time>2013-08-11T16:28:55.849Z</time>
</trkpt>
<trkpt lat="53.3375717" lon="13.2426341">
<ele>99.863</ele>
<time>2013-08-11T16:28:58.601Z</time>
</trkpt>
<trkpt lat="53.3376716" lon="13.2426357">
<ele>95.180</ele>
<time>2013-08-11T16:29:01.781Z</time>
</trkpt>
<trkpt lat="53.3377731" lon="13.2426255">
<ele>88.994</ele>
<time>2013-08-11T16:29:05.277Z</time>
</trkpt>
<trkpt lat="53.3379104" lon="13.2425891">
<ele>84.195</ele>
<time>2013-08-11T16:29:09.522Z</time>
</trkpt>
<trkpt lat="53.3380730" lon="13.2425149">
<ele>81.112</ele>
<time>2013-08-11T16:29:13.949Z</time>
</trkpt>
<trkpt lat="53.3382332" lon="13.2424323">
<ele>77.789</ele>
<time>2013-08-11T16:29:17.530Z</time>
</trkpt>
<trkpt lat="53.3383453" lon="13.2423670">
<ele>73.568</ele>
<time>2013-08-11T16:29:19.616Z</time>
</trkpt>
<trkpt lat="53.3386372" lon="13.2422875">
<ele>69.327</ele>
<time>2013-08-11T16:29:24.409Z</time>
</trkpt>
<trkpt lat="53.3388924" lon="13.2421953">
<ele>70.113</ele>
<time>2013-08-11T16:29:28.320Z</time>
</trkpt>
<trkpt lat="53.3390925" lon="13.2421144">
<ele>79.525</ele>
<time>2013-08-11T16:29:31.150Z</time>
</trkpt>
<trkpt lat="53.3392999" lon="13.2420139">
<ele>91.847</ele>
<time>2013-08-11T16:29:34.232Z</time>
</trkpt>
<trkpt lat="53.3394615" lon="13.2419000">
<ele>99.743</ele>
<time>2013-08-11T16:29:37.064Z</time>
</trkpt>
<trkpt lat="53.3395981" lon="13.2417956">
<ele>102.640</ele>
<time>2013-08-11T16:29:39.751Z</time>
</trkpt>
<trkpt lat="53.3397623" lon="13.2417116">
<ele>102.966</ele>
<time>2013-08-11T16:29:42.878Z</time>
</trkpt>
<trkpt lat="53.3398553" lon="13.2416765">
<ele>101.751</ele>
<time>2013-08-11T16:29:44.641Z</time>
</trkpt>
<trkpt lat="53.3399987" lon="13.2416631">
<ele>99.132</ele>
<time>2013-08-11T16:29:47.528Z</time>
</trkpt>
<trkpt lat="53.3401009" lon="13.2416543">
<ele>96.471</ele>
<time>2013-08-11T16:29:50.388Z</time>
</trkpt>
<trkpt lat="53.3402161" lon="13.2416446">
<ele>94.786</ele>
<time>2013-08-11T16:29:55.126Z</time>
</trkpt>
<trkpt lat="53.3403379" lon="13.2416296">
<ele>93.625</ele>
<time>2013-08-11T16:29:59.043Z</time>
</trkpt>
<trkpt lat="53.3404354" lon="13.2416171">
<ele>92.141</ele>
<time>2013-08-11T16:30:01.375Z</time>
</trkpt>
<trkpt lat="53.3405351" lon="13.2415931">
<ele>90.037</ele>
<time>2013-08-11T16:30:03.959Z</time>
</trkpt>
<trkpt lat="53.3406328" lon="13.2415391">
<ele>87.930</ele>
<time>2013-08-11T16:30:07.198Z</time>
</trkpt>
<trkpt lat="53.3407252" lon="13.2414816">
<ele>86.162</ele>
<time>2013-08-11T16:30:10.688Z</time>
</trkpt>
<trkpt lat="53.3408265" lon="13.2414520">
<ele>83.271</ele>
<time>2013-08-11T16:30:14.027Z</time>
</trkpt>
<trkpt lat="53.3409574" lon="13.2414473">
<ele>78.109</ele>
<time>2013-08-11T16:30:17.307Z</time>
</trkpt>
<trkpt lat="53.3409574" lon="13.2414473">
<ele>72.540</ele>
<time>2013-08-11T16:30:20.311Z</time>
</trkpt>
<trkpt lat="53.3409574" lon="13.2414473">
<ele>69.649</ele>
<time>2013-08-11T16:30:20.411Z</time>
</trkpt>
<trkpt lat="53.3411725" lon="13.2413612">
<ele>69.880</ele>
<time>2013-08-11T16:30:33.606Z</time>
</trkpt>
<trkpt lat="53.3412912" lon="13.2413326">
<ele>69.693</ele>
<time>2013-08-11T16:30:37.141Z</time>
</trkpt>
<trkpt lat="53.3413967" lon="13.2413190">
<ele>66.292</ele>
<time>2013-08-11T16:30:40.639Z</time>
</trkpt>
<trkpt lat="53.3415240" lon="13.2413332">
<ele>61.959</ele>
<time>2013-08-11T16:30:44.891Z</time>
</trkpt>
<trkpt lat="53.3416819" lon="13.2413497">
<ele>59.604</ele>
<time>2013-08-11T16:30:52.639Z</time>
</trkpt>
<trkpt lat="53.3418466" lon="13.2413829">
<ele>58.905</ele>
<time>2013-08-11T16:30:57.375Z</time>
</trkpt>
<trkpt lat="53.3419731" lon="13.2413890">
<ele>58.118</ele>
<time>2013-08-11T16:31:00.275Z</time>
</trkpt>
<trkpt lat="53.3420705" lon="13.2413982">
<ele>56.359</ele>
<time>2013-08-11T16:31:02.392Z</time>
</trkpt>
<trkpt lat="53.3422188" lon="13.2414004">
<ele>55.556</ele>
<time>2013-08-11T16:31:05.279Z</time>
</trkpt>
<trkpt lat="53.3423415" lon="13.2414104">
<ele>58.114</ele>
<time>2013-08-11T16:31:07.506Z</time>
</trkpt>
<trkpt lat="53.3424675" lon="13.2414380">
<ele>62.804</ele>
<time>2013-08-11T16:31:09.630Z</time>
</trkpt>
<trkpt lat="53.3426366" lon="13.2414777">
<ele>66.767</ele>
<time>2013-08-11T16:31:12.447Z</time>
</trkpt>
<trkpt lat="53.3427511" lon="13.2414994">
<ele>69.864</ele>
<time>2013-08-11T16:31:14.377Z</time>
</trkpt>
<trkpt lat="53.3428502" lon="13.2415192">
<ele>73.321</ele>
<time>2013-08-11T16:31:16.159Z</time>
</trkpt>
<trkpt lat="53.3430348" lon="13.2415413">
<ele>76.708</ele>
<time>2013-08-11T16:31:19.804Z</time>
</trkpt>
<trkpt lat="53.3432254" lon="13.2415675">
<ele>79.001</ele>
<time>2013-08-11T16:31:23.710Z</time>
</trkpt>
<trkpt lat="53.3434397" lon="13.2416099">
<ele>80.118</ele>
<time>2013-08-11T16:31:28.197Z</time>
</trkpt>
<trkpt lat="53.3439287" lon="13.2417441">
<ele>82.808</ele>
<time>2013-08-11T16:31:39.392Z</time>
</trkpt>
<trkpt lat="53.3442612" lon="13.2418680">
<ele>89.426</ele>
<time>2013-08-11T16:31:48.650Z</time>
</trkpt>
<trkpt lat="53.3444122" lon="13.2419186">
<ele>96.901</ele>
<time>2013-08-11T16:31:52.153Z</time>
</trkpt>
<trkpt lat="53.3445733" lon="13.2419443">
<ele>101.112</ele>
<time>2013-08-11T16:31:55.864Z</time>
</trkpt>
<trkpt lat="53.3446816" lon="13.2419813">
<ele>102.599</ele>
<time>2013-08-11T16:31:58.367Z</time>
</trkpt>
<trkpt lat="53.3448007" lon="13.2420345">
<ele>103.350</ele>
<time>2013-08-11T16:32:01.092Z</time>
</trkpt>
<trkpt lat="53.3449119" lon="13.2420784">
<ele>103.888</ele>
<time>2013-08-11T16:32:03.615Z</time>
</trkpt>
<trkpt lat="53.3450721" lon="13.2421188">
<ele>103.860</ele>
<time>2013-08-11T16:32:07.392Z</time>
</trkpt>
<trkpt lat="53.3451708" lon="13.2421334">
<ele>103.412</ele>
<time>2013-08-11T16:32:09.873Z</time>
</trkpt>
<trkpt lat="53.3453348" lon="13.2421601">
<ele>103.040</ele>
<time>2013-08-11T16:32:14.002Z</time>
</trkpt>
<trkpt lat="53.3454300" lon="13.2421727">
<ele>103.121</ele>
<time>2013-08-11T16:32:16.453Z</time>
</trkpt>
<trkpt lat="53.3455359" lon="13.2421912">
<ele>103.545</ele>
<time>2013-08-11T16:32:18.880Z</time>
</trkpt>
<trkpt lat="53.3456457" lon="13.2421931">
<ele>104.531</ele>
<time>2013-08-11T16:32:21.029Z</time>
</trkpt>
<trkpt lat="53.3457972" lon="13.2422209">
<ele>106.630</ele>
<time>2013-08-11T16:32:23.787Z</time>
</trkpt>
<trkpt lat="53.3459331" lon="13.2422480">
<ele>109.241</ele>
<time>2013-08-11T16:32:26.084Z</time>
</trkpt>
<trkpt lat="53.3460999" lon="13.2422648">
<ele>110.443</ele>
<time>2013-08-11T16:32:28.805Z</time>
</trkpt>
<trkpt lat="53.3462345" lon="13.2422795">
<ele>109.564</ele>
<time>2013-08-11T16:32:30.962Z</time>
</trkpt>
<trkpt lat="53.3463732" lon="13.2423129">
<ele>107.965</ele>
<time>2013-08-11T16:32:33.189Z</time>
</trkpt>
<trkpt lat="53.3465132" lon="13.2423507">
<ele>106.740</ele>
<time>2013-08-11T16:32:35.486Z</time>
</trkpt>
<trkpt lat="53.3466600" lon="13.2423956">
<ele>104.737</ele>
<time>2013-08-11T16:32:37.908Z</time>
</trkpt>
<trkpt lat="53.3467521" lon="13.2424277">
<ele>100.944</ele>
<time>2013-08-11T16:32:39.434Z</time>
</trkpt>
<trkpt lat="53.3468914" lon="13.2424854">
<ele>96.682</ele>
<time>2013-08-11T16:32:41.752Z</time>
</trkpt>
<trkpt lat="53.3470038" lon="13.2425202">
<ele>93.833</ele>
<time>2013-08-11T16:32:43.668Z</time>
</trkpt>
<trkpt lat="53.3471322" lon="13.2425623">
<ele>92.656</ele>
<time>2013-08-11T16:32:45.890Z</time>
</trkpt>
<trkpt lat="53.3472564" lon="13.2425883">
<ele>91.913</ele>
<time>2013-08-11T16:32:47.968Z</time>
</trkpt>
<trkpt lat="53.3473744" lon="13.2426125">
<ele>89.880</ele>
<time>2013-08-11T16:32:49.874Z</time>
</trkpt>
<trkpt lat="53.3475090" lon="13.2426456">
<ele>86.108</ele>
<time>2013-08-11T16:32:51.988Z</time>
</trkpt>
<trkpt lat="53.3476839" lon="13.2426763">
<ele>81.919</ele>
<time>2013-08-11T16:32:54.664Z</time>
</trkpt>
<trkpt lat="53.3478126" lon="13.2426794">
<ele>78.976</ele>
<time>2013-08-11T16:32:56.588Z</time>
</trkpt>
<trkpt lat="53.3480275" lon="13.2426673">
<ele>77.778</ele>
<time>2013-08-11T16:32:59.829Z</time>
</trkpt>
<trkpt lat="53.3482119" lon="13.2426384">
<ele>77.591</ele>
<time>2013-08-11T16:33:02.741Z</time>
</trkpt>
<trkpt lat="53.3483909" lon="13.2425929">
<ele>77.696</ele>
<time>2013-08-11T16:33:05.677Z</time>
</trkpt>
<trkpt lat="53.3486055" lon="13.2425496">
<ele>78.134</ele>
<time>2013-08-11T16:33:09.331Z</time>
</trkpt>
<trkpt lat="53.3487982" lon="13.2425138">
<ele>79.709</ele>
<time>2013-08-11T16:33:12.720Z</time>
</trkpt>
<trkpt lat="53.3489556" lon="13.2424704">
<ele>82.411</ele>
<time>2013-08-11T16:33:15.541Z</time>
</trkpt>
<trkpt lat="53.3491421" lon="13.2424376">
<ele>84.866</ele>
<time>2013-08-11T16:33:18.885Z</time>
</trkpt>
<trkpt lat="53.3492671" lon="13.2424054">
<ele>86.136</ele>
<time>2013-08-11T16:33:21.089Z</time>
</trkpt>
<trkpt lat="53.3493782" lon="13.2424174">
<ele>86.490</ele>
<time>2013-08-11T16:33:22.972Z</time>
</trkpt>
<trkpt lat="53.3494780" lon="13.2423944">
<ele>85.606</ele>
<time>2013-08-11T16:33:24.629Z</time>
</trkpt>
<trkpt lat="53.3496587" lon="13.2423388">
<ele>83.393</ele>
<time>2013-08-11T16:33:27.670Z</time>
</trkpt>
<trkpt lat="53.3497765" lon="13.2423110">
<ele>81.676</ele>
<time>2013-08-11T16:33:29.682Z</time>
</trkpt>
<trkpt lat="53.3498978" lon="13.2422928">
<ele>82.033</ele>
<time>2013-08-11T16:33:31.800Z</time>
</trkpt>
<trkpt lat="53.3500050" lon="13.2422735">
<ele>83.631</ele>
<time>2013-08-11T16:33:33.685Z</time>
</trkpt>
<trkpt lat="53.3501614" lon="13.2422392">
<ele>85.095</ele>
<time>2013-08-11T16:33:36.456Z</time>
</trkpt>
<trkpt lat="53.3502753" lon="13.2422035">
<ele>85.880</ele>
<time>2013-08-11T16:33:38.493Z</time>
</trkpt>
<trkpt lat="53.3503786" lon="13.2421743">
<ele>86.272</ele>
<time>2013-08-11T16:33:40.318Z</time>
</trkpt>
<trkpt lat="53.3505233" lon="13.2421208">
<ele>86.724</ele>
<time>2013-08-11T16:33:42.811Z</time>
</trkpt>
<trkpt lat="53.3506242" lon="13.2420801">
<ele>86.465</ele>
<time>2013-08-11T16:33:44.517Z</time>
</trkpt>
<trkpt lat="53.3507604" lon="13.2420284">
<ele>84.758</ele>
<time>2013-08-11T16:33:46.775Z</time>
</trkpt>
<trkpt lat="53.3509026" lon="13.2419738">
<ele>82.671</ele>
<time>2013-08-11T16:33:49.041Z</time>
</trkpt>
<trkpt lat="53.3509969" lon="13.2419502">
<ele>81.604</ele>
<time>2013-08-11T16:33:50.369Z</time>
</trkpt>
<trkpt lat="53.3511819" lon="13.2419085">
<ele>81.734</ele>
<time>2013-08-11T16:33:52.835Z</time>
</trkpt>
<trkpt lat="53.3513421" lon="13.2418869">
<ele>82.714</ele>
<time>2013-08-11T16:33:54.753Z</time>
</trkpt>
<trkpt lat="53.3515006" lon="13.2418656">
<ele>84.264</ele>
<time>2013-08-11T16:33:56.595Z</time>
</trkpt>
<trkpt lat="53.3516014" lon="13.2418276">
<ele>85.924</ele>
<time>2013-08-11T16:33:57.776Z</time>
</trkpt>
<trkpt lat="53.3516918" lon="13.2417857">
<ele>86.875</ele>
<time>2013-08-11T16:33:58.835Z</time>
</trkpt>
<trkpt lat="53.3517898" lon="13.2417612">
<ele>86.615</ele>
<time>2013-08-11T16:33:59.938Z</time>
</trkpt>
<trkpt lat="53.3519392" lon="13.2417228">
<ele>85.577</ele>
<time>2013-08-11T16:34:01.588Z</time>
</trkpt>
<trkpt lat="53.3520452" lon="13.2416988">
<ele>84.915</ele>
<time>2013-08-11T16:34:02.750Z</time>
</trkpt>
<trkpt lat="53.3521589" lon="13.2416722">
<ele>85.341</ele>
<time>2013-08-11T16:34:04.015Z</time>
</trkpt>
<trkpt lat="53.3523178" lon="13.2416187">
<ele>86.351</ele>
<time>2013-08-11T16:34:05.877Z</time>
</trkpt>
<trkpt lat="53.3524440" lon="13.2415638">
<ele>86.923</ele>
<time>2013-08-11T16:34:07.520Z</time>
</trkpt>
<trkpt lat="53.3525778" lon="13.2415150">
<ele>86.366</ele>
<time>2013-08-11T16:34:09.574Z</time>
</trkpt>
<trkpt lat="53.3527828" lon="13.2414602">
<ele>84.946</ele>
<time>2013-08-11T16:34:13.346Z</time>
</trkpt>
<trkpt lat="53.3530058" lon="13.2414049">
<ele>83.688</ele>
<time>2013-08-11T16:34:19.521Z</time>
</trkpt>
<trkpt lat="53.3532300" lon="13.2413614">
<ele>82.841</ele>
<time>2013-08-11T16:34:29.750Z</time>
</trkpt>
<trkpt lat="53.3533744" lon="13.2413214">
<ele>81.980</ele>
<time>2013-08-11T16:34:35.092Z</time>
</trkpt>
<trkpt lat="53.3535953" lon="13.2412579">
<ele>80.760</ele>
<time>2013-08-11T16:34:41.783Z</time>
</trkpt>
<trkpt lat="53.3537370" lon="13.2412239">
<ele>78.899</ele>
<time>2013-08-11T16:34:45.481Z</time>
</trkpt>
<trkpt lat="53.3538798" lon="13.2411794">
<ele>76.622</ele>
<time>2013-08-11T16:34:48.588Z</time>
</trkpt>
<trkpt lat="53.3540132" lon="13.2411445">
<ele>74.602</ele>
<time>2013-08-11T16:34:51.312Z</time>
</trkpt>
<trkpt lat="53.3541406" lon="13.2411170">
<ele>73.243</ele>
<time>2013-08-11T16:34:53.848Z</time>
</trkpt>
<trkpt lat="53.3542303" lon="13.2410865">
<ele>72.560</ele>
<time>2013-08-11T16:34:55.650Z</time>
</trkpt>
<trkpt lat="53.3543239" lon="13.2410512">
<ele>72.625</ele>
<time>2013-08-11T16:34:57.564Z</time>
</trkpt>
<trkpt lat="53.3544155" lon="13.2410366">
<ele>73.418</ele>
<time>2013-08-11T16:34:59.460Z</time>
</trkpt>
<trkpt lat="53.3545189" lon="13.2410419">
<ele>74.371</ele>
<time>2013-08-11T16:35:01.666Z</time>
</trkpt>
<trkpt lat="53.3545989" lon="13.2411296">
<ele>75.036</ele>
<time>2013-08-11T16:35:03.857Z</time>
</trkpt>
<trkpt lat="53.3546582" lon="13.2412852">
<ele>75.561</ele>
<time>2013-08-11T16:35:06.437Z</time>
</trkpt>
<trkpt lat="53.3545619" lon="13.2411595">
<ele>76.131</ele>
<time>2013-08-11T16:35:09.247Z</time>
</trkpt>
<trkpt lat="53.3544924" lon="13.2409819">
<ele>76.806</ele>
<time>2013-08-11T16:35:12.137Z</time>
</trkpt>
<trkpt lat="53.3544127" lon="13.2408091">
<ele>77.472</ele>
<time>2013-08-11T16:35:15.121Z</time>
</trkpt>
<trkpt lat="53.3543578" lon="13.2406688">
<ele>77.900</ele>
<time>2013-08-11T16:35:17.419Z</time>
</trkpt>
<trkpt lat="53.3542929" lon="13.2404987">
<ele>77.957</ele>
<time>2013-08-11T16:35:20.099Z</time>
</trkpt>
<trkpt lat="53.3542392" lon="13.2403001">
<ele>77.467</ele>
<time>2013-08-11T16:35:22.909Z</time>
</trkpt>
<trkpt lat="53.3541949" lon="13.2401339">
<ele>76.490</ele>
<time>2013-08-11T16:35:25.228Z</time>
</trkpt>
<trkpt lat="53.3541568" lon="13.2399637">
<ele>76.160</ele>
<time>2013-08-11T16:35:27.628Z</time>
</trkpt>
<trkpt lat="53.3541297" lon="13.2397824">
<ele>77.385</ele>
<time>2013-08-11T16:35:30.183Z</time>
</trkpt>
<trkpt lat="53.3540906" lon="13.2396136">
<ele>79.216</ele>
<time>2013-08-11T16:35:32.704Z</time>
</trkpt>
<trkpt lat="53.3540592" lon="13.2394265">
<ele>79.951</ele>
<time>2013-08-11T16:35:35.516Z</time>
</trkpt>
<trkpt lat="53.3540265" lon="13.2392064">
<ele>79.200</ele>
<time>2013-08-11T16:35:39.087Z</time>
</trkpt>
<trkpt lat="53.3539930" lon="13.2390650">
<ele>77.766</ele>
<time>2013-08-11T16:35:41.881Z</time>
</trkpt>
<trkpt lat="53.3539598" lon="13.2388914">
<ele>76.701</ele>
<time>2013-08-11T16:35:45.462Z</time>
</trkpt>
<trkpt lat="53.3539090" lon="13.2386724">
<ele>76.201</ele>
<time>2013-08-11T16:35:49.447Z</time>
</trkpt>
<trkpt lat="53.3538804" lon="13.2385135">
<ele>75.894</ele>
<time>2013-08-11T16:35:51.499Z</time>
</trkpt>
<trkpt lat="53.3538413" lon="13.2383068">
<ele>75.584</ele>
<time>2013-08-11T16:35:53.907Z</time>
</trkpt>
<trkpt lat="53.3538193" lon="13.2381158">
<ele>75.237</ele>
<time>2013-08-11T16:35:56.111Z</time>
</trkpt>
<trkpt lat="53.3537953" lon="13.2379425">
<ele>74.751</ele>
<time>2013-08-11T16:35:58.693Z</time>
</trkpt>
<trkpt lat="53.3537557" lon="13.2377899">
<ele>74.637</ele>
<time>2013-08-11T16:36:01.548Z</time>
</trkpt>
<trkpt lat="53.3536809" lon="13.2376676">
<ele>75.186</ele>
<time>2013-08-11T16:36:05.084Z</time>
</trkpt>
<trkpt lat="53.3536774" lon="13.2374286">
<ele>76.057</ele>
<time>2013-08-11T16:36:08.766Z</time>
</trkpt>
<trkpt lat="53.3536501" lon="13.2371944">
<ele>76.709</ele>
<time>2013-08-11T16:36:11.116Z</time>
</trkpt>
<trkpt lat="53.3536189" lon="13.2369930">
<ele>76.998</ele>
<time>2013-08-11T16:36:12.915Z</time>
</trkpt>
<trkpt lat="53.3535673" lon="13.2367950">
<ele>77.017</ele>
<time>2013-08-11T16:36:14.662Z</time>
</trkpt>
<trkpt lat="53.3534697" lon="13.2367793">
<ele>76.318</ele>
<time>2013-08-11T16:36:15.966Z</time>
</trkpt>
<trkpt lat="53.3534692" lon="13.2370055">
<ele>74.704</ele>
<time>2013-08-11T16:36:17.804Z</time>
</trkpt>
<trkpt lat="53.3534860" lon="13.2371925">
<ele>73.490</ele>
<time>2013-08-11T16:36:19.444Z</time>
</trkpt>
<trkpt lat="53.3535356" lon="13.2374910">
<ele>73.711</ele>
<time>2013-08-11T16:36:22.269Z</time>
</trkpt>
<trkpt lat="53.3535979" lon="13.2378022">
<ele>74.734</ele>
<time>2013-08-11T16:36:25.223Z</time>
</trkpt>
<trkpt lat="53.3536361" lon="13.2379999">
<ele>75.191</ele>
<time>2013-08-11T16:36:27.025Z</time>
</trkpt>
<trkpt lat="53.3536653" lon="13.2381548">
<ele>74.576</ele>
<time>2013-08-11T16:36:28.440Z</time>
</trkpt>
<trkpt lat="53.3537086" lon="13.2384631">
<ele>74.040</ele>
<time>2013-08-11T16:36:31.245Z</time>
</trkpt>
<trkpt lat="53.3537229" lon="13.2386199">
<ele>74.585</ele>
<time>2013-08-11T16:36:32.703Z</time>
</trkpt>
<trkpt lat="53.3537520" lon="13.2388048">
<ele>75.305</ele>
<time>2013-08-11T16:36:34.533Z</time>
</trkpt>
<trkpt lat="53.3538083" lon="13.2390811">
<ele>75.174</ele>
<time>2013-08-11T16:36:37.579Z</time>
</trkpt>
<trkpt lat="53.3538448" lon="13.2392622">
<ele>74.517</ele>
<time>2013-08-11T16:36:39.673Z</time>
</trkpt>
<trkpt lat="53.3538753" lon="13.2394238">
<ele>73.975</ele>
<time>2013-08-11T16:36:41.506Z</time>
</trkpt>
<trkpt lat="53.3539237" lon="13.2396251">
<ele>73.743</ele>
<time>2013-08-11T16:36:43.834Z</time>
</trkpt>
<trkpt lat="53.3539716" lon="13.2398145">
<ele>73.752</ele>
<time>2013-08-11T16:36:46.051Z</time>
</trkpt>
<trkpt lat="53.3540291" lon="13.2399827">
<ele>73.783</ele>
<time>2013-08-11T16:36:48.162Z</time>
</trkpt>
<trkpt lat="53.3541034" lon="13.2401745">
<ele>73.151</ele>
<time>2013-08-11T16:36:50.742Z</time>
</trkpt>
<trkpt lat="53.3541695" lon="13.2403965">
<ele>72.142</ele>
<time>2013-08-11T16:36:53.866Z</time>
</trkpt>
<trkpt lat="53.3542160" lon="13.2405270">
<ele>72.355</ele>
<time>2013-08-11T16:36:56.021Z</time>
</trkpt>
<trkpt lat="53.3542801" lon="13.2406717">
<ele>73.951</ele>
<time>2013-08-11T16:36:58.587Z</time>
</trkpt>
<trkpt lat="53.3543325" lon="13.2408268">
<ele>75.205</ele>
<time>2013-08-11T16:37:01.110Z</time>
</trkpt>
<trkpt lat="53.3543803" lon="13.2409909">
<ele>75.306</ele>
<time>2013-08-11T16:37:03.657Z</time>
</trkpt>
<trkpt lat="53.3544613" lon="13.2411416">
<ele>74.815</ele>
<time>2013-08-11T16:37:06.383Z</time>
</trkpt>
<trkpt lat="53.3545271" lon="13.2412718">
<ele>74.924</ele>
<time>2013-08-11T16:37:08.574Z</time>
</trkpt>
<trkpt lat="53.3546221" lon="13.2414520">
<ele>75.969</ele>
<time>2013-08-11T16:37:11.634Z</time>
</trkpt>
<trkpt lat="53.3547038" lon="13.2415667">
<ele>77.017</ele>
<time>2013-08-11T16:37:14.198Z</time>
</trkpt>
<trkpt lat="53.3548149" lon="13.2415849">
<ele>77.339</ele>
<time>2013-08-11T16:37:17.144Z</time>
</trkpt>
<trkpt lat="53.3549147" lon="13.2416246">
<ele>77.181</ele>
<time>2013-08-11T16:37:19.848Z</time>
</trkpt>
<trkpt lat="53.3549995" lon="13.2417471">
<ele>76.948</ele>
<time>2013-08-11T16:37:22.488Z</time>
</trkpt>
<trkpt lat="53.3550839" lon="13.2418962">
<ele>76.892</ele>
<time>2013-08-11T16:37:25.153Z</time>
</trkpt>
<trkpt lat="53.3551597" lon="13.2420091">
<ele>76.961</ele>
<time>2013-08-11T16:37:27.339Z</time>
</trkpt>
<trkpt lat="53.3551597" lon="13.2420091">
<ele>76.999</ele>
<time>2013-08-11T16:37:33.347Z</time>
</trkpt>
<trkpt lat="53.3551597" lon="13.2420091">
<ele>76.961</ele>
<time>2013-08-11T16:37:36.294Z</time>
</trkpt>
<trkpt lat="53.3553617" lon="13.2422767">
<ele>76.908</ele>
<time>2013-08-11T16:37:46.104Z</time>
</trkpt>
<trkpt lat="53.3554766" lon="13.2423766">
<ele>76.889</ele>
<time>2013-08-11T16:37:48.569Z</time>
</trkpt>
<trkpt lat="53.3555638" lon="13.2424459">
<ele>76.709</ele>
<time>2013-08-11T16:37:50.264Z</time>
</trkpt>
<trkpt lat="53.3556725" lon="13.2425267">
<ele>75.961</ele>
<time>2013-08-11T16:37:52.276Z</time>
</trkpt>
<trkpt lat="53.3558250" lon="13.2426503">
<ele>74.756</ele>
<time>2013-08-11T16:37:55.158Z</time>
</trkpt>
<trkpt lat="53.3559776" lon="13.2427825">
<ele>73.793</ele>
<time>2013-08-11T16:37:58.206Z</time>
</trkpt>
<trkpt lat="53.3560687" lon="13.2428718">
<ele>73.419</ele>
<time>2013-08-11T16:38:00.155Z</time>
</trkpt>
<trkpt lat="53.3561712" lon="13.2429549">
<ele>73.464</ele>
<time>2013-08-11T16:38:02.259Z</time>
</trkpt>
<trkpt lat="53.3562532" lon="13.2430234">
<ele>73.697</ele>
<time>2013-08-11T16:38:04.048Z</time>
</trkpt>
<trkpt lat="53.3563783" lon="13.2431377">
<ele>73.908</ele>
<time>2013-08-11T16:38:06.994Z</time>
</trkpt>
<trkpt lat="53.3564864" lon="13.2432414">
<ele>73.814</ele>
<time>2013-08-11T16:38:09.840Z</time>
</trkpt>
<trkpt lat="53.3565845" lon="13.2433643">
<ele>73.337</ele>
<time>2013-08-11T16:38:12.849Z</time>
</trkpt>
<trkpt lat="53.3566697" lon="13.2434292">
<ele>73.004</ele>
<time>2013-08-11T16:38:15.123Z</time>
</trkpt>
<trkpt lat="53.3567798" lon="13.2434735">
<ele>73.306</ele>
<time>2013-08-11T16:38:17.714Z</time>
</trkpt>
<trkpt lat="53.3569067" lon="13.2435902">
<ele>73.947</ele>
<time>2013-08-11T16:38:20.756Z</time>
</trkpt>
<trkpt lat="53.3570351" lon="13.2437106">
<ele>74.341</ele>
<time>2013-08-11T16:38:23.671Z</time>
</trkpt>
<trkpt lat="53.3571257" lon="13.2437830">
<ele>74.318</ele>
<time>2013-08-11T16:38:25.669Z</time>
</trkpt>
<trkpt lat="53.3572385" lon="13.2438877">
<ele>74.249</ele>
<time>2013-08-11T16:38:28.359Z</time>
</trkpt>
<trkpt lat="53.3573539" lon="13.2439812">
<ele>74.454</ele>
<time>2013-08-11T16:38:31.299Z</time>
</trkpt>
<trkpt lat="53.3574752" lon="13.2440789">
<ele>74.583</ele>
<time>2013-08-11T16:38:34.713Z</time>
</trkpt>
<trkpt lat="53.3575588" lon="13.2441536">
<ele>74.182</ele>
<time>2013-08-11T16:38:37.236Z</time>
</trkpt>
<trkpt lat="53.3576670" lon="13.2442374">
<ele>73.467</ele>
<time>2013-08-11T16:38:40.306Z</time>
</trkpt>
<trkpt lat="53.3577699" lon="13.2443350">
<ele>72.959</ele>
<time>2013-08-11T16:38:43.053Z</time>
</trkpt>
<trkpt lat="53.3578845" lon="13.2444466">
<ele>72.877</ele>
<time>2013-08-11T16:38:45.872Z</time>
</trkpt>
<trkpt lat="53.3580186" lon="13.2445566">
<ele>73.151</ele>
<time>2013-08-11T16:38:48.928Z</time>
</trkpt>
<trkpt lat="53.3581467" lon="13.2446683">
<ele>73.748</ele>
<time>2013-08-11T16:38:51.899Z</time>
</trkpt>
<trkpt lat="53.3582753" lon="13.2447730">
<ele>74.541</ele>
<time>2013-08-11T16:38:54.758Z</time>
</trkpt>
<trkpt lat="53.3583653" lon="13.2448501">
<ele>74.959</ele>
<time>2013-08-11T16:38:56.686Z</time>
</trkpt>
<trkpt lat="53.3584634" lon="13.2449323">
<ele>74.672</ele>
<time>2013-08-11T16:38:58.743Z</time>
</trkpt>
<trkpt lat="53.3585946" lon="13.2450520">
<ele>73.991</ele>
<time>2013-08-11T16:39:01.532Z</time>
</trkpt>
<trkpt lat="53.3587497" lon="13.2451916">
<ele>73.637</ele>
<time>2013-08-11T16:39:04.822Z</time>
</trkpt>
<trkpt lat="53.3589030" lon="13.2453229">
<ele>74.258</ele>
<time>2013-08-11T16:39:07.969Z</time>
</trkpt>
<trkpt lat="53.3590402" lon="13.2454586">
<ele>75.924</ele>
<time>2013-08-11T16:39:10.862Z</time>
</trkpt>
<trkpt lat="53.3591647" lon="13.2455826">
<ele>77.904</ele>
<time>2013-08-11T16:39:13.542Z</time>
</trkpt>
<trkpt lat="53.3592901" lon="13.2457061">
<ele>78.906</ele>
<time>2013-08-11T16:39:16.322Z</time>
</trkpt>
<trkpt lat="53.3594332" lon="13.2458479">
<ele>78.372</ele>
<time>2013-08-11T16:39:19.504Z</time>
</trkpt>
<trkpt lat="53.3595812" lon="13.2459708">
<ele>77.320</ele>
<time>2013-08-11T16:39:22.684Z</time>
</trkpt>
<trkpt lat="53.3597107" lon="13.2460960">
<ele>76.729</ele>
<time>2013-08-11T16:39:25.643Z</time>
</trkpt>
<trkpt lat="53.3598207" lon="13.2462216">
<ele>76.502</ele>
<time>2013-08-11T16:39:28.340Z</time>
</trkpt>
<trkpt lat="53.3599420" lon="13.2463354">
<ele>75.888</ele>
<time>2013-08-11T16:39:31.317Z</time>
</trkpt>
<trkpt lat="53.3599420" lon="13.2463354">
<ele>74.616</ele>
<time>2013-08-11T16:39:43.307Z</time>
</trkpt>
<trkpt lat="53.3599420" lon="13.2463354">
<ele>73.626</ele>
<time>2013-08-11T16:40:19.238Z</time>
</trkpt>
<trkpt lat="53.3598280" lon="13.2461267">
<ele>73.621</ele>
<time>2013-08-11T16:40:29.210Z</time>
</trkpt>
<trkpt lat="53.3597154" lon="13.2460151">
<ele>73.558</ele>
<time>2013-08-11T16:40:32.989Z</time>
</trkpt>
<trkpt lat="53.3596367" lon="13.2459358">
<ele>72.078</ele>
<time>2013-08-11T16:40:35.456Z</time>
</trkpt>
<trkpt lat="53.3595261" lon="13.2458285">
<ele>69.492</ele>
<time>2013-08-11T16:40:39.127Z</time>
</trkpt>
<trkpt lat="53.3594451" lon="13.2457580">
<ele>67.141</ele>
<time>2013-08-11T16:40:41.967Z</time>
</trkpt>
<trkpt lat="53.3593565" lon="13.2456742">
<ele>65.789</ele>
<time>2013-08-11T16:40:45.044Z</time>
</trkpt>
<trkpt lat="53.3592518" lon="13.2455668">
<ele>65.391</ele>
<time>2013-08-11T16:40:48.819Z</time>
</trkpt>
<trkpt lat="53.3591703" lon="13.2454909">
<ele>65.503</ele>
<time>2013-08-11T16:40:51.869Z</time>
</trkpt>
<trkpt lat="53.3590756" lon="13.2453845">
<ele>66.403</ele>
<time>2013-08-11T16:40:55.212Z</time>
</trkpt>
<trkpt lat="53.3589937" lon="13.2453157">
<ele>68.651</ele>
<time>2013-08-11T16:40:57.493Z</time>
</trkpt>
<trkpt lat="53.3588940" lon="13.2452348">
<ele>72.025</ele>
<time>2013-08-11T16:41:00.092Z</time>
</trkpt>
<trkpt lat="53.3587782" lon="13.2451374">
<ele>75.478</ele>
<time>2013-08-11T16:41:03.228Z</time>
</trkpt>
<trkpt lat="53.3586590" lon="13.2450316">
<ele>77.585</ele>
<time>2013-08-11T16:41:06.660Z</time>
</trkpt>
<trkpt lat="53.3585535" lon="13.2449455">
<ele>77.631</ele>
<time>2013-08-11T16:41:09.734Z</time>
</trkpt>
<trkpt lat="53.3584337" lon="13.2448922">
<ele>76.034</ele>
<time>2013-08-11T16:41:12.944Z</time>
</trkpt>
<trkpt lat="53.3583255" lon="13.2448315">
<ele>73.721</ele>
<time>2013-08-11T16:41:15.672Z</time>
</trkpt>
<trkpt lat="53.3582125" lon="13.2447312">
<ele>71.941</ele>
<time>2013-08-11T16:41:18.484Z</time>
</trkpt>
<trkpt lat="53.3581021" lon="13.2446195">
<ele>71.476</ele>
<time>2013-08-11T16:41:21.252Z</time>
</trkpt>
<trkpt lat="53.3580173" lon="13.2445273">
<ele>71.772</ele>
<time>2013-08-11T16:41:23.476Z</time>
</trkpt>
<trkpt lat="53.3579132" lon="13.2444083">
<ele>72.185</ele>
<time>2013-08-11T16:41:26.272Z</time>
</trkpt>
<trkpt lat="53.3578237" lon="13.2443270">
<ele>72.565</ele>
<time>2013-08-11T16:41:28.569Z</time>
</trkpt>
<trkpt lat="53.3577142" lon="13.2442189">
<ele>72.898</ele>
<time>2013-08-11T16:41:31.449Z</time>
</trkpt>
<trkpt lat="53.3576198" lon="13.2441382">
<ele>73.219</ele>
<time>2013-08-11T16:41:33.817Z</time>
</trkpt>
<trkpt lat="53.3574731" lon="13.2440292">
<ele>73.590</ele>
<time>2013-08-11T16:41:37.367Z</time>
</trkpt>
<trkpt lat="53.3573534" lon="13.2439173">
<ele>73.126</ele>
<time>2013-08-11T16:41:40.344Z</time>
</trkpt>
<trkpt lat="53.3572613" lon="13.2438433">
<ele>71.431</ele>
<time>2013-08-11T16:41:42.573Z</time>
</trkpt>
<trkpt lat="53.3571300" lon="13.2437247">
<ele>70.242</ele>
<time>2013-08-11T16:41:45.902Z</time>
</trkpt>
<trkpt lat="53.3570249" lon="13.2436342">
<ele>70.996</ele>
<time>2013-08-11T16:41:48.654Z</time>
</trkpt>
<trkpt lat="53.3569068" lon="13.2435513">
<ele>72.695</ele>
<time>2013-08-11T16:41:51.730Z</time>
</trkpt>
<trkpt lat="53.3568102" lon="13.2434865">
<ele>74.050</ele>
<time>2013-08-11T16:41:54.304Z</time>
</trkpt>
<trkpt lat="53.3566934" lon="13.2434494">
<ele>74.668</ele>
<time>2013-08-11T16:41:57.251Z</time>
</trkpt>
<trkpt lat="53.3565920" lon="13.2433704">
<ele>74.611</ele>
<time>2013-08-11T16:41:59.931Z</time>
</trkpt>
<trkpt lat="53.3564931" lon="13.2432220">
<ele>74.310</ele>
<time>2013-08-11T16:42:02.974Z</time>
</trkpt>
<trkpt lat="53.3563724" lon="13.2431206">
<ele>74.221</ele>
<time>2013-08-11T16:42:05.902Z</time>
</trkpt>
<trkpt lat="53.3562795" lon="13.2430397">
<ele>74.481</ele>
<time>2013-08-11T16:42:08.119Z</time>
</trkpt>
<trkpt lat="53.3561419" lon="13.2429096">
<ele>74.797</ele>
<time>2013-08-11T16:42:11.421Z</time>
</trkpt>
<trkpt lat="53.3560489" lon="13.2428313">
<ele>74.898</ele>
<time>2013-08-11T16:42:13.587Z</time>
</trkpt>
<trkpt lat="53.3559658" lon="13.2427679">
<ele>74.870</ele>
<time>2013-08-11T16:42:15.478Z</time>
</trkpt>
<trkpt lat="53.3558297" lon="13.2426654">
<ele>74.994</ele>
<time>2013-08-11T16:42:18.607Z</time>
</trkpt>
<trkpt lat="53.3557411" lon="13.2425994">
<ele>75.370</ele>
<time>2013-08-11T16:42:20.715Z</time>
</trkpt>
<trkpt lat="53.3556231" lon="13.2425098">
<ele>75.747</ele>
<time>2013-08-11T16:42:23.681Z</time>
</trkpt>
<trkpt lat="53.3555239" lon="13.2424354">
<ele>75.889</ele>
<time>2013-08-11T16:42:26.410Z</time>
</trkpt>
<trkpt lat="53.3554435" lon="13.2423564">
<ele>75.744</ele>
<time>2013-08-11T16:42:28.838Z</time>
</trkpt>
<trkpt lat="53.3553489" lon="13.2422420">
<ele>75.387</ele>
<time>2013-08-11T16:42:32.015Z</time>
</trkpt>
<trkpt lat="53.3552574" lon="13.2421297">
<ele>75.571</ele>
<time>2013-08-11T16:42:35.082Z</time>
</trkpt>
<trkpt lat="53.3551862" lon="13.2420196">
<ele>76.762</ele>
<time>2013-08-11T16:42:37.655Z</time>
</trkpt>
<trkpt lat="53.3550872" lon="13.2418841">
<ele>78.119</ele>
<time>2013-08-11T16:42:40.950Z</time>
</trkpt>
<trkpt lat="53.3550060" lon="13.2417499">
<ele>78.807</ele>
<time>2013-08-11T16:42:43.844Z</time>
</trkpt>
<trkpt lat="53.3549180" lon="13.2415910">
<ele>78.953</ele>
<time>2013-08-11T16:42:47.180Z</time>
</trkpt>
<trkpt lat="53.3548349" lon="13.2414489">
<ele>78.787</ele>
<time>2013-08-11T16:42:50.368Z</time>
</trkpt>
<trkpt lat="53.3547420" lon="13.2413268">
<ele>78.368</ele>
<time>2013-08-11T16:42:53.888Z</time>
</trkpt>
<trkpt lat="53.3546595" lon="13.2412098">
<ele>77.849</ele>
<time>2013-08-11T16:42:57.390Z</time>
</trkpt>
<trkpt lat="53.3545876" lon="13.2410984">
<ele>77.490</ele>
<time>2013-08-11T16:43:00.626Z</time>
</trkpt>
<trkpt lat="53.3545226" lon="13.2409937">
<ele>77.238</ele>
<time>2013-08-11T16:43:03.568Z</time>
</trkpt>
<trkpt lat="53.3544434" lon="13.2408391">
<ele>76.787</ele>
<time>2013-08-11T16:43:07.855Z</time>
</trkpt>
<trkpt lat="53.3543504" lon="13.2408249">
<ele>76.195</ele>
<time>2013-08-11T16:43:11.653Z</time>
</trkpt>
<trkpt lat="53.3543154" lon="13.2409825">
<ele>75.815</ele>
<time>2013-08-11T16:43:15.829Z</time>
</trkpt>
<trkpt lat="53.3543219" lon="13.2411536">
<ele>75.730</ele>
<time>2013-08-11T16:43:20.066Z</time>
</trkpt>
<trkpt lat="53.3542794" lon="13.2413140">
<ele>75.828</ele>
<time>2013-08-11T16:43:24.520Z</time>
</trkpt>
<trkpt lat="53.3542092" lon="13.2414493">
<ele>76.120</ele>
<time>2013-08-11T16:43:29.394Z</time>
</trkpt>
<trkpt lat="53.3541466" lon="13.2415975">
<ele>76.680</ele>
<time>2013-08-11T16:43:34.307Z</time>
</trkpt>
<trkpt lat="53.3541466" lon="13.2415975">
<ele>77.380</ele>
<time>2013-08-11T16:43:47.321Z</time>
</trkpt>
<trkpt lat="53.3541466" lon="13.2415975">
<ele>77.798</ele>
<time>2013-08-11T16:44:26.088Z</time>
</trkpt>
<trkpt lat="53.3542398" lon="13.2414365">
<ele>77.740</ele>
<time>2013-08-11T16:44:38.411Z</time>
</trkpt>
<trkpt lat="53.3542983" lon="13.2412667">
<ele>77.484</ele>
<time>2013-08-11T16:44:43.865Z</time>
</trkpt>
<trkpt lat="53.3542996" lon="13.2411064">
<ele>77.114</ele>
<time>2013-08-11T16:44:48.130Z</time>
</trkpt>
<trkpt lat="53.3542004" lon="13.2410598">
<ele>76.551</ele>
<time>2013-08-11T16:44:52.097Z</time>
</trkpt>
<trkpt lat="53.3540669" lon="13.2410485">
<ele>76.058</ele>
<time>2013-08-11T16:44:56.339Z</time>
</trkpt>
<trkpt lat="53.3539499" lon="13.2410780">
<ele>75.934</ele>
<time>2013-08-11T16:44:59.486Z</time>
</trkpt>
<trkpt lat="53.3538244" lon="13.2411177">
<ele>76.195</ele>
<time>2013-08-11T16:45:02.588Z</time>
</trkpt>
<trkpt lat="53.3537344" lon="13.2411467">
<ele>76.667</ele>
<time>2013-08-11T16:45:04.664Z</time>
</trkpt>
<trkpt lat="53.3535955" lon="13.2411884">
<ele>77.158</ele>
<time>2013-08-11T16:45:07.638Z</time>
</trkpt>
<trkpt lat="53.3534496" lon="13.2412309">
<ele>77.737</ele>
<time>2013-08-11T16:45:10.640Z</time>
</trkpt>
<trkpt lat="53.3533056" lon="13.2412755">
<ele>78.506</ele>
<time>2013-08-11T16:45:13.606Z</time>
</trkpt>
<trkpt lat="53.3531598" lon="13.2413130">
<ele>79.330</ele>
<time>2013-08-11T16:45:16.622Z</time>
</trkpt>
<trkpt lat="53.3530285" lon="13.2413538">
<ele>80.110</ele>
<time>2013-08-11T16:45:19.388Z</time>
</trkpt>
<trkpt lat="53.3528956" lon="13.2413917">
<ele>80.851</ele>
<time>2013-08-11T16:45:22.212Z</time>
</trkpt>
<trkpt lat="53.3527739" lon="13.2414331">
<ele>81.372</ele>
<time>2013-08-11T16:45:24.795Z</time>
</trkpt>
<trkpt lat="53.3526448" lon="13.2414630">
<ele>81.485</ele>
<time>2013-08-11T16:45:27.507Z</time>
</trkpt>
<trkpt lat="53.3525120" lon="13.2414911">
<ele>81.346</ele>
<time>2013-08-11T16:45:30.315Z</time>
</trkpt>
<trkpt lat="53.3523867" lon="13.2415238">
<ele>81.264</ele>
<time>2013-08-11T16:45:33.005Z</time>
</trkpt>
<trkpt lat="53.3522975" lon="13.2415508">
<ele>81.721</ele>
<time>2013-08-11T16:45:34.938Z</time>
</trkpt>
<trkpt lat="53.3521688" lon="13.2415801">
<ele>82.943</ele>
<time>2013-08-11T16:45:37.728Z</time>
</trkpt>
<trkpt lat="53.3520315" lon="13.2416152">
<ele>84.528</ele>
<time>2013-08-11T16:45:40.747Z</time>
</trkpt>
<trkpt lat="53.3519171" lon="13.2416545">
<ele>85.913</ele>
<time>2013-08-11T16:45:43.301Z</time>
</trkpt>
<trkpt lat="53.3517868" lon="13.2416890">
<ele>86.649</ele>
<time>2013-08-11T16:45:46.163Z</time>
</trkpt>
<trkpt lat="53.3516969" lon="13.2417086">
<ele>86.603</ele>
<time>2013-08-11T16:45:48.114Z</time>
</trkpt>
<trkpt lat="53.3515610" lon="13.2417488">
<ele>86.148</ele>
<time>2013-08-11T16:45:51.053Z</time>
</trkpt>
<trkpt lat="53.3514271" lon="13.2417884">
<ele>85.669</ele>
<time>2013-08-11T16:45:53.919Z</time>
</trkpt>
<trkpt lat="53.3512937" lon="13.2418302">
<ele>85.371</ele>
<time>2013-08-11T16:45:56.736Z</time>
</trkpt>
<trkpt lat="53.3511503" lon="13.2418735">
<ele>85.305</ele>
<time>2013-08-11T16:45:59.718Z</time>
</trkpt>
<trkpt lat="53.3510131" lon="13.2419096">
<ele>85.376</ele>
<time>2013-08-11T16:46:02.546Z</time>
</trkpt>
<trkpt lat="53.3509229" lon="13.2419355">
<ele>85.528</ele>
<time>2013-08-11T16:46:04.417Z</time>
</trkpt>
<trkpt lat="53.3507939" lon="13.2419678">
<ele>85.886</ele>
<time>2013-08-11T16:46:07.118Z</time>
</trkpt>
<trkpt lat="53.3507017" lon="13.2419848">
<ele>86.544</ele>
<time>2013-08-11T16:46:09.046Z</time>
</trkpt>
<trkpt lat="53.3505779" lon="13.2420113">
<ele>87.169</ele>
<time>2013-08-11T16:46:11.630Z</time>
</trkpt>
<trkpt lat="53.3504393" lon="13.2420437">
<ele>87.464</ele>
<time>2013-08-11T16:46:14.507Z</time>
</trkpt>
<trkpt lat="53.3503046" lon="13.2420863">
<ele>87.622</ele>
<time>2013-08-11T16:46:17.321Z</time>
</trkpt>
<trkpt lat="53.3501698" lon="13.2421216">
<ele>87.812</ele>
<time>2013-08-11T16:46:20.109Z</time>
</trkpt>
<trkpt lat="53.3500644" lon="13.2421401">
<ele>87.913</ele>
<time>2013-08-11T16:46:22.233Z</time>
</trkpt>
<trkpt lat="53.3499631" lon="13.2421700">
<ele>87.877</ele>
<time>2013-08-11T16:46:24.263Z</time>
</trkpt>
<trkpt lat="53.3498265" lon="13.2422109">
<ele>87.790</ele>
<time>2013-08-11T16:46:26.986Z</time>
</trkpt>
<trkpt lat="53.3496865" lon="13.2422546">
<ele>87.846</ele>
<time>2013-08-11T16:46:29.773Z</time>
</trkpt>
<trkpt lat="53.3495433" lon="13.2423032">
<ele>87.827</ele>
<time>2013-08-11T16:46:32.634Z</time>
</trkpt>
<trkpt lat="53.3493874" lon="13.2423448">
<ele>87.425</ele>
<time>2013-08-11T16:46:35.751Z</time>
</trkpt>
<trkpt lat="53.3492621" lon="13.2423718">
<ele>86.942</ele>
<time>2013-08-11T16:46:38.319Z</time>
</trkpt>
<trkpt lat="53.3491690" lon="13.2423965">
<ele>87.036</ele>
<time>2013-08-11T16:46:40.304Z</time>
</trkpt>
<trkpt lat="53.3491690" lon="13.2423965">
<ele>87.775</ele>
<time>2013-08-11T16:46:46.311Z</time>
</trkpt>
<trkpt lat="53.3491690" lon="13.2423965">
<ele>88.420</ele>
<time>2013-08-11T16:48:45.059Z</time>
</trkpt>
<trkpt lat="53.3489198" lon="13.2425029">
<ele>88.275</ele>
<time>2013-08-11T16:49:12.199Z</time>
</trkpt>
<trkpt lat="53.3488127" lon="13.2425112">
<ele>87.724</ele>
<time>2013-08-11T16:49:17.236Z</time>
</trkpt>
<trkpt lat="53.3486986" lon="13.2425440">
<ele>87.253</ele>
<time>2013-08-11T16:49:21.911Z</time>
</trkpt>
<trkpt lat="53.3486040" lon="13.2425704">
<ele>86.966</ele>
<time>2013-08-11T16:49:25.304Z</time>
</trkpt>
<trkpt lat="53.3484959" lon="13.2425872">
<ele>86.978</ele>
<time>2013-08-11T16:49:28.563Z</time>
</trkpt>
<trkpt lat="53.3483808" lon="13.2426154">
<ele>87.275</ele>
<time>2013-08-11T16:49:31.705Z</time>
</trkpt>
<trkpt lat="53.3482632" lon="13.2426449">
<ele>87.595</ele>
<time>2013-08-11T16:49:34.784Z</time>
</trkpt>
<trkpt lat="53.3481605" lon="13.2426736">
<ele>87.769</ele>
<time>2013-08-11T16:49:37.457Z</time>
</trkpt>
<trkpt lat="53.3480636" lon="13.2426810">
<ele>87.579</ele>
<time>2013-08-11T16:49:39.947Z</time>
</trkpt>
<trkpt lat="53.3479595" lon="13.2426995">
<ele>86.980</ele>
<time>2013-08-11T16:49:42.689Z</time>
</trkpt>
<trkpt lat="53.3478605" lon="13.2427349">
<ele>86.289</ele>
<time>2013-08-11T16:49:45.399Z</time>
</trkpt>
<trkpt lat="53.3477667" lon="13.2428237">
<ele>86.417</ele>
<time>2013-08-11T16:49:48.282Z</time>
</trkpt>
<trkpt lat="53.3476888" lon="13.2429484">
<ele>87.728</ele>
<time>2013-08-11T16:49:51.149Z</time>
</trkpt>
<trkpt lat="53.3475929" lon="13.2430781">
<ele>89.095</ele>
<time>2013-08-11T16:49:54.458Z</time>
</trkpt>
<trkpt lat="53.3475153" lon="13.2431661">
<ele>89.508</ele>
<time>2013-08-11T16:49:56.999Z</time>
</trkpt>
<trkpt lat="53.3474253" lon="13.2432656">
<ele>89.270</ele>
<time>2013-08-11T16:49:59.876Z</time>
</trkpt>
<trkpt lat="53.3473329" lon="13.2433907">
<ele>89.100</ele>
<time>2013-08-11T16:50:02.891Z</time>
</trkpt>
<trkpt lat="53.3472339" lon="13.2435327">
<ele>89.880</ele>
<time>2013-08-11T16:50:05.946Z</time>
</trkpt>
<trkpt lat="53.3471071" lon="13.2436758">
<ele>91.690</ele>
<time>2013-08-11T16:50:09.170Z</time>
</trkpt>
<trkpt lat="53.3469231" lon="13.2438954">
<ele>92.472</ele>
<time>2013-08-11T16:50:13.736Z</time>
</trkpt>
<trkpt lat="53.3468385" lon="13.2440205">
<ele>90.740</ele>
<time>2013-08-11T16:50:16.186Z</time>
</trkpt>
<trkpt lat="53.3467538" lon="13.2441603">
<ele>88.038</ele>
<time>2013-08-11T16:50:18.878Z</time>
</trkpt>
<trkpt lat="53.3466586" lon="13.2443068">
<ele>86.344</ele>
<time>2013-08-11T16:50:21.850Z</time>
</trkpt>
<trkpt lat="53.3466028" lon="13.2444930">
<ele>85.943</ele>
<time>2013-08-11T16:50:24.796Z</time>
</trkpt>
<trkpt lat="53.3465519" lon="13.2446293">
<ele>86.306</ele>
<time>2013-08-11T16:50:27.150Z</time>
</trkpt>
<trkpt lat="53.3465041" lon="13.2448083">
<ele>86.756</ele>
<time>2013-08-11T16:50:30.043Z</time>
</trkpt>
<trkpt lat="53.3464276" lon="13.2449898">
<ele>86.824</ele>
<time>2013-08-11T16:50:33.110Z</time>
</trkpt>
<trkpt lat="53.3463122" lon="13.2451612">
<ele>86.379</ele>
<time>2013-08-11T16:50:36.414Z</time>
</trkpt>
<trkpt lat="53.3462114" lon="13.2452758">
<ele>85.628</ele>
<time>2013-08-11T16:50:38.856Z</time>
</trkpt>
<trkpt lat="53.3460282" lon="13.2454353">
<ele>84.833</ele>
<time>2013-08-11T16:50:42.848Z</time>
</trkpt>
<trkpt lat="53.3459136" lon="13.2455457">
<ele>83.919</ele>
<time>2013-08-11T16:50:45.301Z</time>
</trkpt>
<trkpt lat="53.3457779" lon="13.2457644">
<ele>82.924</ele>
<time>2013-08-11T16:50:48.654Z</time>
</trkpt>
<trkpt lat="53.3456527" lon="13.2459884">
<ele>82.773</ele>
<time>2013-08-11T16:50:51.736Z</time>
</trkpt>
<trkpt lat="53.3455735" lon="13.2461323">
<ele>83.961</ele>
<time>2013-08-11T16:50:53.626Z</time>
</trkpt>
<trkpt lat="53.3454516" lon="13.2463407">
<ele>85.809</ele>
<time>2013-08-11T16:50:56.423Z</time>
</trkpt>
<trkpt lat="53.3453196" lon="13.2465955">
<ele>87.775</ele>
<time>2013-08-11T16:50:59.705Z</time>
</trkpt>
<trkpt lat="53.3452423" lon="13.2467757">
<ele>89.912</ele>
<time>2013-08-11T16:51:01.945Z</time>
</trkpt>
<trkpt lat="53.3451356" lon="13.2470090">
<ele>92.225</ele>
<time>2013-08-11T16:51:05.039Z</time>
</trkpt>
<trkpt lat="53.3450313" lon="13.2472689">
<ele>94.425</ele>
<time>2013-08-11T16:51:08.381Z</time>
</trkpt>
<trkpt lat="53.3449565" lon="13.2474508">
<ele>95.969</ele>
<time>2013-08-11T16:51:10.716Z</time>
</trkpt>
<trkpt lat="53.3448613" lon="13.2476699">
<ele>96.692</ele>
<time>2013-08-11T16:51:13.562Z</time>
</trkpt>
<trkpt lat="53.3448047" lon="13.2477927">
<ele>96.860</ele>
<time>2013-08-11T16:51:15.211Z</time>
</trkpt>
<trkpt lat="53.3447302" lon="13.2480120">
<ele>96.622</ele>
<time>2013-08-11T16:51:17.952Z</time>
</trkpt>
<trkpt lat="53.3446875" lon="13.2481788">
<ele>96.101</ele>
<time>2013-08-11T16:51:19.983Z</time>
</trkpt>
<trkpt lat="53.3446370" lon="13.2483797">
<ele>95.792</ele>
<time>2013-08-11T16:51:22.533Z</time>
</trkpt>
<trkpt lat="53.3446022" lon="13.2486351">
<ele>96.032</ele>
<time>2013-08-11T16:51:25.683Z</time>
</trkpt>
<trkpt lat="53.3445453" lon="13.2488492">
<ele>96.351</ele>
<time>2013-08-11T16:51:28.419Z</time>
</trkpt>
<trkpt lat="53.3444840" lon="13.2490278">
<ele>95.968</ele>
<time>2013-08-11T16:51:30.679Z</time>
</trkpt>
<trkpt lat="53.3444148" lon="13.2492486">
<ele>94.858</ele>
<time>2013-08-11T16:51:33.189Z</time>
</trkpt>
<trkpt lat="53.3442917" lon="13.2495178">
<ele>93.806</ele>
<time>2013-08-11T16:51:36.367Z</time>
</trkpt>
<trkpt lat="53.3441970" lon="13.2497241">
<ele>93.343</ele>
<time>2013-08-11T16:51:38.523Z</time>
</trkpt>
<trkpt lat="53.3441044" lon="13.2499162">
<ele>93.466</ele>
<time>2013-08-11T16:51:40.570Z</time>
</trkpt>
<trkpt lat="53.3439844" lon="13.2501730">
<ele>94.021</ele>
<time>2013-08-11T16:51:43.369Z</time>
</trkpt>
<trkpt lat="53.3438520" lon="13.2504605">
<ele>94.971</ele>
<time>2013-08-11T16:51:46.680Z</time>
</trkpt>
<trkpt lat="53.3437390" lon="13.2506981">
<ele>96.190</ele>
<time>2013-08-11T16:51:49.582Z</time>
</trkpt>
<trkpt lat="53.3436578" lon="13.2508793">
<ele>96.893</ele>
<time>2013-08-11T16:51:51.938Z</time>
</trkpt>
<trkpt lat="53.3435322" lon="13.2511533">
<ele>96.564</ele>
<time>2013-08-11T16:51:55.769Z</time>
</trkpt>
<trkpt lat="53.3434223" lon="13.2514203">
<ele>95.915</ele>
<time>2013-08-11T16:51:59.468Z</time>
</trkpt>
<trkpt lat="53.3433259" lon="13.2516748">
<ele>95.656</ele>
<time>2013-08-11T16:52:02.699Z</time>
</trkpt>
<trkpt lat="53.3432332" lon="13.2518931">
<ele>95.676</ele>
<time>2013-08-11T16:52:05.447Z</time>
</trkpt>
<trkpt lat="53.3431310" lon="13.2520397">
<ele>95.366</ele>
<time>2013-08-11T16:52:07.835Z</time>
</trkpt>
<trkpt lat="53.3430319" lon="13.2521715">
<ele>94.293</ele>
<time>2013-08-11T16:52:10.173Z</time>
</trkpt>
<trkpt lat="53.3429342" lon="13.2523028">
<ele>92.888</ele>
<time>2013-08-11T16:52:12.548Z</time>
</trkpt>
<trkpt lat="53.3428526" lon="13.2525323">
<ele>92.060</ele>
<time>2013-08-11T16:52:15.681Z</time>
</trkpt>
<trkpt lat="53.3428120" lon="13.2527164">
<ele>92.063</ele>
<time>2013-08-11T16:52:18.158Z</time>
</trkpt>
<trkpt lat="53.3427577" lon="13.2529592">
<ele>91.824</ele>
<time>2013-08-11T16:52:21.731Z</time>
</trkpt>
<trkpt lat="53.3426876" lon="13.2531942">
<ele>90.537</ele>
<time>2013-08-11T16:52:25.295Z</time>
</trkpt>
<trkpt lat="53.3426436" lon="13.2533677">
<ele>89.588</ele>
<time>2013-08-11T16:52:27.834Z</time>
</trkpt>
<trkpt lat="53.3426061" lon="13.2536497">
<ele>90.259</ele>
<time>2013-08-11T16:52:31.826Z</time>
</trkpt>
<trkpt lat="53.3425955" lon="13.2538282">
<ele>90.896</ele>
<time>2013-08-11T16:52:34.186Z</time>
</trkpt>
<trkpt lat="53.3425817" lon="13.2539977">
<ele>89.913</ele>
<time>2013-08-11T16:52:36.211Z</time>
</trkpt>
<trkpt lat="53.3425479" lon="13.2542149">
<ele>88.453</ele>
<time>2013-08-11T16:52:38.576Z</time>
</trkpt>
<trkpt lat="53.3425155" lon="13.2544128">
<ele>88.361</ele>
<time>2013-08-11T16:52:40.647Z</time>
</trkpt>
<trkpt lat="53.3424811" lon="13.2546523">
<ele>89.692</ele>
<time>2013-08-11T16:52:43.229Z</time>
</trkpt>
<trkpt lat="53.3424358" lon="13.2549257">
<ele>90.918</ele>
<time>2013-08-11T16:52:46.264Z</time>
</trkpt>
<trkpt lat="53.3424438" lon="13.2552234">
<ele>90.645</ele>
<time>2013-08-11T16:52:49.555Z</time>
</trkpt>
<trkpt lat="53.3424167" lon="13.2553908">
<ele>89.192</ele>
<time>2013-08-11T16:52:51.572Z</time>
</trkpt>
<trkpt lat="53.3423640" lon="13.2556738">
<ele>87.828</ele>
<time>2013-08-11T16:52:55.270Z</time>
</trkpt>
<trkpt lat="53.3423715" lon="13.2558925">
<ele>87.350</ele>
<time>2013-08-11T16:52:57.832Z</time>
</trkpt>
<trkpt lat="53.3424117" lon="13.2562185">
<ele>87.399</ele>
<time>2013-08-11T16:53:01.068Z</time>
</trkpt>
<trkpt lat="53.3424617" lon="13.2564676">
<ele>86.893</ele>
<time>2013-08-11T16:53:03.324Z</time>
</trkpt>
<trkpt lat="53.3424889" lon="13.2566348">
<ele>85.543</ele>
<time>2013-08-11T16:53:04.810Z</time>
</trkpt>
<trkpt lat="53.3425332" lon="13.2568929">
<ele>84.378</ele>
<time>2013-08-11T16:53:07.189Z</time>
</trkpt>
<trkpt lat="53.3425467" lon="13.2570672">
<ele>84.073</ele>
<time>2013-08-11T16:53:08.818Z</time>
</trkpt>
<trkpt lat="53.3425574" lon="13.2574145">
<ele>84.277</ele>
<time>2013-08-11T16:53:12.399Z</time>
</trkpt>
<trkpt lat="53.3425627" lon="13.2577389">
<ele>85.501</ele>
<time>2013-08-11T16:53:16.325Z</time>
</trkpt>
<trkpt lat="53.3425868" lon="13.2579422">
<ele>88.618</ele>
<time>2013-08-11T16:53:18.738Z</time>
</trkpt>
<trkpt lat="53.3425865" lon="13.2581512">
<ele>92.848</ele>
<time>2013-08-11T16:53:20.935Z</time>
</trkpt>
<trkpt lat="53.3425755" lon="13.2584074">
<ele>96.737</ele>
<time>2013-08-11T16:53:23.573Z</time>
</trkpt>
<trkpt lat="53.3425481" lon="13.2586156">
<ele>99.516</ele>
<time>2013-08-11T16:53:25.716Z</time>
</trkpt>
<trkpt lat="53.3424844" lon="13.2589172">
<ele>100.722</ele>
<time>2013-08-11T16:53:28.801Z</time>
</trkpt>
<trkpt lat="53.3424468" lon="13.2590978">
<ele>100.575</ele>
<time>2013-08-11T16:53:30.631Z</time>
</trkpt>
<trkpt lat="53.3423805" lon="13.2594088">
<ele>99.885</ele>
<time>2013-08-11T16:53:33.840Z</time>
</trkpt>
<trkpt lat="53.3423097" lon="13.2595939">
<ele>98.925</ele>
<time>2013-08-11T16:53:36.057Z</time>
</trkpt>
<trkpt lat="53.3422320" lon="13.2597908">
<ele>97.517</ele>
<time>2013-08-11T16:53:38.604Z</time>
</trkpt>
<trkpt lat="53.3421185" lon="13.2600489">
<ele>95.947</ele>
<time>2013-08-11T16:53:42.627Z</time>
</trkpt>
<trkpt lat="53.3420451" lon="13.2602078">
<ele>94.812</ele>
<time>2013-08-11T16:53:45.472Z</time>
</trkpt>
<trkpt lat="53.3419457" lon="13.2604689">
<ele>94.266</ele>
<time>2013-08-11T16:53:49.987Z</time>
</trkpt>
<trkpt lat="53.3418552" lon="13.2607211">
<ele>94.162</ele>
<time>2013-08-11T16:53:54.174Z</time>
</trkpt>
<trkpt lat="53.3417967" lon="13.2608980">
<ele>94.230</ele>
<time>2013-08-11T16:53:56.770Z</time>
</trkpt>
<trkpt lat="53.3417139" lon="13.2610759">
<ele>94.055</ele>
<time>2013-08-11T16:53:59.323Z</time>
</trkpt>
<trkpt lat="53.3416147" lon="13.2612435">
<ele>92.943</ele>
<time>2013-08-11T16:54:01.633Z</time>
</trkpt>
<trkpt lat="53.3415168" lon="13.2614074">
<ele>90.834</ele>
<time>2013-08-11T16:54:03.894Z</time>
</trkpt>
<trkpt lat="53.3414069" lon="13.2615681">
<ele>88.769</ele>
<time>2013-08-11T16:54:06.537Z</time>
</trkpt>
<trkpt lat="53.3412999" lon="13.2617215">
<ele>88.082</ele>
<time>2013-08-11T16:54:09.626Z</time>
</trkpt>
<trkpt lat="53.3411700" lon="13.2618881">
<ele>89.021</ele>
<time>2013-08-11T16:54:13.213Z</time>
</trkpt>
<trkpt lat="53.3410648" lon="13.2619962">
<ele>90.808</ele>
<time>2013-08-11T16:54:15.626Z</time>
</trkpt>
<trkpt lat="53.3409117" lon="13.2622275">
<ele>92.497</ele>
<time>2013-08-11T16:54:19.203Z</time>
</trkpt>
<trkpt lat="53.3408201" lon="13.2624156">
<ele>93.207</ele>
<time>2013-08-11T16:54:21.501Z</time>
</trkpt>
<trkpt lat="53.3407827" lon="13.2626192">
<ele>92.559</ele>
<time>2013-08-11T16:54:23.652Z</time>
</trkpt>
<trkpt lat="53.3407029" lon="13.2628570">
<ele>91.130</ele>
<time>2013-08-11T16:54:26.800Z</time>
</trkpt>
<trkpt lat="53.3406492" lon="13.2630156">
<ele>89.609</ele>
<time>2013-08-11T16:54:29.182Z</time>
</trkpt>
<trkpt lat="53.3405406" lon="13.2632941">
<ele>88.554</ele>
<time>2013-08-11T16:54:33.492Z</time>
</trkpt>
<trkpt lat="53.3403803" lon="13.2636113">
<ele>88.108</ele>
<time>2013-08-11T16:54:38.055Z</time>
</trkpt>
<trkpt lat="53.3402754" lon="13.2637921">
<ele>87.860</ele>
<time>2013-08-11T16:54:40.942Z</time>
</trkpt>
<trkpt lat="53.3401652" lon="13.2639958">
<ele>87.628</ele>
<time>2013-08-11T16:54:43.988Z</time>
</trkpt>
<trkpt lat="53.3400792" lon="13.2642074">
<ele>87.235</ele>
<time>2013-08-11T16:54:46.717Z</time>
</trkpt>
<trkpt lat="53.3400193" lon="13.2643513">
<ele>85.959</ele>
<time>2013-08-11T16:54:48.643Z</time>
</trkpt>
<trkpt lat="53.3399329" lon="13.2646113">
<ele>83.870</ele>
<time>2013-08-11T16:54:52.119Z</time>
</trkpt>
<trkpt lat="53.3398690" lon="13.2647809">
<ele>82.564</ele>
<time>2013-08-11T16:54:54.577Z</time>
</trkpt>
<trkpt lat="53.3398018" lon="13.2649422">
<ele>83.719</ele>
<time>2013-08-11T16:54:56.933Z</time>
</trkpt>
<trkpt lat="53.3397442" lon="13.2650812">
<ele>87.309</ele>
<time>2013-08-11T16:54:58.932Z</time>
</trkpt>
<trkpt lat="53.3396370" lon="13.2653297">
<ele>91.597</ele>
<time>2013-08-11T16:55:02.794Z</time>
</trkpt>
<trkpt lat="53.3395595" lon="13.2654959">
<ele>94.693</ele>
<time>2013-08-11T16:55:05.666Z</time>
</trkpt>
<trkpt lat="53.3394708" lon="13.2656672">
<ele>96.198</ele>
<time>2013-08-11T16:55:08.804Z</time>
</trkpt>
<trkpt lat="53.3393669" lon="13.2658612">
<ele>96.792</ele>
<time>2013-08-11T16:55:12.742Z</time>
</trkpt>
<trkpt lat="53.3392774" lon="13.2660040">
<ele>96.936</ele>
<time>2013-08-11T16:55:15.940Z</time>
</trkpt>
<trkpt lat="53.3391661" lon="13.2661696">
<ele>96.024</ele>
<time>2013-08-11T16:55:19.935Z</time>
</trkpt>
<trkpt lat="53.3390606" lon="13.2663471">
<ele>93.842</ele>
<time>2013-08-11T16:55:24.074Z</time>
</trkpt>
<trkpt lat="53.3389954" lon="13.2664848">
<ele>91.696</ele>
<time>2013-08-11T16:55:27.133Z</time>
</trkpt>
<trkpt lat="53.3389215" lon="13.2666953">
<ele>91.016</ele>
<time>2013-08-11T16:55:31.400Z</time>
</trkpt>
<trkpt lat="53.3388527" lon="13.2669283">
<ele>91.706</ele>
<time>2013-08-11T16:55:35.416Z</time>
</trkpt>
<trkpt lat="53.3387868" lon="13.2671007">
<ele>92.658</ele>
<time>2013-08-11T16:55:38.426Z</time>
</trkpt>
<trkpt lat="53.3387481" lon="13.2672371">
<ele>92.786</ele>
<time>2013-08-11T16:55:40.741Z</time>
</trkpt>
<trkpt lat="53.3386806" lon="13.2674524">
<ele>92.020</ele>
<time>2013-08-11T16:55:44.670Z</time>
</trkpt>
<trkpt lat="53.3386289" lon="13.2676464">
<ele>91.114</ele>
<time>2013-08-11T16:55:48.118Z</time>
</trkpt>
<trkpt lat="53.3385982" lon="13.2677925">
<ele>90.912</ele>
<time>2013-08-11T16:55:50.492Z</time>
</trkpt>
<trkpt lat="53.3385297" lon="13.2679324">
<ele>91.632</ele>
<time>2013-08-11T16:55:52.866Z</time>
</trkpt>
<trkpt lat="53.3384353" lon="13.2680459">
<ele>93.343</ele>
<time>2013-08-11T16:55:55.197Z</time>
</trkpt>
<trkpt lat="53.3383826" lon="13.2681964">
<ele>95.773</ele>
<time>2013-08-11T16:55:57.267Z</time>
</trkpt>
<trkpt lat="53.3383287" lon="13.2683815">
<ele>97.859</ele>
<time>2013-08-11T16:55:59.734Z</time>
</trkpt>
<trkpt lat="53.3382749" lon="13.2685517">
<ele>98.418</ele>
<time>2013-08-11T16:56:01.929Z</time>
</trkpt>
<trkpt lat="53.3382191" lon="13.2686970">
<ele>97.356</ele>
<time>2013-08-11T16:56:03.791Z</time>
</trkpt>
<trkpt lat="53.3381741" lon="13.2688395">
<ele>95.873</ele>
<time>2013-08-11T16:56:05.459Z</time>
</trkpt>
<trkpt lat="53.3381319" lon="13.2690096">
<ele>95.271</ele>
<time>2013-08-11T16:56:07.281Z</time>
</trkpt>
<trkpt lat="53.3380863" lon="13.2691565">
<ele>95.584</ele>
<time>2013-08-11T16:56:08.858Z</time>
</trkpt>
<trkpt lat="53.3380025" lon="13.2693214">
<ele>96.111</ele>
<time>2013-08-11T16:56:10.865Z</time>
</trkpt>
<trkpt lat="53.3378934" lon="13.2694762">
<ele>96.351</ele>
<time>2013-08-11T16:56:13.033Z</time>
</trkpt>
<trkpt lat="53.3377880" lon="13.2696090">
<ele>96.140</ele>
<time>2013-08-11T16:56:15.027Z</time>
</trkpt>
<trkpt lat="53.3376725" lon="13.2697277">
<ele>95.102</ele>
<time>2013-08-11T16:56:17.095Z</time>
</trkpt>
<trkpt lat="53.3375976" lon="13.2698235">
<ele>93.284</ele>
<time>2013-08-11T16:56:18.552Z</time>
</trkpt>
<trkpt lat="53.3374861" lon="13.2699919">
<ele>92.221</ele>
<time>2013-08-11T16:56:20.880Z</time>
</trkpt>
<trkpt lat="53.3374027" lon="13.2701069">
<ele>93.037</ele>
<time>2013-08-11T16:56:22.564Z</time>
</trkpt>
<trkpt lat="53.3373075" lon="13.2702133">
<ele>94.806</ele>
<time>2013-08-11T16:56:24.320Z</time>
</trkpt>
<trkpt lat="53.3371605" lon="13.2703927">
<ele>96.205</ele>
<time>2013-08-11T16:56:27.051Z</time>
</trkpt>
<trkpt lat="53.3370222" lon="13.2705731">
<ele>96.818</ele>
<time>2013-08-11T16:56:29.624Z</time>
</trkpt>
<trkpt lat="53.3369307" lon="13.2706925">
<ele>96.605</ele>
<time>2013-08-11T16:56:31.309Z</time>
</trkpt>
<trkpt lat="53.3368389" lon="13.2708108">
<ele>95.852</ele>
<time>2013-08-11T16:56:32.993Z</time>
</trkpt>
<trkpt lat="53.3367228" lon="13.2709753">
<ele>95.143</ele>
<time>2013-08-11T16:56:35.265Z</time>
</trkpt>
<trkpt lat="53.3366331" lon="13.2710844">
<ele>94.828</ele>
<time>2013-08-11T16:56:36.987Z</time>
</trkpt>
<trkpt lat="53.3364886" lon="13.2712593">
<ele>94.923</ele>
<time>2013-08-11T16:56:39.835Z</time>
</trkpt>
<trkpt lat="53.3363683" lon="13.2714064">
<ele>95.314</ele>
<time>2013-08-11T16:56:42.304Z</time>
</trkpt>
<trkpt lat="53.3362683" lon="13.2715158">
<ele>95.511</ele>
<time>2013-08-11T16:56:44.316Z</time>
</trkpt>
<trkpt lat="53.3361795" lon="13.2716132">
<ele>95.098</ele>
<time>2013-08-11T16:56:46.017Z</time>
</trkpt>
<trkpt lat="53.3360942" lon="13.2717383">
<ele>94.339</ele>
<time>2013-08-11T16:56:47.711Z</time>
</trkpt>
<trkpt lat="53.3359643" lon="13.2719122">
<ele>93.868</ele>
<time>2013-08-11T16:56:50.106Z</time>
</trkpt>
<trkpt lat="53.3358420" lon="13.2720780">
<ele>94.321</ele>
<time>2013-08-11T16:56:52.280Z</time>
</trkpt>
<trkpt lat="53.3357356" lon="13.2722157">
<ele>95.455</ele>
<time>2013-08-11T16:56:54.047Z</time>
</trkpt>
<trkpt lat="53.3356371" lon="13.2723250">
<ele>96.216</ele>
<time>2013-08-11T16:56:55.555Z</time>
</trkpt>
<trkpt lat="53.3355138" lon="13.2724626">
<ele>95.851</ele>
<time>2013-08-11T16:56:57.404Z</time>
</trkpt>
<trkpt lat="53.3353491" lon="13.2726724">
<ele>94.429</ele>
<time>2013-08-11T16:56:59.943Z</time>
</trkpt>
<trkpt lat="53.3352378" lon="13.2728052">
<ele>92.744</ele>
<time>2013-08-11T16:57:01.590Z</time>
</trkpt>
<trkpt lat="53.3351307" lon="13.2729512">
<ele>91.762</ele>
<time>2013-08-11T16:57:03.242Z</time>
</trkpt>
<trkpt lat="53.3349552" lon="13.2731684">
<ele>91.591</ele>
<time>2013-08-11T16:57:05.857Z</time>
</trkpt>
<trkpt lat="53.3348414" lon="13.2733047">
<ele>91.465</ele>
<time>2013-08-11T16:57:07.546Z</time>
</trkpt>
<trkpt lat="53.3347454" lon="13.2734268">
<ele>89.915</ele>
<time>2013-08-11T16:57:09.023Z</time>
</trkpt>
<trkpt lat="53.3346122" lon="13.2735895">
<ele>86.791</ele>
<time>2013-08-11T16:57:11.087Z</time>
</trkpt>
<trkpt lat="53.3344951" lon="13.2737164">
<ele>84.110</ele>
<time>2013-08-11T16:57:12.902Z</time>
</trkpt>
<trkpt lat="53.3343240" lon="13.2738837">
<ele>83.439</ele>
<time>2013-08-11T16:57:15.726Z</time>
</trkpt>
<trkpt lat="53.3341460" lon="13.2740168">
<ele>84.232</ele>
<time>2013-08-11T16:57:18.943Z</time>
</trkpt>
<trkpt lat="53.3339903" lon="13.2740900">
<ele>85.161</ele>
<time>2013-08-11T16:57:22.255Z</time>
</trkpt>
<trkpt lat="53.3338909" lon="13.2740940">
<ele>85.389</ele>
<time>2013-08-11T16:57:24.503Z</time>
</trkpt>
<trkpt lat="53.3337591" lon="13.2740445">
<ele>84.853</ele>
<time>2013-08-11T16:57:27.173Z</time>
</trkpt>
<trkpt lat="53.3336664" lon="13.2739389">
<ele>83.350</ele>
<time>2013-08-11T16:57:28.897Z</time>
</trkpt>
<trkpt lat="53.3335762" lon="13.2737729">
<ele>80.825</ele>
<time>2013-08-11T16:57:30.823Z</time>
</trkpt>
<trkpt lat="53.3334496" lon="13.2735602">
<ele>77.890</ele>
<time>2013-08-11T16:57:33.106Z</time>
</trkpt>
<trkpt lat="53.3332559" lon="13.2733446">
<ele>75.183</ele>
<time>2013-08-11T16:57:35.852Z</time>
</trkpt>
<trkpt lat="53.3330197" lon="13.2730503">
<ele>73.151</ele>
<time>2013-08-11T16:57:39.156Z</time>
</trkpt>
<trkpt lat="53.3328643" lon="13.2728662">
<ele>72.526</ele>
<time>2013-08-11T16:57:41.291Z</time>
</trkpt>
<trkpt lat="53.3326696" lon="13.2726696">
<ele>73.314</ele>
<time>2013-08-11T16:57:43.900Z</time>
</trkpt>
<trkpt lat="53.3324581" lon="13.2724995">
<ele>74.480</ele>
<time>2013-08-11T16:57:46.496Z</time>
</trkpt>
<trkpt lat="53.3322978" lon="13.2723947">
<ele>75.189</ele>
<time>2013-08-11T16:57:48.330Z</time>
</trkpt>
<trkpt lat="53.3321309" lon="13.2723079">
<ele>75.973</ele>
<time>2013-08-11T16:57:50.248Z</time>
</trkpt>
<trkpt lat="53.3319650" lon="13.2722359">
<ele>77.471</ele>
<time>2013-08-11T16:57:52.164Z</time>
</trkpt>
<trkpt lat="53.3317969" lon="13.2721857">
<ele>79.218</ele>
<time>2013-08-11T16:57:54.127Z</time>
</trkpt>
<trkpt lat="53.3315676" lon="13.2721333">
<ele>80.909</ele>
<time>2013-08-11T16:57:56.928Z</time>
</trkpt>
<trkpt lat="53.3314277" lon="13.2720843">
<ele>82.871</ele>
<time>2013-08-11T16:57:58.853Z</time>
</trkpt>
<trkpt lat="53.3312403" lon="13.2719988">
<ele>84.699</ele>
<time>2013-08-11T16:58:01.513Z</time>
</trkpt>
<trkpt lat="53.3310353" lon="13.2718800">
<ele>85.756</ele>
<time>2013-08-11T16:58:04.513Z</time>
</trkpt>
<trkpt lat="53.3308707" lon="13.2717111">
<ele>85.462</ele>
<time>2013-08-11T16:58:07.436Z</time>
</trkpt>
<trkpt lat="53.3307388" lon="13.2716201">
<ele>83.700</ele>
<time>2013-08-11T16:58:10.075Z</time>
</trkpt>
<trkpt lat="53.3306430" lon="13.2715525">
<ele>81.613</ele>
<time>2013-08-11T16:58:12.099Z</time>
</trkpt>
<trkpt lat="53.3304993" lon="13.2714767">
<ele>80.389</ele>
<time>2013-08-11T16:58:14.957Z</time>
</trkpt>
<trkpt lat="53.3303733" lon="13.2714317">
<ele>80.263</ele>
<time>2013-08-11T16:58:17.419Z</time>
</trkpt>
<trkpt lat="53.3302230" lon="13.2714234">
<ele>81.065</ele>
<time>2013-08-11T16:58:20.434Z</time>
</trkpt>
<trkpt lat="53.3300884" lon="13.2714270">
<ele>82.679</ele>
<time>2013-08-11T16:58:23.153Z</time>
</trkpt>
<trkpt lat="53.3299664" lon="13.2714153">
<ele>84.728</ele>
<time>2013-08-11T16:58:25.468Z</time>
</trkpt>
<trkpt lat="53.3297981" lon="13.2714151">
<ele>85.841</ele>
<time>2013-08-11T16:58:29.032Z</time>
</trkpt>
<trkpt lat="53.3296994" lon="13.2714301">
<ele>85.067</ele>
<time>2013-08-11T16:58:31.527Z</time>
</trkpt>
<trkpt lat="53.3296994" lon="13.2714301">
<ele>83.564</ele>
<time>2013-08-11T16:58:39.329Z</time>
</trkpt>
<trkpt lat="53.3296994" lon="13.2714301">
<ele>82.824</ele>
<time>2013-08-11T17:00:50.648Z</time>
</trkpt>
<trkpt lat="53.3294350" lon="13.2714885">
<ele>82.921</ele>
<time>2013-08-11T17:01:14.406Z</time>
</trkpt>
<trkpt lat="53.3293536" lon="13.2715556">
<ele>82.153</ele>
<time>2013-08-11T17:01:19.337Z</time>
</trkpt>
<trkpt lat="53.3293536" lon="13.2715556">
<ele>79.533</ele>
<time>2013-08-11T17:01:33.317Z</time>
</trkpt>
<trkpt lat="53.3293536" lon="13.2715556">
<ele>77.225</ele>
<time>2013-08-11T17:02:36.858Z</time>
</trkpt>
<trkpt lat="53.3293419" lon="13.2712613">
<ele>77.218</ele>
<time>2013-08-11T17:03:15.692Z</time>
</trkpt>
<trkpt lat="53.3292598" lon="13.2711941">
<ele>78.401</ele>
<time>2013-08-11T17:03:20.496Z</time>
</trkpt>
<trkpt lat="53.3291898" lon="13.2710976">
<ele>79.698</ele>
<time>2013-08-11T17:03:24.812Z</time>
</trkpt>
<trkpt lat="53.3291125" lon="13.2709789">
<ele>81.089</ele>
<time>2013-08-11T17:03:29.878Z</time>
</trkpt>
<trkpt lat="53.3290259" lon="13.2708624">
<ele>81.974</ele>
<time>2013-08-11T17:03:34.772Z</time>
</trkpt>
<trkpt lat="53.3289542" lon="13.2707706">
<ele>81.673</ele>
<time>2013-08-11T17:03:38.397Z</time>
</trkpt>
<trkpt lat="53.3288796" lon="13.2706858">
<ele>80.662</ele>
<time>2013-08-11T17:03:41.877Z</time>
</trkpt>
<trkpt lat="53.3287874" lon="13.2706034">
<ele>79.864</ele>
<time>2013-08-11T17:03:45.877Z</time>
</trkpt>
<trkpt lat="53.3286774" lon="13.2705040">
<ele>79.739</ele>
<time>2013-08-11T17:03:51.414Z</time>
</trkpt>
<trkpt lat="53.3285922" lon="13.2704260">
<ele>80.172</ele>
<time>2013-08-11T17:03:56.751Z</time>
</trkpt>
<trkpt lat="53.3285009" lon="13.2704002">
<ele>81.755</ele>
<time>2013-08-11T17:04:01.836Z</time>
</trkpt>
<trkpt lat="53.3284042" lon="13.2703804">
<ele>84.833</ele>
<time>2013-08-11T17:04:07.188Z</time>
</trkpt>
<trkpt lat="53.3283428" lon="13.2702508">
<ele>88.097</ele>
<time>2013-08-11T17:04:12.614Z</time>
</trkpt>
<trkpt lat="53.3283011" lon="13.2701054">
<ele>90.151</ele>
<time>2013-08-11T17:04:20.215Z</time>
</trkpt>
<trkpt lat="53.3282935" lon="13.2699335">
<ele>90.967</ele>
<time>2013-08-11T17:04:28.094Z</time>
</trkpt>
<trkpt lat="53.3282889" lon="13.2697619">
<ele>92.282</ele>
<time>2013-08-11T17:04:35.805Z</time>
</trkpt>
<trkpt lat="53.3282824" lon="13.2696021">
<ele>96.024</ele>
<time>2013-08-11T17:04:41.967Z</time>
</trkpt>
<trkpt lat="53.3282289" lon="13.2694261">
<ele>101.378</ele>
<time>2013-08-11T17:04:48.865Z</time>
</trkpt>
<trkpt lat="53.3281593" lon="13.2692797">
<ele>105.896</ele>
<time>2013-08-11T17:04:54.420Z</time>
</trkpt>
<trkpt lat="53.3280877" lon="13.2691735">
<ele>107.746</ele>
<time>2013-08-11T17:04:58.755Z</time>
</trkpt>
<trkpt lat="53.3280024" lon="13.2690481">
<ele>106.849</ele>
<time>2013-08-11T17:05:03.634Z</time>
</trkpt>
<trkpt lat="53.3279414" lon="13.2689245">
<ele>105.377</ele>
<time>2013-08-11T17:05:07.895Z</time>
</trkpt>
<trkpt lat="53.3278867" lon="13.2687723">
<ele>105.094</ele>
<time>2013-08-11T17:05:13.268Z</time>
</trkpt>
<trkpt lat="53.3278371" lon="13.2686387">
<ele>105.702</ele>
<time>2013-08-11T17:05:18.727Z</time>
</trkpt>
<trkpt lat="53.3278233" lon="13.2684555">
<ele>106.366</ele>
<time>2013-08-11T17:05:25.954Z</time>
</trkpt>
<trkpt lat="53.3277805" lon="13.2683064">
<ele>106.788</ele>
<time>2013-08-11T17:05:31.083Z</time>
</trkpt>
<trkpt lat="53.3277311" lon="13.2681669">
<ele>106.968</ele>
<time>2013-08-11T17:05:35.377Z</time>
</trkpt>
<trkpt lat="53.3276914" lon="13.2679953">
<ele>106.884</ele>
<time>2013-08-11T17:05:40.052Z</time>
</trkpt>
<trkpt lat="53.3276625" lon="13.2678027">
<ele>106.355</ele>
<time>2013-08-11T17:05:45.250Z</time>
</trkpt>
<trkpt lat="53.3276384" lon="13.2676317">
<ele>104.257</ele>
<time>2013-08-11T17:05:49.594Z</time>
</trkpt>
<trkpt lat="53.3276256" lon="13.2674709">
<ele>99.740</ele>
<time>2013-08-11T17:05:53.198Z</time>
</trkpt>
<trkpt lat="53.3275722" lon="13.2673184">
<ele>94.127</ele>
<time>2013-08-11T17:05:56.776Z</time>
</trkpt>
<trkpt lat="53.3274927" lon="13.2671366">
<ele>89.618</ele>
<time>2013-08-11T17:06:01.022Z</time>
</trkpt>
<trkpt lat="53.3274172" lon="13.2669287">
<ele>86.876</ele>
<time>2013-08-11T17:06:04.862Z</time>
</trkpt>
<trkpt lat="53.3273368" lon="13.2666113">
<ele>85.482</ele>
<time>2013-08-11T17:06:09.274Z</time>
</trkpt>
<trkpt lat="53.3273109" lon="13.2664540">
<ele>85.812</ele>
<time>2013-08-11T17:06:11.142Z</time>
</trkpt>
<trkpt lat="53.3273110" lon="13.2662679">
<ele>88.160</ele>
<time>2013-08-11T17:06:13.170Z</time>
</trkpt>
<trkpt lat="53.3273077" lon="13.2660864">
<ele>90.790</ele>
<time>2013-08-11T17:06:15.111Z</time>
</trkpt>
<trkpt lat="53.3272331" lon="13.2656710">
<ele>92.277</ele>
<time>2013-08-11T17:06:20.031Z</time>
</trkpt>
<trkpt lat="53.3271562" lon="13.2654380">
<ele>93.363</ele>
<time>2013-08-11T17:06:23.383Z</time>
</trkpt>
<trkpt lat="53.3270948" lon="13.2652480">
<ele>95.323</ele>
<time>2013-08-11T17:06:26.149Z</time>
</trkpt>
<trkpt lat="53.3270350" lon="13.2650190">
<ele>98.370</ele>
<time>2013-08-11T17:06:29.306Z</time>
</trkpt>
<trkpt lat="53.3269483" lon="13.2647094">
<ele>101.566</ele>
<time>2013-08-11T17:06:33.787Z</time>
</trkpt>
<trkpt lat="53.3269460" lon="13.2645138">
<ele>104.338</ele>
<time>2013-08-11T17:06:36.685Z</time>
</trkpt>
<trkpt lat="53.3269545" lon="13.2643166">
<ele>106.660</ele>
<time>2013-08-11T17:06:39.871Z</time>
</trkpt>
<trkpt lat="53.3269785" lon="13.2641643">
<ele>108.287</ele>
<time>2013-08-11T17:06:42.491Z</time>
</trkpt>
<trkpt lat="53.3269907" lon="13.2639803">
<ele>109.213</ele>
<time>2013-08-11T17:06:45.561Z</time>
</trkpt>
<trkpt lat="53.3269782" lon="13.2637773">
<ele>109.642</ele>
<time>2013-08-11T17:06:48.926Z</time>
</trkpt>
<trkpt lat="53.3269310" lon="13.2635584">
<ele>109.127</ele>
<time>2013-08-11T17:06:52.778Z</time>
</trkpt>
<trkpt lat="53.3269056" lon="13.2633810">
<ele>107.553</ele>
<time>2013-08-11T17:06:55.901Z</time>
</trkpt>
<trkpt lat="53.3268961" lon="13.2632127">
<ele>106.265</ele>
<time>2013-08-11T17:06:58.936Z</time>
</trkpt>
<trkpt lat="53.3268950" lon="13.2630561">
<ele>107.322</ele>
<time>2013-08-11T17:07:01.845Z</time>
</trkpt>
<trkpt lat="53.3269325" lon="13.2628754">
<ele>111.555</ele>
<time>2013-08-11T17:07:05.501Z</time>
</trkpt>
<trkpt lat="53.3269788" lon="13.2626718">
<ele>117.149</ele>
<time>2013-08-11T17:07:09.596Z</time>
</trkpt>
<trkpt lat="53.3269827" lon="13.2625118">
<ele>120.117</ele>
<time>2013-08-11T17:07:12.475Z</time>
</trkpt>
<trkpt lat="53.3270000" lon="13.2623142">
<ele>118.936</ele>
<time>2013-08-11T17:07:15.814Z</time>
</trkpt>
<trkpt lat="53.3270102" lon="13.2621501">
<ele>116.119</ele>
<time>2013-08-11T17:07:18.349Z</time>
</trkpt>
<trkpt lat="53.3269832" lon="13.2619725">
<ele>113.958</ele>
<time>2013-08-11T17:07:20.958Z</time>
</trkpt>
<trkpt lat="53.3269697" lon="13.2618010">
<ele>112.145</ele>
<time>2013-08-11T17:07:23.226Z</time>
</trkpt>
<trkpt lat="53.3270030" lon="13.2616516">
<ele>110.132</ele>
<time>2013-08-11T17:07:25.258Z</time>
</trkpt>
<trkpt lat="53.3270141" lon="13.2614853">
<ele>107.813</ele>
<time>2013-08-11T17:07:27.334Z</time>
</trkpt>
<trkpt lat="53.3269986" lon="13.2613118">
<ele>105.204</ele>
<time>2013-08-11T17:07:29.464Z</time>
</trkpt>
<trkpt lat="53.3269801" lon="13.2610094">
<ele>102.942</ele>
<time>2013-08-11T17:07:33.155Z</time>
</trkpt>
<trkpt lat="53.3269876" lon="13.2607948">
<ele>102.997</ele>
<time>2013-08-11T17:07:35.907Z</time>
</trkpt>
<trkpt lat="53.3270002" lon="13.2605389">
<ele>105.897</ele>
<time>2013-08-11T17:07:39.389Z</time>
</trkpt>
<trkpt lat="53.3269783" lon="13.2602467">
<ele>108.566</ele>
<time>2013-08-11T17:07:43.707Z</time>
</trkpt>
<trkpt lat="53.3269544" lon="13.2600588">
<ele>108.179</ele>
<time>2013-08-11T17:07:46.496Z</time>
</trkpt>
<trkpt lat="53.3268795" lon="13.2598366">
<ele>105.519</ele>
<time>2013-08-11T17:07:50.011Z</time>
</trkpt>
<trkpt lat="53.3268566" lon="13.2596800">
<ele>102.625</ele>
<time>2013-08-11T17:07:52.181Z</time>
</trkpt>
<trkpt lat="53.3268383" lon="13.2594550">
<ele>100.975</ele>
<time>2013-08-11T17:07:55.161Z</time>
</trkpt>
<trkpt lat="53.3268178" lon="13.2592419">
<ele>100.845</ele>
<time>2013-08-11T17:07:57.899Z</time>
</trkpt>
<trkpt lat="53.3267758" lon="13.2590872">
<ele>101.373</ele>
<time>2013-08-11T17:07:59.975Z</time>
</trkpt>
<trkpt lat="53.3266975" lon="13.2589863">
<ele>101.408</ele>
<time>2013-08-11T17:08:01.950Z</time>
</trkpt>
<trkpt lat="53.3266352" lon="13.2588599">
<ele>100.547</ele>
<time>2013-08-11T17:08:03.853Z</time>
</trkpt>
<trkpt lat="53.3265687" lon="13.2586782">
<ele>99.350</ele>
<time>2013-08-11T17:08:06.292Z</time>
</trkpt>
<trkpt lat="53.3265109" lon="13.2585042">
<ele>98.388</ele>
<time>2013-08-11T17:08:08.564Z</time>
</trkpt>
<trkpt lat="53.3264975" lon="13.2583300">
<ele>97.826</ele>
<time>2013-08-11T17:08:10.573Z</time>
</trkpt>
<trkpt lat="53.3264856" lon="13.2581361">
<ele>97.734</ele>
<time>2013-08-11T17:08:12.820Z</time>
</trkpt>
<trkpt lat="53.3264631" lon="13.2579200">
<ele>97.903</ele>
<time>2013-08-11T17:08:15.384Z</time>
</trkpt>
<trkpt lat="53.3264549" lon="13.2577007">
<ele>97.936</ele>
<time>2013-08-11T17:08:18.003Z</time>
</trkpt>
<trkpt lat="53.3264620" lon="13.2574947">
<ele>97.454</ele>
<time>2013-08-11T17:08:20.513Z</time>
</trkpt>
<trkpt lat="53.3264811" lon="13.2572828">
<ele>96.564</ele>
<time>2013-08-11T17:08:23.155Z</time>
</trkpt>
<trkpt lat="53.3265027" lon="13.2571103">
<ele>95.829</ele>
<time>2013-08-11T17:08:25.339Z</time>
</trkpt>
<trkpt lat="53.3265096" lon="13.2569202">
<ele>95.469</ele>
<time>2013-08-11T17:08:27.681Z</time>
</trkpt>
<trkpt lat="53.3265181" lon="13.2567441">
<ele>95.015</ele>
<time>2013-08-11T17:08:29.825Z</time>
</trkpt>
<trkpt lat="53.3265137" lon="13.2565509">
<ele>94.017</ele>
<time>2013-08-11T17:08:32.144Z</time>
</trkpt>
<trkpt lat="53.3264978" lon="13.2563646">
<ele>92.787</ele>
<time>2013-08-11T17:08:34.375Z</time>
</trkpt>
<trkpt lat="53.3264819" lon="13.2561740">
<ele>91.983</ele>
<time>2013-08-11T17:08:36.612Z</time>
</trkpt>
<trkpt lat="53.3264645" lon="13.2559680">
<ele>91.751</ele>
<time>2013-08-11T17:08:39.012Z</time>
</trkpt>
<trkpt lat="53.3264228" lon="13.2557643">
<ele>91.797</ele>
<time>2013-08-11T17:08:41.538Z</time>
</trkpt>
<trkpt lat="53.3263657" lon="13.2555725">
<ele>91.859</ele>
<time>2013-08-11T17:08:44.104Z</time>
</trkpt>
<trkpt lat="53.3262937" lon="13.2554047">
<ele>91.845</ele>
<time>2013-08-11T17:08:46.691Z</time>
</trkpt>
<trkpt lat="53.3262397" lon="13.2552190">
<ele>91.687</ele>
<time>2013-08-11T17:08:49.304Z</time>
</trkpt>
<trkpt lat="53.3262030" lon="13.2550683">
<ele>91.314</ele>
<time>2013-08-11T17:08:51.383Z</time>
</trkpt>
<trkpt lat="53.3261711" lon="13.2548957">
<ele>90.927</ele>
<time>2013-08-11T17:08:53.715Z</time>
</trkpt>
<trkpt lat="53.3261344" lon="13.2547297">
<ele>90.731</ele>
<time>2013-08-11T17:08:56.037Z</time>
</trkpt>
<trkpt lat="53.3261072" lon="13.2545862">
<ele>90.627</ele>
<time>2013-08-11T17:08:58.023Z</time>
</trkpt>
<trkpt lat="53.3260679" lon="13.2544139">
<ele>90.530</ele>
<time>2013-08-11T17:09:00.457Z</time>
</trkpt>
<trkpt lat="53.3260369" lon="13.2542410">
<ele>90.689</ele>
<time>2013-08-11T17:09:02.829Z</time>
</trkpt>
<trkpt lat="53.3260139" lon="13.2540682">
<ele>91.449</ele>
<time>2013-08-11T17:09:05.140Z</time>
</trkpt>
<trkpt lat="53.3259879" lon="13.2538986">
<ele>92.657</ele>
<time>2013-08-11T17:09:07.433Z</time>
</trkpt>
<trkpt lat="53.3259590" lon="13.2537231">
<ele>93.617</ele>
<time>2013-08-11T17:09:09.851Z</time>
</trkpt>
<trkpt lat="53.3259254" lon="13.2535593">
<ele>93.959</ele>
<time>2013-08-11T17:09:12.165Z</time>
</trkpt>
<trkpt lat="53.3258966" lon="13.2533213">
<ele>93.316</ele>
<time>2013-08-11T17:09:15.366Z</time>
</trkpt>
<trkpt lat="53.3258860" lon="13.2531718">
<ele>91.654</ele>
<time>2013-08-11T17:09:17.296Z</time>
</trkpt>
<trkpt lat="53.3258518" lon="13.2530238">
<ele>90.011</ele>
<time>2013-08-11T17:09:19.321Z</time>
</trkpt>
<trkpt lat="53.3258518" lon="13.2530238">
<ele>89.300</ele>
<time>2013-08-11T17:09:33.323Z</time>
</trkpt>
<trkpt lat="53.3258518" lon="13.2530238">
<ele>89.240</ele>
<time>2013-08-11T17:12:32.175Z</time>
</trkpt>
<trkpt lat="53.3257816" lon="13.2526194">
<ele>89.287</ele>
<time>2013-08-11T17:13:14.156Z</time>
</trkpt>
<trkpt lat="53.3257407" lon="13.2524779">
<ele>88.971</ele>
<time>2013-08-11T17:13:19.655Z</time>
</trkpt>
<trkpt lat="53.3257063" lon="13.2523061">
<ele>87.899</ele>
<time>2013-08-11T17:13:24.917Z</time>
</trkpt>
<trkpt lat="53.3256856" lon="13.2521457">
<ele>86.345</ele>
<time>2013-08-11T17:13:28.919Z</time>
</trkpt>
<trkpt lat="53.3256850" lon="13.2519754">
<ele>85.352</ele>
<time>2013-08-11T17:13:32.623Z</time>
</trkpt>
<trkpt lat="53.3256746" lon="13.2518198">
<ele>85.363</ele>
<time>2013-08-11T17:13:35.769Z</time>
</trkpt>
<trkpt lat="53.3256826" lon="13.2516217">
<ele>85.805</ele>
<time>2013-08-11T17:13:39.529Z</time>
</trkpt>
<trkpt lat="53.3256733" lon="13.2514633">
<ele>86.096</ele>
<time>2013-08-11T17:13:42.418Z</time>
</trkpt>
<trkpt lat="53.3256745" lon="13.2512954">
<ele>86.171</ele>
<time>2013-08-11T17:13:45.392Z</time>
</trkpt>
<trkpt lat="53.3256826" lon="13.2511263">
<ele>86.219</ele>
<time>2013-08-11T17:13:48.345Z</time>
</trkpt>
<trkpt lat="53.3256836" lon="13.2509489">
<ele>86.296</ele>
<time>2013-08-11T17:13:51.391Z</time>
</trkpt>
<trkpt lat="53.3256858" lon="13.2507737">
<ele>86.350</ele>
<time>2013-08-11T17:13:54.359Z</time>
</trkpt>
<trkpt lat="53.3256891" lon="13.2506205">
<ele>86.364</ele>
<time>2013-08-11T17:13:56.918Z</time>
</trkpt>
<trkpt lat="53.3256886" lon="13.2504424">
<ele>86.320</ele>
<time>2013-08-11T17:13:59.879Z</time>
</trkpt>
<trkpt lat="53.3256988" lon="13.2502626">
<ele>86.237</ele>
<time>2013-08-11T17:14:02.860Z</time>
</trkpt>
<trkpt lat="53.3257135" lon="13.2500813">
<ele>86.220</ele>
<time>2013-08-11T17:14:05.794Z</time>
</trkpt>
<trkpt lat="53.3257395" lon="13.2499176">
<ele>86.295</ele>
<time>2013-08-11T17:14:08.400Z</time>
</trkpt>
<trkpt lat="53.3257695" lon="13.2497684">
<ele>86.417</ele>
<time>2013-08-11T17:14:10.751Z</time>
</trkpt>
<trkpt lat="53.3258041" lon="13.2495575">
<ele>86.187</ele>
<time>2013-08-11T17:14:13.987Z</time>
</trkpt>
<trkpt lat="53.3258224" lon="13.2493198">
<ele>85.386</ele>
<time>2013-08-11T17:14:17.614Z</time>
</trkpt>
<trkpt lat="53.3258255" lon="13.2491172">
<ele>84.690</ele>
<time>2013-08-11T17:14:20.794Z</time>
</trkpt>
<trkpt lat="53.3258171" lon="13.2489333">
<ele>84.825</ele>
<time>2013-08-11T17:14:23.773Z</time>
</trkpt>
<trkpt lat="53.3257980" lon="13.2487675">
<ele>85.584</ele>
<time>2013-08-11T17:14:26.527Z</time>
</trkpt>
<trkpt lat="53.3257627" lon="13.2486130">
<ele>86.344</ele>
<time>2013-08-11T17:14:29.195Z</time>
</trkpt>
<trkpt lat="53.3257157" lon="13.2484718">
<ele>86.754</ele>
<time>2013-08-11T17:14:31.724Z</time>
</trkpt>
<trkpt lat="53.3256812" lon="13.2483209">
<ele>86.639</ele>
<time>2013-08-11T17:14:34.150Z</time>
</trkpt>
<trkpt lat="53.3256465" lon="13.2481381">
<ele>85.742</ele>
<time>2013-08-11T17:14:36.843Z</time>
</trkpt>
<trkpt lat="53.3255919" lon="13.2479333">
<ele>84.221</ele>
<time>2013-08-11T17:14:39.846Z</time>
</trkpt>
<trkpt lat="53.3255361" lon="13.2477178">
<ele>82.840</ele>
<time>2013-08-11T17:14:42.979Z</time>
</trkpt>
<trkpt lat="53.3254767" lon="13.2474664">
<ele>82.396</ele>
<time>2013-08-11T17:14:46.758Z</time>
</trkpt>
<trkpt lat="53.3254301" lon="13.2473352">
<ele>83.125</ele>
<time>2013-08-11T17:14:49.126Z</time>
</trkpt>
<trkpt lat="53.3253721" lon="13.2472174">
<ele>84.405</ele>
<time>2013-08-11T17:14:51.599Z</time>
</trkpt>
<trkpt lat="53.3252904" lon="13.2470948">
<ele>85.265</ele>
<time>2013-08-11T17:14:54.977Z</time>
</trkpt>
<trkpt lat="53.3251997" lon="13.2470087">
<ele>85.332</ele>
<time>2013-08-11T17:14:58.221Z</time>
</trkpt>
<trkpt lat="53.3251128" lon="13.2469345">
<ele>84.840</ele>
<time>2013-08-11T17:15:01.092Z</time>
</trkpt>
<trkpt lat="53.3250156" lon="13.2468380">
<ele>84.214</ele>
<time>2013-08-11T17:15:04.029Z</time>
</trkpt>
<trkpt lat="53.3249103" lon="13.2467344">
<ele>83.787</ele>
<time>2013-08-11T17:15:07.003Z</time>
</trkpt>
<trkpt lat="53.3248343" lon="13.2466454">
<ele>83.637</ele>
<time>2013-08-11T17:15:09.246Z</time>
</trkpt>
<trkpt lat="53.3247106" lon="13.2465063">
<ele>83.757</ele>
<time>2013-08-11T17:15:12.881Z</time>
</trkpt>
<trkpt lat="53.3245828" lon="13.2464217">
<ele>84.251</ele>
<time>2013-08-11T17:15:16.249Z</time>
</trkpt>
<trkpt lat="53.3244804" lon="13.2463373">
<ele>85.174</ele>
<time>2013-08-11T17:15:19.110Z</time>
</trkpt>
<trkpt lat="53.3243604" lon="13.2462245">
<ele>86.273</ele>
<time>2013-08-11T17:15:22.665Z</time>
</trkpt>
<trkpt lat="53.3242603" lon="13.2461043">
<ele>87.099</ele>
<time>2013-08-11T17:15:25.919Z</time>
</trkpt>
<trkpt lat="53.3241702" lon="13.2459906">
<ele>87.483</ele>
<time>2013-08-11T17:15:28.933Z</time>
</trkpt>
<trkpt lat="53.3240805" lon="13.2458473">
<ele>87.612</ele>
<time>2013-08-11T17:15:32.229Z</time>
</trkpt>
<trkpt lat="53.3240017" lon="13.2457270">
<ele>87.660</ele>
<time>2013-08-11T17:15:35.044Z</time>
</trkpt>
<trkpt lat="53.3239220" lon="13.2456045">
<ele>87.747</ele>
<time>2013-08-11T17:15:37.983Z</time>
</trkpt>
<trkpt lat="53.3238212" lon="13.2454809">
<ele>87.860</ele>
<time>2013-08-11T17:15:41.627Z</time>
</trkpt>
<trkpt lat="53.3237342" lon="13.2454057">
<ele>87.829</ele>
<time>2013-08-11T17:15:44.795Z</time>
</trkpt>
<trkpt lat="53.3236275" lon="13.2453269">
<ele>87.247</ele>
<time>2013-08-11T17:15:48.318Z</time>
</trkpt>
<trkpt lat="53.3235443" lon="13.2452123">
<ele>86.438</ele>
<time>2013-08-11T17:15:51.120Z</time>
</trkpt>
<trkpt lat="53.3235610" lon="13.2450566">
<ele>86.291</ele>
<time>2013-08-11T17:15:53.414Z</time>
</trkpt>
<trkpt lat="53.3236101" lon="13.2449262">
<ele>86.733</ele>
<time>2013-08-11T17:15:55.482Z</time>
</trkpt>
<trkpt lat="53.3236987" lon="13.2447502">
<ele>86.960</ele>
<time>2013-08-11T17:15:58.474Z</time>
</trkpt>
<trkpt lat="53.3237630" lon="13.2446357">
<ele>86.797</ele>
<time>2013-08-11T17:16:00.510Z</time>
</trkpt>
<trkpt lat="53.3238613" lon="13.2444729">
<ele>86.481</ele>
<time>2013-08-11T17:16:03.538Z</time>
</trkpt>
<trkpt lat="53.3239348" lon="13.2443612">
<ele>86.305</ele>
<time>2013-08-11T17:16:05.744Z</time>
</trkpt>
<trkpt lat="53.3240321" lon="13.2442107">
<ele>86.215</ele>
<time>2013-08-11T17:16:08.726Z</time>
</trkpt>
<trkpt lat="53.3241405" lon="13.2440765">
<ele>86.136</ele>
<time>2013-08-11T17:16:11.797Z</time>
</trkpt>
<trkpt lat="53.3242407" lon="13.2439595">
<ele>86.111</ele>
<time>2013-08-11T17:16:14.617Z</time>
</trkpt>
<trkpt lat="53.3243383" lon="13.2438176">
<ele>86.160</ele>
<time>2013-08-11T17:16:17.621Z</time>
</trkpt>
<trkpt lat="53.3244281" lon="13.2436681">
<ele>86.223</ele>
<time>2013-08-11T17:16:20.533Z</time>
</trkpt>
<trkpt lat="53.3245036" lon="13.2435143">
<ele>86.250</ele>
<time>2013-08-11T17:16:23.221Z</time>
</trkpt>
<trkpt lat="53.3245621" lon="13.2433465">
<ele>86.209</ele>
<time>2013-08-11T17:16:25.810Z</time>
</trkpt>
<trkpt lat="53.3246038" lon="13.2431322">
<ele>86.326</ele>
<time>2013-08-11T17:16:28.783Z</time>
</trkpt>
<trkpt lat="53.3246311" lon="13.2429139">
<ele>86.715</ele>
<time>2013-08-11T17:16:31.762Z</time>
</trkpt>
<trkpt lat="53.3246444" lon="13.2426905">
<ele>86.901</ele>
<time>2013-08-11T17:16:34.900Z</time>
</trkpt>
<trkpt lat="53.3246731" lon="13.2424567">
<ele>86.505</ele>
<time>2013-08-11T17:16:38.410Z</time>
</trkpt>
<trkpt lat="53.3247121" lon="13.2422702">
<ele>85.948</ele>
<time>2013-08-11T17:16:41.391Z</time>
</trkpt>
<trkpt lat="53.3247566" lon="13.2421212">
<ele>85.686</ele>
<time>2013-08-11T17:16:43.950Z</time>
</trkpt>
<trkpt lat="53.3248026" lon="13.2419855">
<ele>85.643</ele>
<time>2013-08-11T17:16:46.427Z</time>
</trkpt>
<trkpt lat="53.3248673" lon="13.2418486">
<ele>85.593</ele>
<time>2013-08-11T17:16:49.304Z</time>
</trkpt>
<trkpt lat="53.3249260" lon="13.2416796">
<ele>85.462</ele>
<time>2013-08-11T17:16:52.601Z</time>
</trkpt>
<trkpt lat="53.3249957" lon="13.2415249">
<ele>85.482</ele>
<time>2013-08-11T17:16:55.857Z</time>
</trkpt>
<trkpt lat="53.3250617" lon="13.2414041">
<ele>85.849</ele>
<time>2013-08-11T17:16:58.594Z</time>
</trkpt>
<trkpt lat="53.3251420" lon="13.2412873">
<ele>86.505</ele>
<time>2013-08-11T17:17:01.531Z</time>
</trkpt>
<trkpt lat="53.3252225" lon="13.2411737">
<ele>87.367</ele>
<time>2013-08-11T17:17:04.389Z</time>
</trkpt>
<trkpt lat="53.3253018" lon="13.2410687">
<ele>88.239</ele>
<time>2013-08-11T17:17:07.197Z</time>
</trkpt>
<trkpt lat="53.3253956" lon="13.2409461">
<ele>88.853</ele>
<time>2013-08-11T17:17:10.607Z</time>
</trkpt>
<trkpt lat="53.3254795" lon="13.2408256">
<ele>89.397</ele>
<time>2013-08-11T17:17:13.858Z</time>
</trkpt>
<trkpt lat="53.3255580" lon="13.2406949">
<ele>90.276</ele>
<time>2013-08-11T17:17:17.038Z</time>
</trkpt>
<trkpt lat="53.3256257" lon="13.2405776">
<ele>91.413</ele>
<time>2013-08-11T17:17:20.059Z</time>
</trkpt>
<trkpt lat="53.3257094" lon="13.2404457">
<ele>92.339</ele>
<time>2013-08-11T17:17:23.904Z</time>
</trkpt>
<trkpt lat="53.3257880" lon="13.2403317">
<ele>92.795</ele>
<time>2013-08-11T17:17:27.661Z</time>
</trkpt>
<trkpt lat="53.3256934" lon="13.2404594">
<ele>92.794</ele>
<time>2013-08-11T17:17:32.025Z</time>
</trkpt>
<trkpt lat="53.3256344" lon="13.2405730">
<ele>92.439</ele>
<time>2013-08-11T17:17:36.291Z</time>
</trkpt>
<trkpt lat="53.3255568" lon="13.2406663">
<ele>91.986</ele>
<time>2013-08-11T17:17:40.943Z</time>
</trkpt>
<trkpt lat="53.3255433" lon="13.2405175">
<ele>91.578</ele>
<time>2013-08-11T17:17:45.320Z</time>
</trkpt>
<trkpt lat="53.3255433" lon="13.2405175">
<ele>91.270</ele>
<time>2013-08-11T17:17:53.327Z</time>
</trkpt>
<trkpt lat="53.3255433" lon="13.2405175">
<ele>91.158</ele>
<time>2013-08-11T17:20:01.833Z</time>
</trkpt>
<trkpt lat="53.3253800" lon="13.2406976">
<ele>91.173</ele>
<time>2013-08-11T17:20:23.401Z</time>
</trkpt>
<trkpt lat="53.3253389" lon="13.2408521">
<ele>91.024</ele>
<time>2013-08-11T17:20:28.641Z</time>
</trkpt>
<trkpt lat="53.3253179" lon="13.2410064">
<ele>90.632</ele>
<time>2013-08-11T17:20:32.600Z</time>
</trkpt>
<trkpt lat="53.3252255" lon="13.2411461">
<ele>90.230</ele>
<time>2013-08-11T17:20:36.559Z</time>
</trkpt>
<trkpt lat="53.3251265" lon="13.2412863">
<ele>89.881</ele>
<time>2013-08-11T17:20:39.771Z</time>
</trkpt>
<trkpt lat="53.3250162" lon="13.2414772">
<ele>89.439</ele>
<time>2013-08-11T17:20:42.934Z</time>
</trkpt>
<trkpt lat="53.3249094" lon="13.2416980">
<ele>88.883</ele>
<time>2013-08-11T17:20:45.727Z</time>
</trkpt>
<trkpt lat="53.3248466" lon="13.2418565">
<ele>88.085</ele>
<time>2013-08-11T17:20:47.531Z</time>
</trkpt>
<trkpt lat="53.3247608" lon="13.2420961">
<ele>87.104</ele>
<time>2013-08-11T17:20:50.160Z</time>
</trkpt>
<trkpt lat="53.3247039" lon="13.2423038">
<ele>86.236</ele>
<time>2013-08-11T17:20:52.332Z</time>
</trkpt>
<trkpt lat="53.3246661" lon="13.2424652">
<ele>85.692</ele>
<time>2013-08-11T17:20:53.993Z</time>
</trkpt>
<trkpt lat="53.3246250" lon="13.2426785">
<ele>85.585</ele>
<time>2013-08-11T17:20:56.373Z</time>
</trkpt>
<trkpt lat="53.3245284" lon="13.2427611">
<ele>85.855</ele>
<time>2013-08-11T17:20:58.336Z</time>
</trkpt>
<trkpt lat="53.3245284" lon="13.2427611">
<ele>86.241</ele>
<time>2013-08-11T17:21:04.310Z</time>
</trkpt>
<trkpt lat="53.3245284" lon="13.2427611">
<ele>86.575</ele>
<time>2013-08-11T17:21:25.887Z</time>
</trkpt>
</trkseg>
</trk>
<extensions>
<fpdata xmlns="http://www.motionx.com/GPX-Extensions/1/1" sfv="10" origin="MotionXGPSFull 21.1 Build 4789R">
<bin enc="base64">
RQIAAAACAAAA/HP9UeuB1EEBAAAA4CwSBvKB1EEAAJgnbIq1QNoGAAA9rSQAEgteHjpu
VkC+gK2ixqRVQAAAAAAUAAAAR29sZGVuYmF1bSBydW5kIGZmZgAUAAAAMTEuMDguMjAx
MyAgNToyNyBwbQAAAAAAgC0SBvKB1EEwZjgwoo/UQZOaWQBFB1k+Ij57QCwAAAACAAAA
XP36TAV4KkC4eOxpmKlKQBILXh46blZAAAAAAAAAFEAAAAAAAAAjQAAAAAAAQItAAAAA
AAAAAAAAAAAAAAAAAAAAAAC+gK2ixqRVQAEAAAD1qOWlgw5jPwEAAAABAAAA471HL6qN
rj8ymZ2OO8SuvwEAAAABAAAACAAAAI3fyYKlQoZAAAAAAAAAAAAAAAAAAAAAAAAAAAAA
AAAAAAAAAAAAAAAAAAAAAAAAAAAAAAB4z3gF8oHUQQAAAAAAAAAAAAAAAAAAAAD/JUS8
AQAAAAAAAAAAAAAAAAAAAJdRAAABAAAAARkAAABHrQdSAcgHUgQQeP1R64HUQRB4/VHr
gdRBAAAAAACmMD8AAAAAAj50/VHrgdRBDk0AUuuB1EEAAAAAgMamPwAAAAACtRaoVuuB
1EGy1hRc64HUQQAAADRjvjVAAAAAAALSkBdg64HUQc5t2J3rgdRBAABAch3McEAAAAAA
AvNWNKvrgdRB4snvr+uB1EEAAAAu+vpxQAAAAAACM8TgsuuB1EFWKCC+64HUQQAAwDbT
ynRAAAAAAAKal57R64HUQZ9YrdjrgdRBAAAAeIOOdkAAAAAAAskfld7rgdRBZmmmOeyB
1EEAAKDvaqmGQAAAAAAC6l9bRuyB1EE9upiW7IHUQQAAAB2LWJBAAAAAAAINNJ2d7IHU
QbraWDPtgdRBAADQh0W0mUAAAAAAAr4U2zjtgdRBDRqsQO2B1EEAAMDcVTGaQAAAAAAC
rd9ZXu2B1EEgzz/67YHUQQAA+Gna96FAAAAAAAJZM4X+7YHUQSREZxbugdRBAABQ8Oq2
okAAAAAAAssw2xnugdRBnDOYPe6B1EEAANgG09SjQAAAAAACo7HhQO6B1EHl8GhJ7oHU
QQAA6AANGaRAAAAAAALyWvtL7oHUQVyUGAfvgdRBAAA4zPbxqUAAAAAAAvw0GwjvgdRB
SOJcc++B1EEAAJg2BEytQAAAAAACGCfdde+B1EFmTdiT74HUQQAACGndO65AAAAAAAIB
Mp2e74HUQWQI2dDvgdRBAAAgHLzNr0AAAAAAAqYn3NzvgdRBhBGZ/e+B1EEAAIi10Wmw
QAAAAAACQtKgIPCB1EHAWNyv8IHUQQAAgM+/prJAAAAAAAL+mZrV8IHUQZhtZdvwgdRB
AADoHeu9skAAAAAAAoTW3PPwgdRBdhZcU/GB1EEAALAd6Du0QAAAAAACBFUkiPGB1EGn
Pl3Q8YHUQQAAPMTLXLVAAAAAAAIjhd708YHUQfqdRgDygdRBAACYJ2yKtUAAAAAAAAAA
AA==
</bin>
</fpdata>
</extensions>
</gpx>
